Darstellungsparameter: Aktuell verwendete Einstellungen:
Skalierung der Graphiken ... ?
xyx+y,   Skalierungsfaktor:      Skalierung: Modus: x, Faktor: 1
Darstellungszeitraum ... ?
Vom - - bis: - -   Zeitraum: 10.09.2020 - 08.10.2020
Min/Max/Avg-Anzeige ... ?
Zeige MMA aktuell
Zeige MMA Monat
Zeige MMA alles
Zeige --A aktuell
Zeige --A Monat
Zeige --A alles
Keine MMA-Anzeige
MMA:
Keine MMA-Graphiken
MMA-Basis: 10.09.2020 - 08.10.2020
Quicknavigation für Darstellung... ?
Tage:      1T, 2T, 3T, 5T -1T -2T -3T -5T +1T +2T +3T +5T
Wochen: 1W, 2W, 3W -1W -2W -3W +1W +2W +3W
Monate: 1M, 3M, 6M -1M -3M -6M +1M +3M +6M
Jahre:    1J, 3J, 5J, 10J -1J -3J -5J -10J +1J +3J +5J +10J
Nutze für die Darstellung ... ?
Originaldaten oder Mittelwerte auf ...
Stundenbasis Tagesbasis Wochenbasis
Monatsbasis Jahresbasis      Datenbasis: Original-Daten
Darstellen als:
Statistik (Auto) Statistik J:M      Darstellung:
Zur Graphik,    zurück zur Übersicht aller Sensoren.
 
Tabellarische Datenbersicht: ?
 
Sensor: Nr:Datum:Temp:Feuchte:
Aussen-T/F 1 10-09-2020 00:05:18 20.6 C 32 %
2 10-09-2020 00:15:17 20.1 C 34 %
3 10-09-2020 00:25:17 19.9 C 35 %
4 10-09-2020 00:35:18 19.8 C 35 %
5 10-09-2020 00:45:17 19.6 C 35 %
6 10-09-2020 00:55:17 18.8 C 38 %
7 10-09-2020 01:05:17 18.3 C 40 %
8 10-09-2020 01:15:17 18.1 C 40 %
9 10-09-2020 01:25:17 18 C 40 %
10 10-09-2020 01:35:17 18 C 40 %
11 10-09-2020 01:45:17 17.8 C 41 %
12 10-09-2020 01:55:17 17.6 C 41 %
13 10-09-2020 02:05:17 17.5 C 41 %
14 10-09-2020 02:15:18 17.4 C 40 %
15 10-09-2020 02:25:18 17.3 C 38 %
16 10-09-2020 02:35:18 17.3 C 37 %
17 10-09-2020 02:45:17 17.2 C 37 %
18 10-09-2020 02:55:17 17.2 C 37 %
19 10-09-2020 03:05:17 17.2 C 37 %
20 10-09-2020 03:15:17 17 C 37 %
21 10-09-2020 03:25:17 17 C 37 %
22 10-09-2020 03:35:18 17 C 37 %
23 10-09-2020 03:45:17 17 C 37 %
24 10-09-2020 03:55:17 16.9 C 37 %
25 10-09-2020 04:05:17 16.8 C 38 %
Sensor: Nr:Datum:Temp:Feuchte:
Aussen-T/F 26 10-09-2020 04:15:17 16.6 C 38 %
27 10-09-2020 04:25:17 16.6 C 37 %
28 10-09-2020 04:35:17 16.6 C 36 %
29 10-09-2020 04:45:17 16.6 C 36 %
30 10-09-2020 04:55:17 16.6 C 35 %
31 10-09-2020 05:05:17 16.6 C 35 %
32 10-09-2020 05:15:17 16.5 C 35 %
33 10-09-2020 05:25:17 16.3 C 35 %
34 10-09-2020 05:35:17 16.3 C 35 %
35 10-09-2020 05:45:17 16.1 C 36 %
36 10-09-2020 05:55:17 16.2 C 36 %
37 10-09-2020 06:05:17 16.2 C 36 %
38 10-09-2020 06:15:17 16.1 C 35 %
39 10-09-2020 06:25:17 16.2 C 35 %
40 10-09-2020 06:35:17 15.8 C 36 %
41 10-09-2020 06:45:18 15.7 C 36 %
42 10-09-2020 06:55:18 15.5 C 36 %
43 10-09-2020 07:05:17 15.2 C 37 %
44 10-09-2020 07:15:18 15.2 C 37 %
45 10-09-2020 07:25:18 15.3 C 36 %
46 10-09-2020 07:35:18 15.4 C 36 %
47 10-09-2020 07:45:17 15.4 C 36 %
48 10-09-2020 07:55:17 15.4 C 36 %
49 10-09-2020 08:05:17 15.4 C 36 %
50 10-09-2020 08:15:17 15.5 C 36 %
Sensor: Nr:Datum:Temp:Feuchte:
Aussen-T/F 51 10-09-2020 08:25:17 15.7 C 36 %
52 10-09-2020 08:35:17 15.7 C 36 %
53 10-09-2020 08:45:17 15.6 C 36 %
54 10-09-2020 08:55:17 15.8 C 36 %
55 10-09-2020 09:05:17 15.8 C 36 %
56 10-09-2020 09:15:17 16.2 C 35 %
57 10-09-2020 09:25:17 16.1 C 35 %
58 10-09-2020 09:35:17 16.6 C 35 %
59 10-09-2020 09:45:17 17 C 34 %
60 10-09-2020 09:55:17 16.7 C 34 %
61 10-09-2020 10:05:17 16.3 C 33 %
62 10-09-2020 10:15:17 16.4 C 33 %
63 10-09-2020 10:25:17 16.3 C 32 %
64 10-09-2020 10:35:17 16.6 C 32 %
65 10-09-2020 10:45:17 17 C 32 %
66 10-09-2020 10:55:17 18.1 C 30 %
67 10-09-2020 11:05:18 18.2 C 30 %
68 10-09-2020 11:15:17 17.9 C 31 %
69 10-09-2020 11:25:17 18.1 C 30 %
70 10-09-2020 11:35:17 17.8 C 30 %
71 10-09-2020 11:45:17 17.7 C 30 %
72 10-09-2020 11:55:17 17.8 C 30 %
73 10-09-2020 12:05:17 18.7 C 29 %
74 10-09-2020 12:15:17 18.9 C 29 %
75 10-09-2020 12:25:17 19.2 C 28 %
Sensor: Nr:Datum:Temp:Feuchte:
Aussen-T/F 76 10-09-2020 12:35:17 18.8 C 27 %
77 10-09-2020 12:45:17 18.3 C 28 %
78 10-09-2020 12:55:18 18.1 C 27 %
79 10-09-2020 13:05:18 18.5 C 27 %
80 10-09-2020 13:15:17 18.3 C 27 %
81 10-09-2020 13:25:17 18.5 C 27 %
82 10-09-2020 13:35:18 18.5 C 27 %
83 10-09-2020 13:45:17 19 C 26 %
84 10-09-2020 13:55:17 19.3 C 26 %
85 10-09-2020 14:05:18 19.6 C 26 %
86 10-09-2020 14:15:17 20.3 C 26 %
87 10-09-2020 14:25:17 21.8 C 25 %
88 10-09-2020 14:35:17 24.2 C 21 %
89 10-09-2020 14:45:17 24.7 C 20 %
90 10-09-2020 14:55:17 24.1 C 20 %
91 10-09-2020 15:05:17 26.2 C 20 %
92 10-09-2020 15:15:18 27.1 C 20 %
93 10-09-2020 15:25:18 27.9 C 20 %
94 10-09-2020 15:35:18 27.6 C 20 %
95 10-09-2020 15:45:17 27 C 20 %
96 10-09-2020 15:55:17 26.7 C 20 %
97 10-09-2020 16:05:17 26.2 C 20 %
98 10-09-2020 16:15:17 28.6 C 20 %
99 10-09-2020 16:25:17 29.3 C 20 %
100 10-09-2020 16:35:17 29 C 20 %
Sensor: Nr:Datum:Temp:Feuchte:
Aussen-T/F 101 10-09-2020 16:45:17 26.8 C 20 %
102 10-09-2020 16:55:17 26.3 C 20 %
103 10-09-2020 17:05:17 23.9 C 20 %
104 10-09-2020 17:15:17 24.3 C 20 %
105 10-09-2020 17:25:17 25.9 C 20 %
106 10-09-2020 17:35:18 25.8 C 20 %
107 10-09-2020 17:45:17 24.4 C 20 %
108 10-09-2020 17:55:17 23 C 20 %
109 10-09-2020 18:05:17 22.5 C 20 %
110 10-09-2020 18:15:17 22.1 C 20 %
111 10-09-2020 18:25:17 22.1 C 20 %
112 10-09-2020 18:35:18 21.6 C 21 %
113 10-09-2020 18:45:18 21.5 C 21 %
114 10-09-2020 18:55:18 21.2 C 22 %
115 10-09-2020 19:05:18 21.2 C 21 %
116 10-09-2020 19:15:17 21 C 21 %
117 10-09-2020 19:25:17 20.9 C 22 %
118 10-09-2020 19:35:17 20.7 C 21 %
119 10-09-2020 19:45:17 20.1 C 23 %
120 10-09-2020 19:55:17 19 C 24 %
121 10-09-2020 20:05:17 17.8 C 26 %
122 10-09-2020 20:15:17 17.3 C 26 %
123 10-09-2020 20:25:17 17 C 26 %
124 10-09-2020 20:35:18 16.9 C 26 %
125 10-09-2020 20:45:17 16.9 C 26 %
Sensor: Nr:Datum:Temp:Feuchte:
Aussen-T/F 126 10-09-2020 20:55:17 16.7 C 26 %
127 10-09-2020 21:05:17 16.5 C 27 %
128 10-09-2020 21:15:17 16.4 C 27 %
129 10-09-2020 21:25:17 15.9 C 27 %
130 10-09-2020 21:35:17 15.7 C 28 %
131 10-09-2020 21:45:17 15.1 C 29 %
132 10-09-2020 21:55:17 15.2 C 29 %
133 10-09-2020 22:05:17 14.7 C 30 %
134 10-09-2020 22:15:17 14.3 C 31 %
135 10-09-2020 22:25:17 14 C 31 %
136 10-09-2020 22:35:17 13.5 C 32 %
137 10-09-2020 22:45:18 13 C 33 %
138 10-09-2020 22:55:18 12.8 C 34 %
139 10-09-2020 23:05:17 12.5 C 34 %
140 10-09-2020 23:15:18 12.4 C 35 %
141 10-09-2020 23:25:18 12.1 C 35 %
142 10-09-2020 23:35:17 11.8 C 36 %
143 10-09-2020 23:45:17 11.8 C 36 %
144 10-09-2020 23:55:17 11.8 C 36 %
145 11-09-2020 00:05:18 11.8 C 36 %
146 11-09-2020 00:15:17 11.8 C 36 %
147 11-09-2020 00:25:17 12.1 C 35 %
148 11-09-2020 00:35:18 12.2 C 35 %
149 11-09-2020 00:45:17 12.1 C 35 %
150 11-09-2020 00:55:17 12.1 C 36 %
Sensor: Nr:Datum:Temp:Feuchte:
Aussen-T/F 151 11-09-2020 01:05:18 12.1 C 35 %
152 11-09-2020 01:15:17 12 C 36 %
153 11-09-2020 01:25:17 12.1 C 35 %
154 11-09-2020 01:35:18 11.7 C 36 %
155 11-09-2020 01:45:17 11.2 C 37 %
156 11-09-2020 01:55:17 11.2 C 37 %
157 11-09-2020 02:05:18 10.9 C 38 %
158 11-09-2020 02:15:18 10.9 C 39 %
159 11-09-2020 02:25:18 10.7 C 39 %
160 11-09-2020 02:35:18 10.9 C 39 %
161 11-09-2020 02:45:17 10.2 C 39 %
162 11-09-2020 02:55:17 9.9 C 40 %
163 11-09-2020 03:05:17 10.3 C 40 %
164 11-09-2020 03:15:17 9.8 C 40 %
165 11-09-2020 03:25:17 9.7 C 41 %
166 11-09-2020 03:35:18 9.6 C 41 %
167 11-09-2020 03:45:17 9.5 C 41 %
168 11-09-2020 03:55:17 9.3 C 41 %
169 11-09-2020 04:05:18 9.4 C 42 %
170 11-09-2020 04:15:17 9 C 42 %
171 11-09-2020 04:25:17 9 C 43 %
172 11-09-2020 04:35:17 8.7 C 43 %
173 11-09-2020 04:45:17 8.7 C 44 %
174 11-09-2020 04:55:17 8.8 C 43 %
175 11-09-2020 05:05:18 8.7 C 44 %
Sensor: Nr:Datum:Temp:Feuchte:
Aussen-T/F 176 11-09-2020 05:15:17 8.4 C 44 %
177 11-09-2020 05:25:17 8.2 C 44 %
178 11-09-2020 05:35:18 8.2 C 45 %
179 11-09-2020 05:45:18 8 C 45 %
180 11-09-2020 05:55:18 8 C 45 %
181 11-09-2020 06:05:17 8 C 45 %
182 11-09-2020 06:15:18 7.9 C 45 %
183 11-09-2020 06:25:18 7.9 C 45 %
184 11-09-2020 06:35:17 7.9 C 46 %
185 11-09-2020 06:45:17 7.7 C 46 %
186 11-09-2020 06:55:17 7.8 C 46 %
187 11-09-2020 07:05:17 7.9 C 46 %
188 11-09-2020 07:15:18 7.9 C 46 %
189 11-09-2020 07:25:18 8.1 C 45 %
190 11-09-2020 07:35:18 8 C 45 %
191 11-09-2020 07:45:17 8 C 45 %
192 11-09-2020 07:55:17 8.2 C 45 %
193 11-09-2020 08:05:17 8.1 C 45 %
194 11-09-2020 08:15:18 8.3 C 45 %
195 11-09-2020 08:25:18 8.4 C 45 %
196 11-09-2020 08:35:17 8.5 C 45 %
197 11-09-2020 08:45:18 8.7 C 45 %
198 11-09-2020 08:55:18 9 C 45 %
199 11-09-2020 09:05:17 9.3 C 43 %
200 11-09-2020 09:15:17 9.6 C 43 %
Sensor: Nr:Datum:Temp:Feuchte:
Aussen-T/F 201 11-09-2020 09:25:17 9.8 C 43 %
202 11-09-2020 09:35:18 10.1 C 42 %
203 11-09-2020 09:45:17 10.4 C 42 %
204 11-09-2020 09:55:18 10.7 C 42 %
205 11-09-2020 10:05:18 11.2 C 40 %
206 11-09-2020 10:15:17 11.6 C 40 %
207 11-09-2020 10:25:17 12 C 39 %
208 11-09-2020 10:35:17 12.5 C 38 %
209 11-09-2020 10:45:17 13.1 C 37 %
210 11-09-2020 10:55:17 13.7 C 37 %
211 11-09-2020 11:05:18 14.3 C 35 %
212 11-09-2020 11:15:17 14.8 C 34 %
213 11-09-2020 11:25:17 15.5 C 32 %
214 11-09-2020 11:35:17 16.3 C 31 %
215 11-09-2020 11:45:17 16.8 C 31 %
216 11-09-2020 11:55:17 17.4 C 30 %
217 11-09-2020 12:05:17 17.9 C 30 %
218 11-09-2020 12:15:17 18.4 C 29 %
219 11-09-2020 12:25:17 19.3 C 26 %
220 11-09-2020 12:35:17 18.7 C 27 %
221 11-09-2020 12:45:17 18.7 C 27 %
222 11-09-2020 12:55:18 19 C 26 %
223 11-09-2020 13:05:17 19.6 C 26 %
224 11-09-2020 13:15:17 19.7 C 25 %
225 11-09-2020 13:25:17 20 C 25 %
Sensor: Nr:Datum:Temp:Feuchte:
Aussen-T/F 226 11-09-2020 13:35:18 20.1 C 25 %
227 11-09-2020 13:45:17 20.3 C 25 %
228 11-09-2020 13:55:17 20.8 C 25 %
229 11-09-2020 14:05:18 21 C 24 %
230 11-09-2020 14:15:18 21.6 C 24 %
231 11-09-2020 14:25:18 23.6 C 21 %
232 11-09-2020 14:35:17 24.6 C 20 %
233 11-09-2020 14:45:17 25.5 C 20 %
234 11-09-2020 14:55:17 24.9 C 20 %
235 11-09-2020 15:05:18 27.3 C 20 %
236 11-09-2020 15:15:17 27.7 C 20 %
237 11-09-2020 15:25:17 26.9 C 20 %
238 11-09-2020 15:35:18 28 C 20 %
239 11-09-2020 15:45:17 28.2 C 20 %
240 11-09-2020 15:55:18 27.3 C 20 %
241 11-09-2020 16:05:17 28.6 C 20 %
242 11-09-2020 16:15:18 27.6 C 20 %
243 11-09-2020 16:25:18 27.3 C 20 %
244 11-09-2020 16:35:17 28.2 C 20 %
245 11-09-2020 16:45:17 27.5 C 20 %
246 11-09-2020 16:55:17 26.5 C 20 %
247 11-09-2020 17:05:17 27.5 C 20 %
248 11-09-2020 17:15:17 26.8 C 20 %
249 11-09-2020 17:25:17 26.7 C 20 %
250 11-09-2020 17:35:17 27.1 C 20 %
Sensor: Nr:Datum:Temp:Feuchte:
Aussen-T/F 251 11-09-2020 17:45:18 25.6 C 20 %
252 11-09-2020 17:55:18 24.8 C 20 %
253 11-09-2020 18:05:18 24.1 C 20 %
254 11-09-2020 18:15:17 24 C 20 %
255 11-09-2020 18:25:17 23.9 C 20 %
256 11-09-2020 18:35:17 23 C 21 %
257 11-09-2020 18:45:17 22.5 C 23 %
258 11-09-2020 18:55:17 21.9 C 25 %
259 11-09-2020 19:05:18 21.2 C 25 %
260 11-09-2020 19:15:17 20.7 C 25 %
261 11-09-2020 19:25:17 20 C 26 %
262 11-09-2020 19:35:17 19.8 C 26 %
263 11-09-2020 19:45:17 19.4 C 26 %
264 11-09-2020 19:55:17 19.2 C 26 %
265 11-09-2020 20:05:17 18.7 C 27 %
266 11-09-2020 20:15:17 18.3 C 27 %
267 11-09-2020 20:25:17 17.6 C 29 %
268 11-09-2020 20:35:17 17.4 C 30 %
269 11-09-2020 20:45:17 16.9 C 30 %
270 11-09-2020 20:55:17 17.1 C 30 %
271 11-09-2020 21:05:18 16.6 C 30 %
272 11-09-2020 21:15:17 16 C 31 %
273 11-09-2020 21:25:17 15.8 C 32 %
274 11-09-2020 21:35:17 15.4 C 32 %
275 11-09-2020 21:45:17 15 C 33 %
Sensor: Nr:Datum:Temp:Feuchte:
Aussen-T/F 276 11-09-2020 21:55:17 14.8 C 34 %
277 11-09-2020 22:05:17 14.7 C 34 %
278 11-09-2020 22:15:18 14.5 C 35 %
279 11-09-2020 22:25:18 14.8 C 35 %
280 11-09-2020 22:35:17 14.3 C 35 %
281 11-09-2020 22:45:18 14 C 35 %
282 11-09-2020 22:55:18 13.7 C 36 %
283 11-09-2020 23:05:17 13.7 C 37 %
284 11-09-2020 23:15:17 13.4 C 37 %
285 11-09-2020 23:25:17 13.2 C 37 %
286 11-09-2020 23:35:18 13.1 C 37 %
287 11-09-2020 23:45:18 12.9 C 38 %
288 11-09-2020 23:55:18 13 C 37 %
289 12-09-2020 00:05:18 12.7 C 39 %
290 12-09-2020 00:15:17 12.4 C 39 %
291 12-09-2020 00:25:17 12.2 C 39 %
292 12-09-2020 00:35:18 12.3 C 39 %
293 12-09-2020 00:45:17 12.3 C 39 %
294 12-09-2020 00:55:17 12.4 C 40 %
295 12-09-2020 01:05:17 12.3 C 40 %
296 12-09-2020 01:15:17 12.1 C 40 %
297 12-09-2020 01:25:17 12.1 C 40 %
298 12-09-2020 01:35:17 12.1 C 39 %
299 12-09-2020 01:45:17 12 C 40 %
300 12-09-2020 01:55:17 11.7 C 40 %
Sensor: Nr:Datum:Temp:Feuchte:
Aussen-T/F 301 12-09-2020 02:05:18 11.3 C 41 %
302 12-09-2020 02:15:17 11.3 C 42 %
303 12-09-2020 02:25:17 11.1 C 41 %
304 12-09-2020 02:35:18 11.1 C 42 %
305 12-09-2020 02:45:18 11.2 C 43 %
306 12-09-2020 02:55:18 11.2 C 42 %
307 12-09-2020 03:05:17 11 C 42 %
308 12-09-2020 03:15:17 10.7 C 43 %
309 12-09-2020 03:25:18 10.7 C 44 %
310 12-09-2020 03:35:17 10.8 C 44 %
311 12-09-2020 03:45:17 10.7 C 43 %
312 12-09-2020 03:55:18 10.5 C 44 %
313 12-09-2020 04:05:18 10.7 C 44 %
314 12-09-2020 04:15:17 10.4 C 44 %
315 12-09-2020 04:25:17 10.2 C 44 %
316 12-09-2020 04:35:18 10.3 C 45 %
317 12-09-2020 04:45:17 10.3 C 45 %
318 12-09-2020 04:55:17 10.2 C 45 %
319 12-09-2020 05:05:17 10 C 45 %
320 12-09-2020 05:15:18 9.8 C 45 %
321 12-09-2020 05:25:18 9.8 C 45 %
322 12-09-2020 05:35:17 9.7 C 45 %
323 12-09-2020 05:45:17 9.6 C 45 %
324 12-09-2020 05:55:17 9.6 C 46 %
325 12-09-2020 06:05:17 9.8 C 46 %
Sensor: Nr:Datum:Temp:Feuchte:
Aussen-T/F 326 12-09-2020 06:15:17 9.6 C 45 %
327 12-09-2020 06:25:17 9.6 C 46 %
328 12-09-2020 06:35:17 9.5 C 45 %
329 12-09-2020 06:45:18 9.9 C 46 %
330 12-09-2020 06:55:18 9.7 C 45 %
331 12-09-2020 07:05:17 9.4 C 45 %
332 12-09-2020 07:15:18 9.6 C 46 %
333 12-09-2020 07:25:18 9.7 C 46 %
334 12-09-2020 07:35:17 9.8 C 45 %
335 12-09-2020 07:45:17 9.9 C 46 %
336 12-09-2020 07:55:17 10 C 45 %
337 12-09-2020 08:05:17 10.1 C 45 %
338 12-09-2020 08:15:17 10.5 C 45 %
339 12-09-2020 08:25:17 10.9 C 45 %
340 12-09-2020 08:35:17 11.3 C 43 %
341 12-09-2020 08:45:17 12 C 41 %
342 12-09-2020 08:55:17 12.4 C 40 %
343 12-09-2020 09:05:18 13.1 C 38 %
344 12-09-2020 09:15:17 13.5 C 37 %
345 12-09-2020 09:25:17 13.6 C 37 %
346 12-09-2020 09:35:18 13.8 C 37 %
347 12-09-2020 09:45:17 14.3 C 36 %
348 12-09-2020 09:55:17 14.7 C 36 %
349 12-09-2020 10:05:18 14.8 C 35 %
350 12-09-2020 10:15:17 14.9 C 35 %
Sensor: Nr:Datum:Temp:Feuchte:
Aussen-T/F 351 12-09-2020 10:25:18 15.3 C 35 %
352 12-09-2020 10:35:18 15.9 C 34 %
353 12-09-2020 10:45:17 17 C 32 %
354 12-09-2020 10:55:17 17.5 C 32 %
355 12-09-2020 11:05:18 17.7 C 32 %
356 12-09-2020 11:15:17 18.1 C 32 %
357 12-09-2020 11:25:17 18.3 C 31 %
358 12-09-2020 11:35:17 18.9 C 31 %
359 12-09-2020 11:45:17 19.6 C 30 %
360 12-09-2020 11:55:17 20.5 C 30 %
361 12-09-2020 12:05:18 20.7 C 30 %
362 12-09-2020 12:15:17 20.7 C 29 %
363 12-09-2020 12:25:17 21.8 C 27 %
364 12-09-2020 12:35:18 22.2 C 26 %
365 12-09-2020 12:45:17 22.1 C 26 %
366 12-09-2020 12:55:18 23.6 C 24 %
367 12-09-2020 13:05:17 24.2 C 23 %
368 12-09-2020 13:15:18 24.9 C 21 %
369 12-09-2020 13:25:18 25.3 C 21 %
370 12-09-2020 13:35:18 25.6 C 21 %
371 12-09-2020 13:45:17 25.8 C 21 %
372 12-09-2020 13:55:18 25.7 C 21 %
373 12-09-2020 14:05:18 25.1 C 22 %
374 12-09-2020 14:15:17 25.1 C 21 %
375 12-09-2020 14:25:17 26.6 C 21 %
Sensor: Nr:Datum:Temp:Feuchte:
Aussen-T/F 376 12-09-2020 14:35:18 26.3 C 21 %
377 12-09-2020 14:45:17 27.8 C 20 %
378 12-09-2020 14:55:17 28.2 C 20 %
379 12-09-2020 15:05:18 30.4 C 20 %
380 12-09-2020 15:15:18 28.9 C 20 %
381 12-09-2020 15:25:18 29.5 C 20 %
382 12-09-2020 15:35:17 29.8 C 20 %
383 12-09-2020 15:45:17 31.5 C 20 %
384 12-09-2020 15:55:17 29.4 C 20 %
385 12-09-2020 16:05:18 31.4 C 20 %
386 12-09-2020 16:15:17 32.6 C 20 %
387 12-09-2020 16:25:18 28.4 C 20 %
388 12-09-2020 16:35:17 29.2 C 20 %
389 12-09-2020 16:45:17 28.8 C 20 %
390 12-09-2020 16:55:17 30.2 C 20 %
391 12-09-2020 17:05:18 29.7 C 20 %
392 12-09-2020 17:15:18 29.8 C 20 %
393 12-09-2020 17:25:18 28.7 C 20 %
394 12-09-2020 17:35:18 29 C 20 %
395 12-09-2020 17:45:17 26.6 C 20 %
396 12-09-2020 17:55:17 25.3 C 20 %
397 12-09-2020 18:05:18 25.2 C 21 %
398 12-09-2020 18:15:17 24.9 C 21 %
399 12-09-2020 18:25:17 24.9 C 21 %
400 12-09-2020 18:35:18 24.4 C 21 %
Sensor: Nr:Datum:Temp:Feuchte:
Aussen-T/F 401 12-09-2020 18:45:17 24.1 C 21 %
402 12-09-2020 18:55:17 23.8 C 22 %
403 12-09-2020 19:05:18 23.5 C 23 %
404 12-09-2020 19:15:17 23.1 C 23 %
405 12-09-2020 19:25:17 22 C 25 %
406 12-09-2020 19:35:17 20.5 C 28 %
407 12-09-2020 19:45:17 19.9 C 30 %
408 12-09-2020 19:55:17 19.7 C 29 %
409 12-09-2020 20:05:18 19.3 C 30 %
410 12-09-2020 20:15:18 19.2 C 30 %
411 12-09-2020 20:25:18 19.5 C 29 %
412 12-09-2020 20:35:17 19.3 C 29 %
413 12-09-2020 20:45:18 18.2 C 30 %
414 12-09-2020 20:55:18 18.9 C 29 %
415 12-09-2020 21:05:18 18.7 C 29 %
416 12-09-2020 21:15:17 17.9 C 30 %
417 12-09-2020 21:25:17 18 C 29 %
418 12-09-2020 21:35:17 17.6 C 30 %
419 12-09-2020 21:45:18 17.3 C 30 %
420 12-09-2020 21:55:18 17.1 C 30 %
421 12-09-2020 22:05:17 17.2 C 30 %
422 12-09-2020 22:15:17 17.5 C 30 %
423 12-09-2020 22:25:17 16.8 C 30 %
424 12-09-2020 22:35:17 16.3 C 31 %
425 12-09-2020 22:45:18 16.3 C 30 %
Sensor: Nr:Datum:Temp:Feuchte:
Aussen-T/F 426 12-09-2020 22:55:18 16.4 C 30 %
427 12-09-2020 23:05:18 16.3 C 30 %
428 12-09-2020 23:15:18 15.7 C 32 %
429 12-09-2020 23:25:18 15.7 C 32 %
430 12-09-2020 23:35:17 15.6 C 32 %
431 12-09-2020 23:45:17 15.1 C 32 %
432 12-09-2020 23:55:17 14.6 C 34 %
433 13-09-2020 00:05:18 14.5 C 34 %
434 13-09-2020 00:15:17 14 C 35 %
435 13-09-2020 00:25:17 13.5 C 35 %
436 13-09-2020 00:35:18 13 C 36 %
437 13-09-2020 00:45:17 12.9 C 38 %
438 13-09-2020 00:55:17 12.8 C 38 %
439 13-09-2020 01:05:18 12.6 C 38 %
440 13-09-2020 01:15:17 12.5 C 38 %
441 13-09-2020 01:25:17 12.3 C 38 %
442 13-09-2020 01:35:18 12.4 C 38 %
443 13-09-2020 01:45:17 12.5 C 39 %
444 13-09-2020 01:55:17 12.4 C 39 %
445 13-09-2020 02:05:17 12.4 C 39 %
446 13-09-2020 02:15:18 12 C 39 %
447 13-09-2020 02:25:18 11.7 C 40 %
448 13-09-2020 02:35:17 11.4 C 41 %
449 13-09-2020 02:45:17 11.5 C 42 %
450 13-09-2020 02:55:17 11.4 C 42 %
Sensor: Nr:Datum:Temp:Feuchte:
Aussen-T/F 451 13-09-2020 03:05:17 11.3 C 41 %
452 13-09-2020 03:15:17 11.3 C 42 %
453 13-09-2020 03:25:17 11.1 C 42 %
454 13-09-2020 03:35:17 11.2 C 42 %
455 13-09-2020 03:45:17 11.1 C 41 %
456 13-09-2020 03:55:17 11.2 C 42 %
457 13-09-2020 04:05:17 11.2 C 42 %
458 13-09-2020 04:15:17 11.1 C 42 %
459 13-09-2020 04:25:17 11 C 42 %
460 13-09-2020 04:35:18 11.2 C 42 %
461 13-09-2020 04:45:17 10.7 C 43 %
462 13-09-2020 04:55:17 10.8 C 44 %
463 13-09-2020 05:05:18 10.7 C 44 %
464 13-09-2020 05:15:17 10.5 C 43 %
465 13-09-2020 05:25:17 10.4 C 45 %
466 13-09-2020 05:35:17 10.1 C 44 %
467 13-09-2020 05:45:17 10 C 45 %
468 13-09-2020 05:55:17 9.9 C 45 %
469 13-09-2020 06:05:17 9.9 C 46 %
470 13-09-2020 06:15:17 10 C 44 %
471 13-09-2020 06:25:17 9.7 C 45 %
472 13-09-2020 06:35:18 10.2 C 45 %
473 13-09-2020 06:45:18 9.9 C 45 %
474 13-09-2020 06:55:18 9.7 C 46 %
475 13-09-2020 07:05:17 9.6 C 46 %
Sensor: Nr:Datum:Temp:Feuchte:
Aussen-T/F 476 13-09-2020 07:15:18 9.5 C 46 %
477 13-09-2020 07:25:18 9.8 C 46 %
478 13-09-2020 07:35:17 10 C 45 %
479 13-09-2020 07:45:17 10 C 45 %
480 13-09-2020 07:55:17 10.1 C 45 %
481 13-09-2020 08:05:18 10.1 C 45 %
482 13-09-2020 08:15:17 10.4 C 45 %
483 13-09-2020 08:25:17 10.6 C 45 %
484 13-09-2020 08:35:18 10.6 C 45 %
485 13-09-2020 08:45:17 10.9 C 45 %
486 13-09-2020 08:55:17 11.1 C 43 %
487 13-09-2020 09:05:18 11.3 C 43 %
488 13-09-2020 09:15:17 11.5 C 43 %
489 13-09-2020 09:25:17 11.8 C 43 %
490 13-09-2020 09:35:17 12.1 C 41 %
491 13-09-2020 09:45:18 12.4 C 40 %
492 13-09-2020 09:55:18 12.9 C 40 %
493 13-09-2020 10:05:18 13 C 40 %
494 13-09-2020 10:15:17 13.3 C 40 %
495 13-09-2020 10:25:17 13.7 C 39 %
496 13-09-2020 10:35:17 14.1 C 37 %
497 13-09-2020 10:45:18 14.7 C 37 %
498 13-09-2020 10:55:18 15.2 C 36 %
499 13-09-2020 11:05:18 15.6 C 35 %
500 13-09-2020 11:15:18 16.1 C 34 %
Sensor: Nr:Datum:Temp:Feuchte:
Aussen-T/F 501 13-09-2020 11:25:18 16.7 C 33 %
502 13-09-2020 11:35:17 17.4 C 32 %
503 13-09-2020 11:45:17 17.9 C 32 %
504 13-09-2020 11:55:17 19.5 C 31 %
505 13-09-2020 12:05:17 18.9 C 31 %
506 13-09-2020 12:15:17 19 C 31 %
507 13-09-2020 12:25:17 20.9 C 30 %
508 13-09-2020 12:35:18 19.9 C 30 %
509 13-09-2020 12:45:17 20.1 C 29 %
510 13-09-2020 12:55:17 20.7 C 29 %
511 13-09-2020 13:05:18 20.9 C 28 %
512 13-09-2020 13:15:17 21.3 C 27 %
513 13-09-2020 13:25:17 21.7 C 27 %
514 13-09-2020 13:35:18 22.1 C 25 %
515 13-09-2020 13:45:17 22.3 C 26 %
516 13-09-2020 13:55:18 22.7 C 25 %
517 13-09-2020 14:05:18 22.9 C 25 %
518 13-09-2020 14:15:17 23.8 C 24 %
519 13-09-2020 14:25:17 25 C 22 %
520 13-09-2020 14:35:17 26 C 20 %
521 13-09-2020 14:45:17 27 C 20 %
522 13-09-2020 14:55:17 27.8 C 20 %
523 13-09-2020 15:05:17 28.7 C 20 %
524 13-09-2020 15:15:18 29.1 C 20 %
525 13-09-2020 15:25:18 31.8 C 20 %
Sensor: Nr:Datum:Temp:Feuchte:
Aussen-T/F 526 13-09-2020 15:35:17 34.4 C 20 %
527 13-09-2020 15:45:17 32.6 C 20 %
528 13-09-2020 15:55:17 32.5 C 20 %
529 13-09-2020 16:05:17 31.3 C 20 %
530 13-09-2020 16:15:17 30.8 C 20 %
531 13-09-2020 16:25:17 33 C 20 %
532 13-09-2020 16:35:17 32.5 C 20 %
533 13-09-2020 16:45:18 32.5 C 20 %
534 13-09-2020 16:55:18 33 C 20 %
535 13-09-2020 17:05:17 32.6 C 20 %
536 13-09-2020 17:15:17 32.2 C 20 %
537 13-09-2020 17:25:17 32.1 C 20 %
538 13-09-2020 17:35:18 32.4 C 20 %
539 13-09-2020 17:45:17 30.9 C 20 %
540 13-09-2020 17:55:17 28.8 C 20 %
541 13-09-2020 18:05:17 27 C 20 %
542 13-09-2020 18:15:18 26.1 C 20 %
543 13-09-2020 18:25:18 25.1 C 20 %
544 13-09-2020 18:35:18 24.6 C 21 %
545 13-09-2020 18:45:17 24.5 C 21 %
546 13-09-2020 18:55:17 24.3 C 21 %
547 13-09-2020 19:05:17 23.8 C 21 %
548 13-09-2020 19:15:17 23.6 C 21 %
549 13-09-2020 19:25:17 23.4 C 21 %
550 13-09-2020 19:35:17 23 C 21 %
Sensor: Nr:Datum:Temp:Feuchte:
Aussen-T/F 551 13-09-2020 19:45:17 22.4 C 22 %
552 13-09-2020 19:55:17 21.7 C 24 %
553 13-09-2020 20:05:18 20.7 C 25 %
554 13-09-2020 20:15:17 20.2 C 26 %
555 13-09-2020 20:25:17 20.3 C 26 %
556 13-09-2020 20:35:17 19.5 C 27 %
557 13-09-2020 20:45:17 18.9 C 28 %
558 13-09-2020 20:55:17 19.1 C 27 %
559 13-09-2020 21:05:17 18.5 C 28 %
560 13-09-2020 21:15:17 18.2 C 28 %
561 13-09-2020 21:25:17 17.9 C 30 %
562 13-09-2020 21:35:18 17.2 C 30 %
563 13-09-2020 21:45:17 16.8 C 31 %
564 13-09-2020 21:55:17 16.8 C 31 %
565 13-09-2020 22:05:18 16.6 C 31 %
566 13-09-2020 22:15:17 16.1 C 31 %
567 13-09-2020 22:25:17 15.9 C 32 %
568 13-09-2020 22:35:18 15.8 C 32 %
569 13-09-2020 22:45:18 15.4 C 33 %
570 13-09-2020 22:55:18 15.1 C 33 %
571 13-09-2020 23:05:17 15 C 34 %
572 13-09-2020 23:15:17 14.7 C 35 %
573 13-09-2020 23:25:18 14.4 C 35 %
574 13-09-2020 23:35:18 14.4 C 35 %
575 13-09-2020 23:45:17 14.4 C 35 %
Sensor: Nr:Datum:Temp:Feuchte:
Aussen-T/F 576 13-09-2020 23:55:17 14.4 C 36 %
577 14-09-2020 00:05:18 14.1 C 36 %
578 14-09-2020 00:15:17 14 C 36 %
579 14-09-2020 00:25:17 14 C 36 %
580 14-09-2020 00:35:18 13.8 C 36 %
581 14-09-2020 00:45:17 13.8 C 37 %
582 14-09-2020 00:55:17 13.5 C 36 %
583 14-09-2020 01:05:17 13.4 C 37 %
584 14-09-2020 01:15:18 13.4 C 37 %
585 14-09-2020 01:25:18 13.1 C 37 %
586 14-09-2020 01:35:18 13 C 38 %
587 14-09-2020 01:45:17 12.7 C 39 %
588 14-09-2020 01:55:17 12.5 C 39 %
589 14-09-2020 02:05:17 12.4 C 40 %
590 14-09-2020 02:15:17 12.3 C 40 %
591 14-09-2020 02:25:17 12.2 C 40 %
592 14-09-2020 02:35:17 12.1 C 40 %
593 14-09-2020 02:45:17 12.2 C 40 %
594 14-09-2020 02:55:17 12 C 40 %
595 14-09-2020 03:05:18 12 C 40 %
596 14-09-2020 03:15:17 12 C 41 %
597 14-09-2020 03:25:17 11.7 C 42 %
598 14-09-2020 03:35:17 11.5 C 42 %
599 14-09-2020 03:45:17 11.5 C 42 %
600 14-09-2020 03:55:17 11.2 C 42 %
Sensor: Nr:Datum:Temp:Feuchte:
Aussen-T/F 601 14-09-2020 04:05:17 11.1 C 43 %
602 14-09-2020 04:15:18 11.2 C 43 %
603 14-09-2020 04:25:18 11 C 42 %
604 14-09-2020 04:35:18 10.8 C 44 %
605 14-09-2020 04:45:17 10.9 C 44 %
606 14-09-2020 04:55:17 10.8 C 44 %
607 14-09-2020 05:05:17 10.7 C 44 %
608 14-09-2020 05:15:17 10.7 C 45 %
609 14-09-2020 05:25:17 10.8 C 44 %
610 14-09-2020 05:35:18 10.5 C 44 %
611 14-09-2020 05:45:17 10.5 C 45 %
612 14-09-2020 05:55:17 10.3 C 45 %
613 14-09-2020 06:05:17 10.3 C 45 %
614 14-09-2020 06:15:17 10.2 C 45 %
615 14-09-2020 06:25:17 10.2 C 45 %
616 14-09-2020 06:35:18 10.1 C 45 %
617 14-09-2020 06:45:17 9.9 C 45 %
618 14-09-2020 06:55:17 10.1 C 45 %
619 14-09-2020 07:05:17 10.3 C 45 %
620 14-09-2020 07:15:17 10.1 C 45 %
621 14-09-2020 07:25:17 10 C 45 %
622 14-09-2020 07:35:18 10.2 C 45 %
623 14-09-2020 07:45:17 10.4 C 45 %
624 14-09-2020 07:55:17 10.6 C 45 %
625 14-09-2020 08:05:17 10.7 C 45 %
Sensor: Nr:Datum:Temp:Feuchte:
Aussen-T/F 626 14-09-2020 08:15:17 10.7 C 45 %
627 14-09-2020 08:25:17 10.8 C 45 %
628 14-09-2020 08:35:17 11 C 44 %
629 14-09-2020 08:45:17 11.1 C 44 %
630 14-09-2020 08:55:18 11.4 C 45 %
631 14-09-2020 09:05:18 11.8 C 44 %
632 14-09-2020 09:15:17 11.9 C 44 %
633 14-09-2020 09:25:17 12.2 C 43 %
634 14-09-2020 09:35:17 12.4 C 43 %
635 14-09-2020 09:45:17 12.7 C 43 %
636 14-09-2020 09:55:17 13.1 C 40 %
637 14-09-2020 10:05:17 13.5 C 40 %
638 14-09-2020 10:15:17 14.2 C 38 %
639 14-09-2020 10:25:17 14.7 C 38 %
640 14-09-2020 10:35:18 15 C 37 %
641 14-09-2020 10:45:17 15.7 C 36 %
642 14-09-2020 10:55:17 16.3 C 36 %
643 14-09-2020 11:05:17 17.1 C 35 %
644 14-09-2020 11:15:17 17.8 C 34 %
645 14-09-2020 11:25:17 18.4 C 33 %
646 14-09-2020 11:35:17 19.1 C 32 %
647 14-09-2020 11:45:18 20.2 C 31 %
648 14-09-2020 11:55:18 21.8 C 29 %
649 14-09-2020 12:05:18 21.4 C 29 %
650 14-09-2020 12:15:18 22.1 C 28 %
Sensor: Nr:Datum:Temp:Feuchte:
Aussen-T/F 651 14-09-2020 12:25:18 22.9 C 28 %
652 14-09-2020 12:35:17 23.3 C 27 %
653 14-09-2020 12:45:17 23.8 C 26 %
654 14-09-2020 12:55:18 25 C 25 %
655 14-09-2020 13:05:18 25.4 C 24 %
656 14-09-2020 13:15:18 25.8 C 24 %
657 14-09-2020 13:25:18 26.2 C 23 %
658 14-09-2020 13:35:18 26.3 C 23 %
659 14-09-2020 13:45:17 26.9 C 22 %
660 14-09-2020 13:55:17 27.2 C 22 %
661 14-09-2020 14:05:17 28 C 21 %
662 14-09-2020 14:15:17 28.9 C 20 %
663 14-09-2020 14:25:17 29.3 C 20 %
664 14-09-2020 14:35:18 31 C 20 %
665 14-09-2020 14:45:18 31.5 C 20 %
666 14-09-2020 14:55:18 31.1 C 20 %
667 14-09-2020 15:05:17 31.8 C 20 %
668 14-09-2020 15:15:17 32.3 C 20 %
669 14-09-2020 15:25:17 34.8 C 20 %
670 14-09-2020 15:35:18 34.8 C 20 %
671 14-09-2020 15:45:18 33.3 C 20 %
672 14-09-2020 15:55:18 33.3 C 20 %
673 14-09-2020 16:05:17 32.6 C 20 %
674 14-09-2020 16:15:17 32.8 C 20 %
675 14-09-2020 16:25:17 32.5 C 20 %
Sensor: Nr:Datum:Temp:Feuchte:
Aussen-T/F 676 14-09-2020 16:35:18 32.9 C 20 %
677 14-09-2020 16:45:17 30.2 C 20 %
678 14-09-2020 16:55:17 30.5 C 20 %
679 14-09-2020 17:05:18 28.3 C 20 %
680 14-09-2020 17:16:17 28.5 C 20 %
681 14-09-2020 17:25:17 30.5 C 20 %
682 14-09-2020 17:35:18 32.1 C 20 %
683 14-09-2020 17:46:17 31.3 C 20 %
684 14-09-2020 17:56:17 30 C 20 %
685 14-09-2020 18:05:17 29.6 C 20 %
686 14-09-2020 18:15:17 28.9 C 20 %
687 14-09-2020 18:25:17 28.2 C 20 %
688 14-09-2020 18:35:17 27.5 C 20 %
689 14-09-2020 18:45:17 27 C 20 %
690 14-09-2020 18:55:17 26.2 C 20 %
691 14-09-2020 19:06:17 25.5 C 20 %
692 14-09-2020 19:16:17 24.9 C 20 %
693 14-09-2020 19:26:17 24.5 C 20 %
694 14-09-2020 19:35:18 24.1 C 20 %
695 14-09-2020 19:45:18 23.8 C 20 %
696 14-09-2020 19:55:18 23.8 C 20 %
697 14-09-2020 20:05:18 22.8 C 22 %
698 14-09-2020 20:16:17 22 C 23 %
699 14-09-2020 20:26:17 21.2 C 25 %
700 14-09-2020 20:36:17 20.7 C 26 %
Sensor: Nr:Datum:Temp:Feuchte:
Aussen-T/F 701 14-09-2020 20:46:17 20.4 C 27 %
702 14-09-2020 20:56:17 20.3 C 27 %
703 14-09-2020 21:05:18 20 C 28 %
704 14-09-2020 21:15:18 19.5 C 29 %
705 14-09-2020 21:25:18 19.4 C 30 %
706 14-09-2020 21:35:18 19.1 C 30 %
707 14-09-2020 21:45:18 19 C 30 %
708 14-09-2020 21:55:18 18.4 C 30 %
709 14-09-2020 22:06:17 18.3 C 31 %
710 14-09-2020 22:15:17 18.1 C 31 %
711 14-09-2020 22:25:18 17.9 C 32 %
712 14-09-2020 22:35:18 17.7 C 32 %
713 14-09-2020 22:45:18 17.4 C 33 %
714 14-09-2020 22:55:18 17.1 C 33 %
715 14-09-2020 23:06:17 16.8 C 34 %
716 14-09-2020 23:16:17 16.5 C 35 %
717 14-09-2020 23:26:17 16.6 C 35 %
718 14-09-2020 23:35:18 16.6 C 35 %
719 14-09-2020 23:45:18 16.5 C 35 %
720 14-09-2020 23:55:18 16.2 C 35 %
721 15-09-2020 00:06:17 15.9 C 35 %
722 15-09-2020 00:16:17 15.9 C 36 %
723 15-09-2020 00:26:17 15.7 C 36 %
724 15-09-2020 00:35:18 15.4 C 36 %
725 15-09-2020 00:46:17 15.3 C 36 %
Sensor: Nr:Datum:Temp:Feuchte:
Aussen-T/F 726 15-09-2020 00:56:17 15.4 C 36 %
727 15-09-2020 01:06:18 15.2 C 36 %
728 15-09-2020 01:16:17 14.9 C 37 %
729 15-09-2020 01:26:17 14.8 C 38 %
730 15-09-2020 01:36:18 14.8 C 38 %
731 15-09-2020 01:46:18 14.8 C 38 %
732 15-09-2020 01:56:18 14.7 C 38 %
733 15-09-2020 02:06:18 14.4 C 38 %
734 15-09-2020 02:16:18 14.3 C 38 %
735 15-09-2020 02:26:18 14.1 C 39 %
736 15-09-2020 02:36:18 14.1 C 39 %
737 15-09-2020 02:46:17 13.9 C 40 %
738 15-09-2020 02:56:17 13.7 C 40 %
739 15-09-2020 03:06:18 13.8 C 41 %
740 15-09-2020 03:16:17 13.7 C 40 %
741 15-09-2020 03:26:17 13.6 C 41 %
742 15-09-2020 03:36:17 13.3 C 41 %
743 15-09-2020 03:46:17 13.3 C 42 %
744 15-09-2020 03:56:17 13.3 C 41 %
745 15-09-2020 04:06:17 13 C 41 %
746 15-09-2020 04:16:18 12.8 C 42 %
747 15-09-2020 04:26:18 12.8 C 42 %
748 15-09-2020 04:36:17 12.8 C 43 %
749 15-09-2020 04:46:17 12.4 C 43 %
750 15-09-2020 04:56:17 12.5 C 43 %
Sensor: Nr:Datum:Temp:Feuchte:
Aussen-T/F 751 15-09-2020 05:06:17 12.5 C 44 %
752 15-09-2020 05:16:17 12.5 C 43 %
753 15-09-2020 05:26:17 12.4 C 44 %
754 15-09-2020 05:36:18 12.4 C 44 %
755 15-09-2020 05:46:17 12.2 C 43 %
756 15-09-2020 05:56:18 12 C 43 %
757 15-09-2020 06:06:18 11.9 C 45 %
758 15-09-2020 06:16:17 11.9 C 45 %
759 15-09-2020 06:26:17 11.8 C 45 %
760 15-09-2020 06:36:17 11.7 C 45 %
761 15-09-2020 06:46:17 11.7 C 45 %
762 15-09-2020 06:56:17 11.5 C 45 %
763 15-09-2020 07:06:17 11.4 C 45 %
764 15-09-2020 07:16:17 11.5 C 45 %
765 15-09-2020 07:26:17 11.6 C 45 %
766 15-09-2020 07:36:17 11.7 C 45 %
767 15-09-2020 07:46:17 12 C 44 %
768 15-09-2020 07:56:17 11.9 C 45 %
769 15-09-2020 08:06:17 12 C 44 %
770 15-09-2020 08:16:17 12.1 C 44 %
771 15-09-2020 08:26:18 12.2 C 44 %
772 15-09-2020 08:36:18 12.4 C 44 %
773 15-09-2020 08:46:18 12.5 C 44 %
774 15-09-2020 08:56:18 13 C 43 %
775 15-09-2020 09:06:18 13.2 C 43 %
Sensor: Nr:Datum:Temp:Feuchte:
Aussen-T/F 776 15-09-2020 09:16:17 13.5 C 43 %
777 15-09-2020 09:26:17 13.7 C 43 %
778 15-09-2020 09:36:18 14 C 42 %
779 15-09-2020 09:46:18 14.3 C 42 %
780 15-09-2020 09:56:18 14.7 C 42 %
781 15-09-2020 10:06:18 15.2 C 40 %
782 15-09-2020 10:16:17 15.6 C 40 %
783 15-09-2020 10:26:17 16 C 39 %
784 15-09-2020 10:36:17 16.6 C 38 %
785 15-09-2020 10:46:18 17 C 36 %
786 15-09-2020 10:56:18 17.5 C 36 %
787 15-09-2020 11:06:18 18.1 C 35 %
788 15-09-2020 11:16:17 18.5 C 35 %
789 15-09-2020 11:26:17 19.2 C 34 %
790 15-09-2020 11:36:18 19.6 C 34 %
791 15-09-2020 11:46:17 20.8 C 32 %
792 15-09-2020 11:56:17 21.7 C 30 %
793 15-09-2020 12:06:18 21.3 C 30 %
794 15-09-2020 12:16:17 22.6 C 29 %
795 15-09-2020 12:26:17 22.9 C 29 %
796 15-09-2020 12:36:17 22.9 C 29 %
797 15-09-2020 12:46:17 23.1 C 28 %
798 15-09-2020 12:56:17 23.8 C 28 %
799 15-09-2020 13:06:17 24.5 C 27 %
800 15-09-2020 13:16:18 25.3 C 26 %
Sensor: Nr:Datum:Temp:Feuchte:
Aussen-T/F 801 15-09-2020 13:26:18 26 C 25 %
802 15-09-2020 13:36:17 26.8 C 22 %
803 15-09-2020 13:46:18 27.4 C 21 %
804 15-09-2020 13:56:18 27.9 C 20 %
805 15-09-2020 14:06:17 28.8 C 20 %
806 15-09-2020 14:16:18 29.2 C 20 %
807 15-09-2020 14:26:18 29.9 C 20 %
808 15-09-2020 14:36:17 31.1 C 20 %
809 15-09-2020 14:46:17 32.2 C 20 %
810 15-09-2020 14:56:17 31.5 C 20 %
811 15-09-2020 15:06:17 32.2 C 20 %
812 15-09-2020 15:16:18 33.6 C 20 %
813 15-09-2020 15:26:18 36.1 C 20 %
814 15-09-2020 15:36:17 36.4 C 20 %
815 15-09-2020 15:46:17 36.6 C 20 %
816 15-09-2020 15:56:17 37.6 C 20 %
817 15-09-2020 16:06:18 37.6 C 20 %
818 15-09-2020 16:16:17 38 C 20 %
819 15-09-2020 16:26:17 39 C 20 %
820 15-09-2020 16:36:17 37.5 C 20 %
821 15-09-2020 16:46:17 39.2 C 20 %
822 15-09-2020 16:56:17 38.2 C 20 %
823 15-09-2020 17:06:17 37.2 C 20 %
824 15-09-2020 17:16:18 37.7 C 20 %
825 15-09-2020 17:26:18 36.8 C 20 %
Sensor: Nr:Datum:Temp:Feuchte:
Aussen-T/F 826 15-09-2020 17:36:17 34.9 C 20 %
827 15-09-2020 17:46:17 33.3 C 20 %
828 15-09-2020 17:56:17 32.5 C 20 %
829 15-09-2020 18:06:18 31.1 C 20 %
830 15-09-2020 18:16:17 30.1 C 20 %
831 15-09-2020 18:26:18 29.6 C 20 %
832 15-09-2020 18:36:18 29 C 20 %
833 15-09-2020 18:46:17 28.5 C 20 %
834 15-09-2020 18:56:17 28.1 C 20 %
835 15-09-2020 19:06:17 27.5 C 20 %
836 15-09-2020 19:16:17 26.9 C 20 %
837 15-09-2020 19:26:17 26.8 C 20 %
838 15-09-2020 19:36:17 26.1 C 20 %
839 15-09-2020 19:46:17 26 C 20 %
840 15-09-2020 19:56:17 25.3 C 20 %
841 15-09-2020 20:06:17 24.6 C 20 %
842 15-09-2020 20:16:17 24.1 C 20 %
843 15-09-2020 20:26:17 23.3 C 21 %
844 15-09-2020 20:36:18 23.4 C 21 %
845 15-09-2020 20:46:17 23.2 C 21 %
846 15-09-2020 20:56:17 22.4 C 23 %
847 15-09-2020 21:06:17 22 C 24 %
848 15-09-2020 21:16:17 21.6 C 25 %
849 15-09-2020 21:26:17 21.3 C 25 %
850 15-09-2020 21:36:18 21.3 C 26 %
Sensor: Nr:Datum:Temp:Feuchte:
Aussen-T/F 851 15-09-2020 21:46:17 20.8 C 28 %
852 15-09-2020 21:56:18 20.7 C 28 %
853 15-09-2020 22:06:17 20.6 C 28 %
854 15-09-2020 22:16:17 20.6 C 28 %
855 15-09-2020 22:26:17 20.1 C 28 %
856 15-09-2020 22:36:17 19.5 C 30 %
857 15-09-2020 22:46:18 19.3 C 30 %
858 15-09-2020 22:56:18 18.8 C 31 %
859 15-09-2020 23:06:18 18.8 C 31 %
860 15-09-2020 23:16:18 19 C 31 %
861 15-09-2020 23:26:18 18.5 C 31 %
862 15-09-2020 23:36:17 18.2 C 32 %
863 15-09-2020 23:46:18 18.1 C 32 %
864 15-09-2020 23:56:18 18.2 C 32 %
865 16-09-2020 00:06:18 18.1 C 32 %
866 16-09-2020 00:16:17 17.9 C 32 %
867 16-09-2020 00:26:17 17.7 C 32 %
868 16-09-2020 00:36:18 17.6 C 33 %
869 16-09-2020 00:46:17 17.8 C 33 %
870 16-09-2020 00:56:17 17.7 C 32 %
871 16-09-2020 01:06:18 17 C 34 %
872 16-09-2020 01:16:17 16.7 C 34 %
873 16-09-2020 01:26:17 16.6 C 35 %
874 16-09-2020 01:36:18 16.2 C 35 %
875 16-09-2020 01:46:17 16.3 C 35 %
Sensor: Nr:Datum:Temp:Feuchte:
Aussen-T/F 876 16-09-2020 01:56:17 15.7 C 36 %
877 16-09-2020 02:06:18 15.6 C 36 %
878 16-09-2020 02:16:17 15.6 C 37 %
879 16-09-2020 02:26:17 16.1 C 36 %
880 16-09-2020 02:36:17 15.6 C 36 %
881 16-09-2020 02:46:17 15.4 C 37 %
882 16-09-2020 02:56:17 15.4 C 37 %
883 16-09-2020 03:06:17 15.1 C 37 %
884 16-09-2020 03:16:17 15.1 C 37 %
885 16-09-2020 03:26:17 15.1 C 37 %
886 16-09-2020 03:36:18 14.9 C 38 %
887 16-09-2020 03:46:17 14.7 C 39 %
888 16-09-2020 03:56:17 14.5 C 39 %
889 16-09-2020 04:06:17 14.8 C 39 %
890 16-09-2020 04:16:17 14.7 C 39 %
891 16-09-2020 04:26:17 14.4 C 39 %
892 16-09-2020 04:36:17 14.5 C 39 %
893 16-09-2020 04:46:17 14.2 C 40 %
894 16-09-2020 04:56:17 14.1 C 40 %
895 16-09-2020 05:06:17 14.1 C 40 %
896 16-09-2020 05:16:17 13.8 C 41 %
897 16-09-2020 05:26:17 14 C 41 %
898 16-09-2020 05:36:18 14.1 C 40 %
899 16-09-2020 05:46:18 14.2 C 40 %
900 16-09-2020 05:56:18 14 C 41 %
Sensor: Nr:Datum:Temp:Feuchte:
Aussen-T/F 901 16-09-2020 06:06:17 13.9 C 41 %
902 16-09-2020 06:16:17 14 C 40 %
903 16-09-2020 06:26:17 14 C 40 %
904 16-09-2020 06:36:18 13.7 C 41 %
905 16-09-2020 06:46:17 13.7 C 42 %
906 16-09-2020 06:56:17 13.8 C 42 %
907 16-09-2020 07:06:17 13.5 C 42 %
908 16-09-2020 07:16:17 13.8 C 42 %
909 16-09-2020 07:26:17 13.8 C 41 %
910 16-09-2020 07:36:17 14.2 C 41 %
911 16-09-2020 07:46:18 14.3 C 40 %
912 16-09-2020 07:56:18 14.2 C 40 %
913 16-09-2020 08:06:17 14.1 C 40 %
914 16-09-2020 08:16:17 14.1 C 40 %
915 16-09-2020 08:26:17 14.2 C 41 %
916 16-09-2020 08:36:17 14.4 C 41 %
917 16-09-2020 08:46:17 14.8 C 40 %
918 16-09-2020 08:56:17 15 C 39 %
919 16-09-2020 09:06:18 15.3 C 38 %
920 16-09-2020 09:16:17 15.8 C 37 %
921 16-09-2020 09:26:17 16.2 C 36 %
922 16-09-2020 09:36:18 16.8 C 36 %
923 16-09-2020 09:46:17 17.4 C 35 %
924 16-09-2020 09:56:17 18.2 C 34 %
925 16-09-2020 10:06:18 19.1 C 33 %
Sensor: Nr:Datum:Temp:Feuchte:
Aussen-T/F 926 16-09-2020 10:16:17 19.5 C 32 %
927 16-09-2020 10:26:17 20 C 32 %
928 16-09-2020 10:36:17 20.5 C 31 %
929 16-09-2020 10:46:17 20.5 C 31 %
930 16-09-2020 10:56:17 20.7 C 31 %
931 16-09-2020 11:06:17 21.2 C 30 %
932 16-09-2020 11:16:17 21.6 C 30 %
933 16-09-2020 11:26:17 22.2 C 28 %
934 16-09-2020 11:36:17 22.9 C 28 %
935 16-09-2020 11:46:17 23.8 C 26 %
936 16-09-2020 11:56:17 23.7 C 26 %
937 16-09-2020 12:06:18 24.1 C 26 %
938 16-09-2020 12:16:17 25.3 C 25 %
939 16-09-2020 12:26:17 25.3 C 25 %
940 16-09-2020 12:36:18 24.9 C 25 %
941 16-09-2020 12:46:18 25.3 C 25 %
942 16-09-2020 12:56:18 25.6 C 25 %
943 16-09-2020 13:06:18 24.9 C 25 %
944 16-09-2020 13:16:18 25 C 25 %
945 16-09-2020 13:26:18 24.8 C 25 %
946 16-09-2020 13:36:17 24.4 C 26 %
947 16-09-2020 13:46:17 24.1 C 26 %
948 16-09-2020 13:56:17 24.9 C 26 %
949 16-09-2020 14:06:18 26.6 C 24 %
950 16-09-2020 14:16:17 27.8 C 22 %
Sensor: Nr:Datum:Temp:Feuchte:
Aussen-T/F 951 16-09-2020 14:26:17 29.4 C 20 %
952 16-09-2020 14:36:18 30 C 20 %
953 16-09-2020 14:46:17 30.6 C 20 %
954 16-09-2020 14:56:17 30 C 20 %
955 16-09-2020 15:06:17 29.9 C 20 %
956 16-09-2020 15:16:17 29.8 C 20 %
957 16-09-2020 15:26:17 30 C 20 %
958 16-09-2020 15:36:17 31.2 C 20 %
959 16-09-2020 15:46:17 31.5 C 20 %
960 16-09-2020 15:56:17 32.1 C 20 %
961 16-09-2020 16:06:18 34.4 C 20 %
962 16-09-2020 16:16:17 34 C 20 %
963 16-09-2020 16:26:17 34.3 C 20 %
964 16-09-2020 16:36:17 34.2 C 20 %
965 16-09-2020 16:46:17 33.9 C 20 %
966 16-09-2020 16:56:17 31.5 C 20 %
967 16-09-2020 17:06:18 31.2 C 20 %
968 16-09-2020 17:16:18 29.3 C 20 %
969 16-09-2020 17:26:18 28.1 C 20 %
970 16-09-2020 17:36:17 27.6 C 21 %
971 16-09-2020 17:46:17 27.3 C 21 %
972 16-09-2020 17:56:17 27 C 21 %
973 16-09-2020 18:06:18 27.3 C 21 %
974 16-09-2020 18:16:17 27.4 C 21 %
975 16-09-2020 18:26:17 26.7 C 22 %
Sensor: Nr:Datum:Temp:Feuchte:
Aussen-T/F 976 16-09-2020 18:36:17 26.4 C 22 %
977 16-09-2020 18:46:17 26.1 C 22 %
978 16-09-2020 18:56:17 25.9 C 23 %
979 16-09-2020 19:06:17 25.4 C 23 %
980 16-09-2020 19:16:17 25.3 C 24 %
981 16-09-2020 19:26:17 24.9 C 25 %
982 16-09-2020 19:36:17 24.4 C 25 %
983 16-09-2020 19:46:17 23.9 C 26 %
984 16-09-2020 19:56:17 23.4 C 26 %
985 16-09-2020 20:06:17 22.8 C 28 %
986 16-09-2020 20:16:17 22.5 C 28 %
987 16-09-2020 20:26:17 22 C 28 %
988 16-09-2020 20:36:17 22.2 C 28 %
989 16-09-2020 20:46:18 22 C 28 %
990 16-09-2020 20:56:18 21.6 C 30 %
991 16-09-2020 21:06:17 21.8 C 30 %
992 16-09-2020 21:16:17 22.1 C 28 %
993 16-09-2020 21:26:17 22.4 C 28 %
994 16-09-2020 21:36:18 21.4 C 30 %
995 16-09-2020 21:46:17 22.1 C 28 %
996 16-09-2020 21:56:17 22.3 C 28 %
997 16-09-2020 22:06:17 22.3 C 28 %
998 16-09-2020 22:16:17 21.7 C 29 %
999 16-09-2020 22:26:17 21.5 C 29 %
1000 16-09-2020 22:36:17 21.8 C 29 %
Sensor: Nr:Datum:Temp:Feuchte:
Aussen-T/F 1001 16-09-2020 22:46:18 21.8 C 29 %
1002 16-09-2020 22:56:18 21.4 C 29 %
1003 16-09-2020 23:06:17 20.6 C 30 %
1004 16-09-2020 23:16:17 20.6 C 30 %
1005 16-09-2020 23:26:17 20.1 C 30 %
1006 16-09-2020 23:36:17 20.3 C 30 %
1007 16-09-2020 23:46:18 20.6 C 30 %
1008 16-09-2020 23:56:18 20.2 C 30 %
1009 17-09-2020 00:06:18 20.6 C 30 %
1010 17-09-2020 00:16:18 20.6 C 30 %
1011 17-09-2020 00:26:18 20.6 C 30 %
1012 17-09-2020 00:36:18 20.6 C 30 %
1013 17-09-2020 00:46:17 20.6 C 30 %
1014 17-09-2020 00:56:17 20.4 C 30 %
1015 17-09-2020 01:06:18 20.2 C 30 %
1016 17-09-2020 01:16:17 20 C 30 %
1017 17-09-2020 01:26:17 19.6 C 30 %
1018 17-09-2020 01:36:17 19.6 C 30 %
1019 17-09-2020 01:46:18 19.4 C 30 %
1020 17-09-2020 01:56:18 18.5 C 31 %
1021 17-09-2020 02:06:17 18.1 C 31 %
1022 17-09-2020 02:16:18 18.4 C 31 %
1023 17-09-2020 02:26:18 18.3 C 31 %
1024 17-09-2020 02:36:17 18 C 31 %
1025 17-09-2020 02:46:17 17.6 C 32 %
Sensor: Nr:Datum:Temp:Feuchte:
Aussen-T/F 1026 17-09-2020 02:56:17 17.2 C 33 %
1027 17-09-2020 03:06:17 16.9 C 33 %
1028 17-09-2020 03:16:17 16.6 C 35 %
1029 17-09-2020 03:26:17 16.2 C 35 %
1030 17-09-2020 03:36:18 16.4 C 35 %
1031 17-09-2020 03:46:17 16.6 C 35 %
1032 17-09-2020 03:56:17 16.7 C 35 %
1033 17-09-2020 04:06:18 17.3 C 34 %
1034 17-09-2020 04:16:17 17.4 C 34 %
1035 17-09-2020 04:26:17 17.5 C 34 %
1036 17-09-2020 04:36:17 17.5 C 33 %
1037 17-09-2020 04:46:17 17.5 C 33 %
1038 17-09-2020 04:56:17 17.3 C 33 %
1039 17-09-2020 05:06:18 17 C 33 %
1040 17-09-2020 05:16:18 16.8 C 34 %
1041 17-09-2020 05:26:18 16.9 C 34 %
1042 17-09-2020 05:36:18 17 C 33 %
1043 17-09-2020 05:46:17 17 C 33 %
1044 17-09-2020 05:56:17 17 C 33 %
1045 17-09-2020 06:06:17 17 C 33 %
1046 17-09-2020 06:16:17 16.9 C 34 %
1047 17-09-2020 06:26:17 16.8 C 33 %
1048 17-09-2020 06:36:18 16.8 C 33 %
1049 17-09-2020 06:46:18 16.8 C 33 %
1050 17-09-2020 06:56:18 16.8 C 33 %
Sensor: Nr:Datum:Temp:Feuchte:
Aussen-T/F 1051 17-09-2020 07:06:17 16.8 C 33 %
1052 17-09-2020 07:16:17 16.7 C 33 %
1053 17-09-2020 07:26:17 16.3 C 34 %
1054 17-09-2020 07:36:17 16.3 C 34 %
1055 17-09-2020 07:46:17 16.3 C 34 %
1056 17-09-2020 07:56:17 16.2 C 34 %
1057 17-09-2020 08:06:18 16.3 C 33 %
1058 17-09-2020 08:16:17 16.2 C 33 %
1059 17-09-2020 08:26:17 16.2 C 33 %
1060 17-09-2020 08:36:18 16.2 C 33 %
1061 17-09-2020 08:46:18 15.8 C 33 %
1062 17-09-2020 08:56:18 15.8 C 33 %
1063 17-09-2020 09:06:18 15.7 C 33 %
1064 17-09-2020 09:16:17 15.9 C 33 %
1065 17-09-2020 09:26:17 15.8 C 33 %
1066 17-09-2020 09:36:17 15.9 C 32 %
1067 17-09-2020 09:46:17 16.2 C 32 %
1068 17-09-2020 09:56:17 16.5 C 32 %
1069 17-09-2020 10:06:17 17.2 C 31 %
1070 17-09-2020 10:16:17 16.3 C 30 %
1071 17-09-2020 10:26:17 16 C 29 %
1072 17-09-2020 10:36:18 16.1 C 30 %
1073 17-09-2020 10:46:18 16.1 C 29 %
1074 17-09-2020 10:56:18 16.2 C 29 %
1075 17-09-2020 11:06:17 16.4 C 29 %
Sensor: Nr:Datum:Temp:Feuchte:
Aussen-T/F 1076 17-09-2020 11:16:17 16.6 C 28 %
1077 17-09-2020 11:26:17 16.5 C 28 %
1078 17-09-2020 11:36:18 16.6 C 28 %
1079 17-09-2020 11:46:17 17.5 C 28 %
1080 17-09-2020 11:56:17 17.2 C 28 %
1081 17-09-2020 12:06:18 17.4 C 28 %
1082 17-09-2020 12:16:17 18 C 26 %
1083 17-09-2020 12:26:18 17.5 C 27 %
1084 17-09-2020 12:36:18 17.7 C 27 %
1085 17-09-2020 12:46:17 18.1 C 27 %
1086 17-09-2020 12:56:17 18.3 C 26 %
1087 17-09-2020 13:06:18 18.3 C 26 %
1088 17-09-2020 13:16:17 18.6 C 25 %
1089 17-09-2020 13:26:17 18.8 C 25 %
1090 17-09-2020 13:36:18 19.1 C 24 %
1091 17-09-2020 13:46:17 19.3 C 24 %
1092 17-09-2020 13:56:17 19.8 C 23 %
1093 17-09-2020 14:06:17 20.4 C 21 %
1094 17-09-2020 14:16:17 20.6 C 21 %
1095 17-09-2020 14:26:18 21 C 20 %
1096 17-09-2020 14:36:18 21.3 C 20 %
1097 17-09-2020 14:46:17 21.6 C 20 %
1098 17-09-2020 14:56:17 21.5 C 20 %
1099 17-09-2020 15:06:18 23.3 C 20 %
1100 17-09-2020 15:16:17 22.6 C 20 %
Sensor: Nr:Datum:Temp:Feuchte:
Aussen-T/F 1101 17-09-2020 15:26:17 24.1 C 20 %
1102 17-09-2020 15:36:18 25 C 20 %
1103 17-09-2020 15:46:18 25.8 C 20 %
1104 17-09-2020 15:56:18 26 C 20 %
1105 17-09-2020 16:06:17 25.1 C 20 %
1106 17-09-2020 16:16:18 24.8 C 20 %
1107 17-09-2020 16:26:18 25.5 C 20 %
1108 17-09-2020 16:36:18 24.5 C 20 %
1109 17-09-2020 16:46:18 25.4 C 20 %
1110 17-09-2020 16:56:18 24.7 C 20 %
1111 17-09-2020 17:06:17 24.1 C 20 %
1112 17-09-2020 17:16:17 23.9 C 20 %
1113 17-09-2020 17:26:17 24.1 C 20 %
1114 17-09-2020 17:36:17 23 C 20 %
1115 17-09-2020 17:46:17 21.9 C 20 %
1116 17-09-2020 17:56:17 21.8 C 20 %
1117 17-09-2020 18:06:18 21.6 C 20 %
1118 17-09-2020 18:16:18 21.5 C 20 %
1119 17-09-2020 18:26:18 21.4 C 20 %
1120 17-09-2020 18:36:18 21 C 20 %
1121 17-09-2020 18:46:17 20.8 C 20 %
1122 17-09-2020 18:56:17 20.4 C 20 %
1123 17-09-2020 19:06:18 20 C 20 %
1124 17-09-2020 19:16:18 19.3 C 20 %
1125 17-09-2020 19:26:18 18.3 C 21 %
Sensor: Nr:Datum:Temp:Feuchte:
Aussen-T/F 1126 17-09-2020 19:36:18 17.5 C 22 %
1127 17-09-2020 19:46:17 16.7 C 23 %
1128 17-09-2020 19:56:17 16.4 C 24 %
1129 17-09-2020 20:06:18 16.4 C 24 %
1130 17-09-2020 20:16:17 16.1 C 25 %
1131 17-09-2020 20:26:17 16 C 25 %
1132 17-09-2020 20:36:17 16 C 25 %
1133 17-09-2020 20:46:18 15.7 C 25 %
1134 17-09-2020 20:56:18 15.5 C 25 %
1135 17-09-2020 21:06:17 15.2 C 25 %
1136 17-09-2020 21:16:18 14.8 C 27 %
1137 17-09-2020 21:26:18 14.9 C 27 %
1138 17-09-2020 21:36:18 14.7 C 27 %
1139 17-09-2020 21:46:17 14.7 C 27 %
1140 17-09-2020 21:56:17 15.1 C 27 %
1141 17-09-2020 22:06:17 15.2 C 26 %
1142 17-09-2020 22:16:18 14.7 C 27 %
1143 17-09-2020 22:26:18 13.9 C 29 %
1144 17-09-2020 22:36:18 13.8 C 29 %
1145 17-09-2020 22:46:18 14 C 28 %
1146 17-09-2020 22:56:18 13.7 C 30 %
1147 17-09-2020 23:06:17 13.6 C 30 %
1148 17-09-2020 23:16:17 13.7 C 30 %
1149 17-09-2020 23:26:17 13.2 C 30 %
1150 17-09-2020 23:36:18 13 C 30 %
Sensor: Nr:Datum:Temp:Feuchte:
Aussen-T/F 1151 17-09-2020 23:46:18 12.9 C 31 %
1152 17-09-2020 23:56:18 13 C 30 %
1153 18-09-2020 00:06:17 12.8 C 31 %
1154 18-09-2020 00:16:17 12.5 C 31 %
1155 18-09-2020 00:26:17 12.3 C 31 %
1156 18-09-2020 00:36:18 12.4 C 32 %
1157 18-09-2020 00:46:17 12.5 C 31 %
1158 18-09-2020 00:56:17 12.3 C 32 %
1159 18-09-2020 01:06:18 12.4 C 32 %
1160 18-09-2020 01:16:18 12.1 C 32 %
1161 18-09-2020 01:26:18 11.8 C 33 %
1162 18-09-2020 01:36:17 11.8 C 33 %
1163 18-09-2020 01:46:17 13 C 31 %
1164 18-09-2020 01:56:17 13 C 30 %
1165 18-09-2020 02:06:17 13 C 30 %
1166 18-09-2020 02:16:17 12.2 C 31 %
1167 18-09-2020 02:26:18 11.6 C 33 %
1168 18-09-2020 02:36:18 11.4 C 33 %
1169 18-09-2020 02:46:17 11.5 C 33 %
1170 18-09-2020 02:56:17 11.2 C 33 %
1171 18-09-2020 03:06:17 11.4 C 33 %
1172 18-09-2020 03:16:17 11.2 C 33 %
1173 18-09-2020 03:26:17 10.7 C 35 %
1174 18-09-2020 03:36:18 10.6 C 35 %
1175 18-09-2020 03:46:17 10.5 C 35 %
Sensor: Nr:Datum:Temp:Feuchte:
Aussen-T/F 1176 18-09-2020 03:56:17 10.5 C 35 %
1177 18-09-2020 04:06:17 10.2 C 35 %
1178 18-09-2020 04:16:17 10.2 C 35 %
1179 18-09-2020 04:26:17 10.1 C 35 %
1180 18-09-2020 04:36:18 10.2 C 35 %
1181 18-09-2020 04:46:17 10 C 35 %
1182 18-09-2020 04:56:17 9.8 C 36 %
1183 18-09-2020 05:06:18 9.6 C 36 %
1184 18-09-2020 05:16:17 9.3 C 37 %
1185 18-09-2020 05:26:17 9.3 C 37 %
1186 18-09-2020 05:36:17 9.4 C 36 %
1187 18-09-2020 05:46:17 9.1 C 37 %
1188 18-09-2020 05:56:17 8.8 C 38 %
1189 18-09-2020 06:06:17 8.9 C 38 %
1190 18-09-2020 06:16:17 9 C 37 %
1191 18-09-2020 06:26:17 8.9 C 38 %
1192 18-09-2020 06:36:18 8.7 C 38 %
1193 18-09-2020 06:46:18 8.9 C 38 %
1194 18-09-2020 06:56:18 9 C 37 %
1195 18-09-2020 07:06:17 9.1 C 37 %
1196 18-09-2020 07:16:17 9.2 C 37 %
1197 18-09-2020 07:26:17 9.3 C 37 %
1198 18-09-2020 07:36:17 9.8 C 37 %
1199 18-09-2020 07:46:18 9.9 C 37 %
1200 18-09-2020 07:56:18 10.2 C 36 %
Sensor: Nr:Datum:Temp:Feuchte:
Aussen-T/F 1201 18-09-2020 08:06:17 10.2 C 36 %
1202 18-09-2020 08:16:17 10.4 C 36 %
1203 18-09-2020 08:26:17 10.5 C 36 %
1204 18-09-2020 08:36:18 10.5 C 36 %
1205 18-09-2020 08:46:17 10.6 C 36 %
1206 18-09-2020 08:56:17 10.8 C 36 %
1207 18-09-2020 09:06:18 11 C 35 %
1208 18-09-2020 09:16:17 11.2 C 35 %
1209 18-09-2020 09:26:17 11.4 C 35 %
1210 18-09-2020 09:36:18 11.6 C 35 %
1211 18-09-2020 09:46:17 12.2 C 33 %
1212 18-09-2020 09:56:17 12.4 C 33 %
1213 18-09-2020 10:06:18 12.6 C 33 %
1214 18-09-2020 10:16:17 13.2 C 31 %
1215 18-09-2020 10:26:18 13.8 C 31 %
1216 18-09-2020 10:36:17 14.2 C 30 %
1217 18-09-2020 10:46:17 14.6 C 30 %
1218 18-09-2020 10:56:17 15.2 C 29 %
1219 18-09-2020 11:06:17 15.7 C 28 %
1220 18-09-2020 11:16:17 16.1 C 28 %
1221 18-09-2020 11:26:17 16.6 C 28 %
1222 18-09-2020 11:36:17 16.8 C 27 %
1223 18-09-2020 11:46:18 17.5 C 27 %
1224 18-09-2020 11:56:18 17.7 C 27 %
1225 18-09-2020 12:06:17 18.1 C 27 %
Sensor: Nr:Datum:Temp:Feuchte:
Aussen-T/F 1226 18-09-2020 12:16:17 18.9 C 26 %
1227 18-09-2020 12:26:17 18.7 C 26 %
1228 18-09-2020 12:36:17 18.9 C 26 %
1229 18-09-2020 12:46:17 19.5 C 26 %
1230 18-09-2020 12:56:17 20 C 25 %
1231 18-09-2020 13:06:18 20.3 C 25 %
1232 18-09-2020 13:16:17 20.7 C 25 %
1233 18-09-2020 13:26:17 21.2 C 25 %
1234 18-09-2020 13:36:17 21.4 C 25 %
1235 18-09-2020 13:46:17 22 C 23 %
1236 18-09-2020 13:56:17 22.4 C 23 %
1237 18-09-2020 14:06:17 23 C 22 %
1238 18-09-2020 14:16:17 24.2 C 21 %
1239 18-09-2020 14:26:17 23.5 C 21 %
1240 18-09-2020 14:36:18 23.7 C 21 %
1241 18-09-2020 14:46:17 23.6 C 21 %
1242 18-09-2020 14:56:17 24.4 C 20 %
1243 18-09-2020 15:06:18 25.4 C 20 %
1244 18-09-2020 15:16:17 24.8 C 20 %
1245 18-09-2020 15:26:17 25.3 C 20 %
1246 18-09-2020 15:36:17 27.4 C 20 %
1247 18-09-2020 15:46:17 27.5 C 20 %
1248 18-09-2020 15:56:17 27.9 C 20 %
1249 18-09-2020 16:06:18 27.8 C 20 %
1250 18-09-2020 16:16:17 28 C 20 %
Sensor: Nr:Datum:Temp:Feuchte:
Aussen-T/F 1251 18-09-2020 16:26:17 26.7 C 20 %
1252 18-09-2020 16:36:18 27.2 C 20 %
1253 18-09-2020 16:46:18 28.8 C 20 %
1254 18-09-2020 16:56:18 27.6 C 20 %
1255 18-09-2020 17:06:17 28.8 C 20 %
1256 18-09-2020 17:16:17 28 C 20 %
1257 18-09-2020 17:26:18 27.5 C 20 %
1258 18-09-2020 17:36:18 26.5 C 20 %
1259 18-09-2020 17:46:17 24.5 C 20 %
1260 18-09-2020 17:56:17 24.2 C 20 %
1261 18-09-2020 18:06:18 23.9 C 20 %
1262 18-09-2020 18:16:17 23.7 C 20 %
1263 18-09-2020 18:26:17 23.4 C 20 %
1264 18-09-2020 18:36:18 22.9 C 20 %
1265 18-09-2020 18:46:17 22.8 C 20 %
1266 18-09-2020 18:56:17 22.1 C 20 %
1267 18-09-2020 19:06:18 21.5 C 20 %
1268 18-09-2020 19:16:17 20 C 23 %
1269 18-09-2020 19:26:17 19 C 24 %
1270 18-09-2020 19:36:18 18.7 C 25 %
1271 18-09-2020 19:46:18 17.7 C 25 %
1272 18-09-2020 19:56:18 17.5 C 26 %
1273 18-09-2020 20:06:17 17 C 26 %
1274 18-09-2020 20:16:18 16.6 C 26 %
1275 18-09-2020 20:26:18 16.6 C 26 %
Sensor: Nr:Datum:Temp:Feuchte:
Aussen-T/F 1276 18-09-2020 20:36:17 16.4 C 26 %
1277 18-09-2020 20:46:18 16 C 27 %
1278 18-09-2020 20:56:18 15.8 C 27 %
1279 18-09-2020 21:06:17 15.8 C 27 %
1280 18-09-2020 21:16:17 15.6 C 27 %
1281 18-09-2020 21:26:17 15.6 C 27 %
1282 18-09-2020 21:36:17 15.4 C 27 %
1283 18-09-2020 21:46:17 15.3 C 27 %
1284 18-09-2020 21:56:17 15.1 C 26 %
1285 18-09-2020 22:06:17 15.2 C 26 %
1286 18-09-2020 22:16:18 14.9 C 27 %
1287 18-09-2020 22:26:18 14.7 C 27 %
1288 18-09-2020 22:36:18 14.7 C 27 %
1289 18-09-2020 22:46:18 14.4 C 27 %
1290 18-09-2020 22:56:18 14.1 C 27 %
1291 18-09-2020 23:06:18 14.1 C 27 %
1292 18-09-2020 23:16:18 13.9 C 28 %
1293 18-09-2020 23:26:18 14.2 C 27 %
1294 18-09-2020 23:36:17 13.8 C 28 %
1295 18-09-2020 23:46:17 13.4 C 28 %
1296 18-09-2020 23:56:17 13.6 C 28 %
1297 19-09-2020 00:06:17 13.7 C 28 %
1298 19-09-2020 00:16:17 13.6 C 28 %
1299 19-09-2020 00:26:17 13.6 C 28 %
1300 19-09-2020 00:36:18 13.5 C 28 %
Sensor: Nr:Datum:Temp:Feuchte:
Aussen-T/F 1301 19-09-2020 00:46:17 13.5 C 27 %
1302 19-09-2020 00:56:18 13 C 28 %
1303 19-09-2020 01:06:17 12.3 C 30 %
1304 19-09-2020 01:16:17 12.1 C 30 %
1305 19-09-2020 01:26:17 12.5 C 30 %
1306 19-09-2020 01:36:18 12.3 C 30 %
1307 19-09-2020 01:46:17 12 C 30 %
1308 19-09-2020 01:56:17 12 C 30 %
1309 19-09-2020 02:06:18 11.9 C 31 %
1310 19-09-2020 02:16:17 11.1 C 32 %
1311 19-09-2020 02:26:17 11.2 C 32 %
1312 19-09-2020 02:36:17 11 C 32 %
1313 19-09-2020 02:46:17 10.1 C 33 %
1314 19-09-2020 02:56:17 10.1 C 34 %
1315 19-09-2020 03:06:18 9.7 C 35 %
1316 19-09-2020 03:16:17 9.7 C 35 %
1317 19-09-2020 03:26:17 9.7 C 35 %
1318 19-09-2020 03:36:18 9.8 C 35 %
1319 19-09-2020 03:46:17 9.5 C 35 %
1320 19-09-2020 03:56:17 9.4 C 35 %
1321 19-09-2020 04:06:18 9.2 C 35 %
1322 19-09-2020 04:16:17 9.2 C 36 %
1323 19-09-2020 04:26:17 8.8 C 36 %
1324 19-09-2020 04:36:17 8.7 C 37 %
1325 19-09-2020 04:46:17 8.4 C 37 %
Sensor: Nr:Datum:Temp:Feuchte:
Aussen-T/F 1326 19-09-2020 04:56:17 8.4 C 37 %
1327 19-09-2020 05:06:17 8.6 C 37 %
1328 19-09-2020 05:16:17 8.2 C 37 %
1329 19-09-2020 05:26:17 8 C 37 %
1330 19-09-2020 05:36:17 7.8 C 38 %
1331 19-09-2020 05:46:17 7.8 C 38 %
1332 19-09-2020 05:56:17 7.7 C 39 %
1333 19-09-2020 06:06:18 7.6 C 40 %
1334 19-09-2020 06:16:18 7.4 C 40 %
1335 19-09-2020 06:26:18 7.4 C 40 %
1336 19-09-2020 06:36:17 7.3 C 40 %
1337 19-09-2020 06:46:17 7.1 C 40 %
1338 19-09-2020 06:56:17 7 C 41 %
1339 19-09-2020 07:06:17 7.1 C 41 %
1340 19-09-2020 07:16:18 7 C 41 %
1341 19-09-2020 07:26:18 6.8 C 42 %
1342 19-09-2020 07:36:17 7 C 42 %
1343 19-09-2020 07:46:17 6.9 C 42 %
1344 19-09-2020 07:56:17 7 C 41 %
1345 19-09-2020 08:06:17 7.3 C 42 %
1346 19-09-2020 08:16:17 7.6 C 41 %
1347 19-09-2020 08:26:17 7.6 C 41 %
1348 19-09-2020 08:36:18 7.8 C 41 %
1349 19-09-2020 08:46:17 8.1 C 41 %
1350 19-09-2020 08:56:17 8.1 C 41 %
Sensor: Nr:Datum:Temp:Feuchte:
Aussen-T/F 1351 19-09-2020 09:06:17 8.3 C 41 %
1352 19-09-2020 09:16:17 8.8 C 40 %
1353 19-09-2020 09:26:17 9 C 40 %
1354 19-09-2020 09:36:17 9.5 C 39 %
1355 19-09-2020 09:46:18 9.8 C 38 %
1356 19-09-2020 09:56:18 10.5 C 37 %
1357 19-09-2020 10:06:18 11.1 C 35 %
1358 19-09-2020 10:16:18 11.5 C 35 %
1359 19-09-2020 10:26:18 12.3 C 33 %
1360 19-09-2020 10:36:17 12.6 C 33 %
1361 19-09-2020 10:46:17 13.6 C 31 %
1362 19-09-2020 10:56:17 14 C 31 %
1363 19-09-2020 11:06:18 14.3 C 31 %
1364 19-09-2020 11:16:17 14.7 C 30 %
1365 19-09-2020 11:26:17 15.6 C 29 %
1366 19-09-2020 11:36:17 16.8 C 27 %
1367 19-09-2020 11:46:17 17.7 C 26 %
1368 19-09-2020 11:56:17 17.6 C 26 %
1369 19-09-2020 12:06:18 18.1 C 25 %
1370 19-09-2020 12:16:17 19.3 C 24 %
1371 19-09-2020 12:26:17 19 C 24 %
1372 19-09-2020 12:36:18 19.3 C 24 %
1373 19-09-2020 12:46:17 19.9 C 23 %
1374 19-09-2020 12:56:17 20.1 C 23 %
1375 19-09-2020 13:06:18 20.2 C 23 %
Sensor: Nr:Datum:Temp:Feuchte:
Aussen-T/F 1376 19-09-2020 13:16:17 20.5 C 22 %
1377 19-09-2020 13:26:17 20.8 C 22 %
1378 19-09-2020 13:36:17 21.2 C 21 %
1379 19-09-2020 13:46:17 21.8 C 20 %
1380 19-09-2020 13:56:17 22.7 C 20 %
1381 19-09-2020 14:06:17 23.9 C 20 %
1382 19-09-2020 14:16:18 24.7 C 20 %
1383 19-09-2020 14:26:18 24.1 C 20 %
1384 19-09-2020 14:36:18 24.7 C 20 %
1385 19-09-2020 14:46:17 24.3 C 20 %
1386 19-09-2020 14:56:17 24.4 C 20 %
1387 19-09-2020 15:06:18 25.5 C 20 %
1388 19-09-2020 15:16:17 26.3 C 20 %
1389 19-09-2020 15:26:17 28.8 C 20 %
1390 19-09-2020 15:36:17 28.9 C 20 %
1391 19-09-2020 15:46:17 29.9 C 20 %
1392 19-09-2020 15:56:17 29.6 C 20 %
1393 19-09-2020 16:06:17 29.5 C 20 %
1394 19-09-2020 16:16:17 28.4 C 20 %
1395 19-09-2020 16:26:17 28.9 C 20 %
1396 19-09-2020 16:36:17 29.5 C 20 %
1397 19-09-2020 16:46:17 29.9 C 20 %
1398 19-09-2020 16:56:17 30.5 C 20 %
1399 19-09-2020 17:06:17 29.2 C 20 %
1400 19-09-2020 17:16:18 29.4 C 20 %
Sensor: Nr:Datum:Temp:Feuchte:
Aussen-T/F 1401 19-09-2020 17:26:18 28.6 C 20 %
1402 19-09-2020 17:36:18 26.9 C 20 %
1403 19-09-2020 17:46:17 26.1 C 20 %
1404 19-09-2020 17:56:18 25.8 C 20 %
1405 19-09-2020 18:06:17 25.7 C 20 %
1406 19-09-2020 18:16:17 25.3 C 20 %
1407 19-09-2020 18:26:17 24.9 C 20 %
1408 19-09-2020 18:36:17 24.5 C 20 %
1409 19-09-2020 18:46:17 23.3 C 20 %
1410 19-09-2020 18:56:17 22.1 C 20 %
1411 19-09-2020 19:06:18 21.3 C 20 %
1412 19-09-2020 19:16:18 20.2 C 20 %
1413 19-09-2020 19:26:18 20 C 20 %
1414 19-09-2020 19:36:17 19.8 C 20 %
1415 19-09-2020 19:46:17 19.5 C 20 %
1416 19-09-2020 19:56:17 19.4 C 20 %
1417 19-09-2020 20:06:18 18.9 C 20 %
1418 19-09-2020 20:16:17 18.3 C 20 %
1419 19-09-2020 20:26:18 17.5 C 21 %
1420 19-09-2020 20:36:18 17.1 C 22 %
1421 19-09-2020 20:46:18 16.6 C 23 %
1422 19-09-2020 20:56:18 16.4 C 23 %
1423 19-09-2020 21:06:17 16.3 C 23 %
1424 19-09-2020 21:16:17 16.4 C 23 %
1425 19-09-2020 21:26:17 16.4 C 24 %
Sensor: Nr:Datum:Temp:Feuchte:
Aussen-T/F 1426 19-09-2020 21:36:18 15.9 C 25 %
1427 19-09-2020 21:46:17 15.7 C 25 %
1428 19-09-2020 21:56:17 15.7 C 25 %
1429 19-09-2020 22:06:17 15.8 C 25 %
1430 19-09-2020 22:16:18 15.6 C 25 %
1431 19-09-2020 22:26:18 15.4 C 25 %
1432 19-09-2020 22:36:17 15 C 26 %
1433 19-09-2020 22:46:18 14.7 C 27 %
1434 19-09-2020 22:56:18 14.4 C 27 %
1435 19-09-2020 23:06:18 14.1 C 27 %
1436 19-09-2020 23:16:18 14.2 C 27 %
1437 19-09-2020 23:26:18 13.8 C 29 %
1438 19-09-2020 23:36:17 13.7 C 29 %
1439 19-09-2020 23:46:18 13.7 C 29 %
1440 19-09-2020 23:56:18 13.8 C 29 %
1441 20-09-2020 00:06:17 13.6 C 30 %
1442 20-09-2020 00:16:17 13.4 C 29 %
1443 20-09-2020 00:26:17 13.3 C 30 %
1444 20-09-2020 00:36:17 13 C 30 %
1445 20-09-2020 00:46:17 12.8 C 31 %
1446 20-09-2020 00:56:17 12.3 C 31 %
1447 20-09-2020 01:06:18 12.3 C 32 %
1448 20-09-2020 01:16:17 12 C 34 %
1449 20-09-2020 01:26:17 11.8 C 35 %
1450 20-09-2020 01:36:18 11.7 C 34 %
Sensor: Nr:Datum:Temp:Feuchte:
Aussen-T/F 1451 20-09-2020 01:46:17 11.8 C 34 %
1452 20-09-2020 01:56:17 11.7 C 34 %
1453 20-09-2020 02:06:17 11.3 C 35 %
1454 20-09-2020 02:16:18 11.2 C 34 %
1455 20-09-2020 02:26:18 11.2 C 34 %
1456 20-09-2020 02:36:18 10.8 C 35 %
1457 20-09-2020 02:46:17 10.6 C 36 %
1458 20-09-2020 02:56:17 10.5 C 35 %
1459 20-09-2020 03:06:17 10 C 36 %
1460 20-09-2020 03:16:17 9.9 C 37 %
1461 20-09-2020 03:26:17 10 C 36 %
1462 20-09-2020 03:36:17 9.8 C 37 %
1463 20-09-2020 03:46:17 9.5 C 37 %
1464 20-09-2020 03:56:17 9.4 C 37 %
1465 20-09-2020 04:06:17 9.4 C 37 %
1466 20-09-2020 04:16:17 9.2 C 37 %
1467 20-09-2020 04:26:17 9.2 C 37 %
1468 20-09-2020 04:36:17 9.1 C 37 %
1469 20-09-2020 04:46:17 9.1 C 37 %
1470 20-09-2020 04:56:17 9 C 37 %
1471 20-09-2020 05:06:18 9 C 38 %
1472 20-09-2020 05:16:17 9 C 38 %
1473 20-09-2020 05:26:17 9.1 C 39 %
1474 20-09-2020 05:36:17 8.8 C 39 %
1475 20-09-2020 05:46:17 8.7 C 39 %
Sensor: Nr:Datum:Temp:Feuchte:
Aussen-T/F 1476 20-09-2020 05:56:17 8.6 C 40 %
1477 20-09-2020 06:06:18 8.4 C 40 %
1478 20-09-2020 06:16:18 8.3 C 40 %
1479 20-09-2020 06:26:18 8.2 C 40 %
1480 20-09-2020 06:36:17 7.9 C 41 %
1481 20-09-2020 06:46:17 7.8 C 41 %
1482 20-09-2020 06:56:17 7.6 C 41 %
1483 20-09-2020 07:06:18 7.5 C 41 %
1484 20-09-2020 07:16:17 7.4 C 41 %
1485 20-09-2020 07:26:18 7.4 C 42 %
1486 20-09-2020 07:36:18 7.5 C 42 %
1487 20-09-2020 07:46:17 7.7 C 42 %
1488 20-09-2020 07:56:17 7.7 C 42 %
1489 20-09-2020 08:06:17 8 C 42 %
1490 20-09-2020 08:16:17 8.1 C 42 %
1491 20-09-2020 08:26:17 8.4 C 42 %
1492 20-09-2020 08:36:18 8.9 C 41 %
1493 20-09-2020 08:46:17 8.9 C 41 %
1494 20-09-2020 08:56:18 8.9 C 41 %
1495 20-09-2020 09:06:17 8.9 C 41 %
1496 20-09-2020 09:16:17 9 C 41 %
1497 20-09-2020 09:26:17 9.6 C 41 %
1498 20-09-2020 09:36:18 10.1 C 40 %
1499 20-09-2020 09:46:17 10.7 C 39 %
1500 20-09-2020 09:56:17 11.2 C 38 %
Sensor: Nr:Datum:Temp:Feuchte:
Aussen-T/F 1501 20-09-2020 10:06:18 11.4 C 38 %
1502 20-09-2020 10:16:17 11.9 C 37 %
1503 20-09-2020 10:26:17 12.1 C 36 %
1504 20-09-2020 10:36:18 12.4 C 36 %
1505 20-09-2020 10:46:17 13 C 35 %
1506 20-09-2020 10:56:17 13.5 C 35 %
1507 20-09-2020 11:06:18 13.8 C 35 %
1508 20-09-2020 11:16:17 14.2 C 34 %
1509 20-09-2020 11:26:17 14.8 C 32 %
1510 20-09-2020 11:36:18 16 C 31 %
1511 20-09-2020 11:46:17 16.3 C 30 %
1512 20-09-2020 11:56:17 16.7 C 30 %
1513 20-09-2020 12:06:18 17.6 C 30 %
1514 20-09-2020 12:16:17 18.2 C 28 %
1515 20-09-2020 12:26:17 18.5 C 28 %
1516 20-09-2020 12:36:18 19.1 C 27 %
1517 20-09-2020 12:46:17 20.5 C 25 %
1518 20-09-2020 12:56:17 20.5 C 25 %
1519 20-09-2020 13:06:17 20.8 C 24 %
1520 20-09-2020 13:16:17 21.1 C 22 %
1521 20-09-2020 13:26:17 20.9 C 23 %
1522 20-09-2020 13:36:18 21.1 C 22 %
1523 20-09-2020 13:46:17 21.7 C 22 %
1524 20-09-2020 13:56:17 22.8 C 20 %
1525 20-09-2020 14:06:18 24.7 C 20 %
Sensor: Nr:Datum:Temp:Feuchte:
Aussen-T/F 1526 20-09-2020 14:16:17 25.4 C 20 %
1527 20-09-2020 14:26:17 24.8 C 20 %
1528 20-09-2020 14:36:17 24.3 C 20 %
1529 20-09-2020 14:46:18 23.9 C 20 %
1530 20-09-2020 14:56:18 23.9 C 20 %
1531 20-09-2020 15:06:18 24.1 C 20 %
1532 20-09-2020 15:16:17 23.7 C 20 %
1533 20-09-2020 15:26:18 23.2 C 20 %
1534 20-09-2020 15:36:18 22.4 C 20 %
1535 20-09-2020 15:46:18 22.1 C 21 %
1536 20-09-2020 15:56:18 22.5 C 20 %
1537 20-09-2020 16:06:18 22.7 C 21 %
1538 20-09-2020 16:16:17 24.3 C 20 %
1539 20-09-2020 16:26:17 26.5 C 20 %
1540 20-09-2020 16:36:17 27.6 C 20 %
1541 20-09-2020 16:46:17 28.9 C 20 %
1542 20-09-2020 16:56:17 29.3 C 20 %
1543 20-09-2020 17:06:18 28.3 C 20 %
1544 20-09-2020 17:16:17 28.2 C 20 %
1545 20-09-2020 17:26:17 24.5 C 20 %
1546 20-09-2020 17:36:18 23 C 20 %
1547 20-09-2020 17:46:18 22.2 C 20 %
1548 20-09-2020 17:56:18 21.5 C 21 %
1549 20-09-2020 18:06:17 21 C 21 %
1550 20-09-2020 18:16:18 20.6 C 22 %
Sensor: Nr:Datum:Temp:Feuchte:
Aussen-T/F 1551 20-09-2020 18:26:18 20.2 C 22 %
1552 20-09-2020 18:36:17 19.9 C 22 %
1553 20-09-2020 18:46:18 19.2 C 23 %
1554 20-09-2020 18:56:18 19.2 C 23 %
1555 20-09-2020 19:06:18 18.7 C 24 %
1556 20-09-2020 19:16:17 18.1 C 24 %
1557 20-09-2020 19:26:17 18.2 C 24 %
1558 20-09-2020 19:36:17 17.3 C 25 %
1559 20-09-2020 19:46:17 16.6 C 25 %
1560 20-09-2020 19:56:17 15.9 C 25 %
1561 20-09-2020 20:06:18 15.8 C 26 %
1562 20-09-2020 20:16:17 15.4 C 26 %
1563 20-09-2020 20:26:17 15.2 C 26 %
1564 20-09-2020 20:36:18 14.8 C 27 %
1565 20-09-2020 20:46:18 14.5 C 27 %
1566 20-09-2020 20:56:18 14.2 C 28 %
1567 20-09-2020 21:06:17 14.1 C 28 %
1568 20-09-2020 21:16:17 13.7 C 29 %
1569 20-09-2020 21:26:17 13.4 C 30 %
1570 20-09-2020 21:36:18 13.2 C 30 %
1571 20-09-2020 21:46:18 13.1 C 30 %
1572 20-09-2020 21:56:18 13 C 30 %
1573 20-09-2020 22:06:17 12.9 C 31 %
1574 20-09-2020 22:16:17 12.4 C 32 %
1575 20-09-2020 22:26:17 12 C 33 %
Sensor: Nr:Datum:Temp:Feuchte:
Aussen-T/F 1576 20-09-2020 22:36:17 11.7 C 35 %
1577 20-09-2020 22:46:18 11.4 C 35 %
1578 20-09-2020 22:56:18 11.4 C 35 %
1579 20-09-2020 23:06:18 11.1 C 36 %
1580 20-09-2020 23:16:18 10.8 C 36 %
1581 20-09-2020 23:26:18 10.7 C 36 %
1582 20-09-2020 23:36:18 10.8 C 36 %
1583 20-09-2020 23:46:18 10.7 C 36 %
1584 20-09-2020 23:56:18 10.7 C 36 %
1585 21-09-2020 00:06:18 10.6 C 36 %
1586 21-09-2020 00:16:17 10.5 C 36 %
1587 21-09-2020 00:26:17 9.9 C 37 %
1588 21-09-2020 00:36:17 9.7 C 37 %
1589 21-09-2020 00:46:18 9.7 C 38 %
1590 21-09-2020 00:56:18 9.7 C 38 %
1591 21-09-2020 01:06:18 9.8 C 37 %
1592 21-09-2020 01:16:17 9.6 C 38 %
1593 21-09-2020 01:26:17 9.6 C 38 %
1594 21-09-2020 01:36:17 9.4 C 38 %
1595 21-09-2020 01:46:17 9.6 C 38 %
1596 21-09-2020 01:56:17 9.3 C 39 %
1597 21-09-2020 02:06:18 9 C 39 %
1598 21-09-2020 02:16:17 8.7 C 40 %
1599 21-09-2020 02:26:17 8.6 C 40 %
1600 21-09-2020 02:36:17 8.4 C 40 %
Sensor: Nr:Datum:Temp:Feuchte:
Aussen-T/F 1601 21-09-2020 02:46:18 8.4 C 40 %
1602 21-09-2020 02:56:18 8.4 C 40 %
1603 21-09-2020 03:06:18 8.3 C 40 %
1604 21-09-2020 03:16:17 8.5 C 41 %
1605 21-09-2020 03:26:17 8.4 C 41 %
1606 21-09-2020 03:36:18 8.2 C 41 %
1607 21-09-2020 03:46:17 8 C 41 %
1608 21-09-2020 03:56:17 8.1 C 42 %
1609 21-09-2020 04:06:17 7.9 C 42 %
1610 21-09-2020 04:16:18 7.9 C 42 %
1611 21-09-2020 04:26:18 7.8 C 42 %
1612 21-09-2020 04:36:17 7.7 C 42 %
1613 21-09-2020 04:46:17 7.7 C 43 %
1614 21-09-2020 04:56:17 7.9 C 43 %
1615 21-09-2020 05:06:18 7.8 C 42 %
1616 21-09-2020 05:16:18 7.6 C 42 %
1617 21-09-2020 05:26:18 7.3 C 42 %
1618 21-09-2020 05:36:17 7 C 43 %
1619 21-09-2020 05:46:18 7.3 C 45 %
1620 21-09-2020 05:56:18 7.5 C 45 %
1621 21-09-2020 06:06:18 7.2 C 43 %
1622 21-09-2020 06:16:17 7.2 C 44 %
1623 21-09-2020 06:26:17 6.8 C 44 %
1624 21-09-2020 06:36:17 7 C 45 %
1625 21-09-2020 06:46:18 6.8 C 45 %
Sensor: Nr:Datum:Temp:Feuchte:
Aussen-T/F 1626 21-09-2020 06:56:18 6.8 C 45 %
1627 21-09-2020 07:06:17 6.8 C 45 %
1628 21-09-2020 07:16:17 6.7 C 45 %
1629 21-09-2020 07:26:17 6.8 C 46 %
1630 21-09-2020 07:36:17 6.8 C 45 %
1631 21-09-2020 07:46:18 6.5 C 45 %
1632 21-09-2020 07:56:18 6.6 C 45 %
1633 21-09-2020 08:06:18 6.7 C 45 %
1634 21-09-2020 08:16:17 7 C 45 %
1635 21-09-2020 08:26:17 7.2 C 45 %
1636 21-09-2020 08:36:18 7.2 C 44 %
1637 21-09-2020 08:46:17 7.6 C 45 %
1638 21-09-2020 08:56:18 7.9 C 43 %
1639 21-09-2020 09:06:18 8.1 C 42 %
1640 21-09-2020 09:16:17 8.2 C 42 %
1641 21-09-2020 09:26:17 8.5 C 42 %
1642 21-09-2020 09:36:17 8.9 C 41 %
1643 21-09-2020 09:46:17 9 C 41 %
1644 21-09-2020 09:56:17 9.3 C 41 %
1645 21-09-2020 10:06:17 9.6 C 40 %
1646 21-09-2020 10:16:18 10 C 40 %
1647 21-09-2020 10:26:18 10.6 C 39 %
1648 21-09-2020 10:36:18 11.1 C 37 %
1649 21-09-2020 10:46:18 11.6 C 37 %
1650 21-09-2020 10:56:18 12 C 35 %
Sensor: Nr:Datum:Temp:Feuchte:
Aussen-T/F 1651 21-09-2020 11:06:17 12.8 C 35 %
1652 21-09-2020 11:16:17 13.5 C 34 %
1653 21-09-2020 11:26:18 13.7 C 35 %
1654 21-09-2020 11:36:17 14.7 C 33 %
1655 21-09-2020 11:46:18 14.9 C 33 %
1656 21-09-2020 11:56:18 15.7 C 32 %
1657 21-09-2020 12:06:18 16.9 C 30 %
1658 21-09-2020 12:16:17 17.3 C 30 %
1659 21-09-2020 12:26:17 17.5 C 30 %
1660 21-09-2020 12:36:17 17.9 C 30 %
1661 21-09-2020 12:46:17 19 C 27 %
1662 21-09-2020 12:56:17 19.4 C 27 %
1663 21-09-2020 13:06:17 19.5 C 27 %
1664 21-09-2020 13:16:17 20 C 25 %
1665 21-09-2020 13:26:17 20.2 C 26 %
1666 21-09-2020 13:36:17 20.8 C 25 %
1667 21-09-2020 13:46:18 21.4 C 24 %
1668 21-09-2020 13:56:18 22.5 C 22 %
1669 21-09-2020 14:06:18 26.1 C 20 %
1670 21-09-2020 14:16:17 28.1 C 20 %
1671 21-09-2020 14:26:17 25.1 C 20 %
1672 21-09-2020 14:36:17 24.3 C 20 %
1673 21-09-2020 14:46:17 24 C 20 %
1674 21-09-2020 14:56:17 25.7 C 20 %
1675 21-09-2020 15:06:18 27.3 C 20 %
Sensor: Nr:Datum:Temp:Feuchte:
Aussen-T/F 1676 21-09-2020 15:16:17 25.7 C 20 %
1677 21-09-2020 15:26:17 24.8 C 20 %
1678 21-09-2020 15:36:18 27.3 C 20 %
1679 21-09-2020 15:46:17 31.6 C 20 %
1680 21-09-2020 15:56:17 31.7 C 20 %
1681 21-09-2020 16:06:17 32.2 C 20 %
1682 21-09-2020 16:16:18 31.5 C 20 %
1683 21-09-2020 16:26:18 32.9 C 20 %
1684 21-09-2020 16:36:17 30.2 C 20 %
1685 21-09-2020 16:46:18 30.4 C 20 %
1686 21-09-2020 16:56:18 30.1 C 20 %
1687 21-09-2020 17:06:18 31.3 C 20 %
1688 21-09-2020 17:16:17 31.2 C 20 %
1689 21-09-2020 17:26:17 31.1 C 20 %
1690 21-09-2020 17:36:18 29.4 C 20 %
1691 21-09-2020 17:46:18 27.1 C 20 %
1692 21-09-2020 17:56:18 25.8 C 20 %
1693 21-09-2020 18:06:17 24.8 C 20 %
1694 21-09-2020 18:16:17 24 C 20 %
1695 21-09-2020 18:26:17 23 C 20 %
1696 21-09-2020 18:36:17 22.4 C 20 %
1697 21-09-2020 18:46:17 21.7 C 20 %
1698 21-09-2020 18:56:17 21.2 C 20 %
1699 21-09-2020 19:06:18 20.7 C 20 %
1700 21-09-2020 19:16:17 19.9 C 20 %
Sensor: Nr:Datum:Temp:Feuchte:
Aussen-T/F 1701 21-09-2020 19:26:17 19.6 C 20 %
1702 21-09-2020 19:36:18 19.1 C 21 %
1703 21-09-2020 19:46:18 18.8 C 21 %
1704 21-09-2020 19:56:18 18.2 C 22 %
1705 21-09-2020 20:06:18 17.7 C 23 %
1706 21-09-2020 20:16:18 16.9 C 24 %
1707 21-09-2020 20:26:18 16.6 C 25 %
1708 21-09-2020 20:36:17 16.1 C 25 %
1709 21-09-2020 20:46:17 15.7 C 26 %
1710 21-09-2020 20:56:17 15.4 C 27 %
1711 21-09-2020 21:06:18 15.6 C 26 %
1712 21-09-2020 21:16:18 15.3 C 27 %
1713 21-09-2020 21:26:18 15 C 27 %
1714 21-09-2020 21:36:18 14.5 C 28 %
1715 21-09-2020 21:46:17 14.2 C 29 %
1716 21-09-2020 21:56:17 14 C 29 %
1717 21-09-2020 22:06:17 13.7 C 30 %
1718 21-09-2020 22:16:17 13.5 C 30 %
1719 21-09-2020 22:26:17 13.4 C 30 %
1720 21-09-2020 22:36:17 13.2 C 31 %
1721 21-09-2020 22:46:17 13 C 31 %
1722 21-09-2020 22:56:18 12.9 C 32 %
1723 21-09-2020 23:06:18 12.5 C 33 %
1724 21-09-2020 23:16:17 12.3 C 33 %
1725 21-09-2020 23:26:17 12 C 33 %
Sensor: Nr:Datum:Temp:Feuchte:
Aussen-T/F 1726 21-09-2020 23:36:18 12 C 34 %
1727 21-09-2020 23:46:17 12 C 34 %
1728 21-09-2020 23:56:17 11.9 C 35 %
1729 22-09-2020 00:06:18 11.4 C 35 %
1730 22-09-2020 00:16:17 11.3 C 36 %
1731 22-09-2020 00:26:17 11.2 C 36 %
1732 22-09-2020 00:36:18 11 C 36 %
1733 22-09-2020 00:46:17 10.9 C 37 %
1734 22-09-2020 00:56:17 10.8 C 37 %
1735 22-09-2020 01:06:17 10.7 C 37 %
1736 22-09-2020 01:16:17 11.2 C 36 %
1737 22-09-2020 01:26:17 11.4 C 36 %
1738 22-09-2020 01:36:17 11.3 C 36 %
1739 22-09-2020 01:46:17 10.7 C 37 %
1740 22-09-2020 01:56:17 10.7 C 37 %
1741 22-09-2020 02:06:18 10.1 C 37 %
1742 22-09-2020 02:16:17 10 C 38 %
1743 22-09-2020 02:26:17 10 C 38 %
1744 22-09-2020 02:36:18 9.7 C 40 %
1745 22-09-2020 02:46:17 9.7 C 40 %
1746 22-09-2020 02:56:17 9.5 C 40 %
1747 22-09-2020 03:06:18 9.2 C 40 %
1748 22-09-2020 03:16:18 9.1 C 40 %
1749 22-09-2020 03:26:18 9.1 C 40 %
1750 22-09-2020 03:36:18 9.1 C 41 %
Sensor: Nr:Datum:Temp:Feuchte:
Aussen-T/F 1751 22-09-2020 03:46:18 8.9 C 41 %
1752 22-09-2020 03:56:18 8.8 C 41 %
1753 22-09-2020 04:06:18 8.8 C 42 %
1754 22-09-2020 04:16:18 8.6 C 42 %
1755 22-09-2020 04:26:18 8.5 C 42 %
1756 22-09-2020 04:36:17 8.6 C 43 %
1757 22-09-2020 04:46:18 8.6 C 42 %
1758 22-09-2020 04:56:18 8.6 C 42 %
1759 22-09-2020 05:06:17 8.4 C 43 %
1760 22-09-2020 05:16:17 8.4 C 42 %
1761 22-09-2020 05:26:17 8.4 C 43 %
1762 22-09-2020 05:36:17 8.2 C 43 %
1763 22-09-2020 05:46:17 8.1 C 43 %
1764 22-09-2020 05:56:17 7.9 C 44 %
1765 22-09-2020 06:06:17 7.8 C 45 %
1766 22-09-2020 06:16:18 7.8 C 45 %
1767 22-09-2020 06:26:18 7.6 C 45 %
1768 22-09-2020 06:36:17 7.6 C 45 %
1769 22-09-2020 06:46:18 7.7 C 45 %
1770 22-09-2020 06:56:18 7.7 C 45 %
1771 22-09-2020 07:06:18 7.5 C 45 %
1772 22-09-2020 07:16:18 7.4 C 45 %
1773 22-09-2020 07:26:18 7.3 C 45 %
1774 22-09-2020 07:36:18 7.6 C 46 %
1775 22-09-2020 07:46:18 8 C 45 %
Sensor: Nr:Datum:Temp:Feuchte:
Aussen-T/F 1776 22-09-2020 07:56:18 7.9 C 45 %
1777 22-09-2020 08:06:17 7.8 C 45 %
1778 22-09-2020 08:16:17 7.9 C 45 %
1779 22-09-2020 08:26:17 8.2 C 45 %
1780 22-09-2020 08:36:18 8.4 C 45 %
1781 22-09-2020 08:46:18 8.8 C 45 %
1782 22-09-2020 08:56:18 8.9 C 44 %
1783 22-09-2020 09:06:17 9.1 C 43 %
1784 22-09-2020 09:16:18 9.3 C 43 %
1785 22-09-2020 09:26:18 9.6 C 42 %
1786 22-09-2020 09:36:17 9.7 C 42 %
1787 22-09-2020 09:46:18 10 C 42 %
1788 22-09-2020 09:56:18 10.3 C 41 %
1789 22-09-2020 10:06:17 10.6 C 41 %
1790 22-09-2020 10:16:17 11.2 C 39 %
1791 22-09-2020 10:26:17 11.8 C 39 %
1792 22-09-2020 10:36:17 12.1 C 38 %
1793 22-09-2020 10:46:17 12.5 C 37 %
1794 22-09-2020 10:56:17 13 C 36 %
1795 22-09-2020 11:06:18 13.7 C 35 %
1796 22-09-2020 11:16:17 14.4 C 35 %
1797 22-09-2020 11:26:17 15.2 C 33 %
1798 22-09-2020 11:36:18 15.8 C 33 %
1799 22-09-2020 11:46:17 16.2 C 32 %
1800 22-09-2020 11:56:17 16.9 C 32 %
Sensor: Nr:Datum:Temp:Feuchte:
Aussen-T/F 1801 22-09-2020 12:06:18 17.3 C 31 %
1802 22-09-2020 12:16:17 18.5 C 30 %
1803 22-09-2020 12:26:17 19 C 30 %
1804 22-09-2020 12:36:17 19.5 C 29 %
1805 22-09-2020 12:46:17 19.8 C 28 %
1806 22-09-2020 12:56:17 20.4 C 28 %
1807 22-09-2020 13:06:17 20.5 C 28 %
1808 22-09-2020 13:16:17 21 C 26 %
1809 22-09-2020 13:26:17 21.1 C 26 %
1810 22-09-2020 13:36:18 23.3 C 20 %
1811 22-09-2020 13:46:17 23.4 C 20 %
1812 22-09-2020 13:56:17 25.1 C 20 %
1813 22-09-2020 14:06:17 27.2 C 20 %
1814 22-09-2020 14:16:18 28.4 C 20 %
1815 22-09-2020 14:26:18 27.7 C 20 %
1816 22-09-2020 14:36:17 26.3 C 20 %
1817 22-09-2020 14:46:17 26.7 C 20 %
1818 22-09-2020 14:56:18 26.2 C 20 %
1819 22-09-2020 15:06:17 26.9 C 20 %
1820 22-09-2020 15:16:17 26.6 C 20 %
1821 22-09-2020 15:26:17 26.6 C 20 %
1822 22-09-2020 15:36:18 28.5 C 20 %
1823 22-09-2020 15:46:17 31.4 C 20 %
1824 22-09-2020 15:56:17 30.2 C 20 %
1825 22-09-2020 16:06:17 29.7 C 20 %
Sensor: Nr:Datum:Temp:Feuchte:
Aussen-T/F 1826 22-09-2020 16:16:18 31.6 C 20 %
1827 22-09-2020 16:26:18 30.7 C 20 %
1828 22-09-2020 16:36:17 30.8 C 20 %
1829 22-09-2020 16:46:17 31.3 C 20 %
1830 22-09-2020 16:56:17 30 C 20 %
1831 22-09-2020 17:06:18 30.6 C 20 %
1832 22-09-2020 17:16:17 30.1 C 20 %
1833 22-09-2020 17:26:17 31.1 C 20 %
1834 22-09-2020 17:36:17 29.6 C 20 %
1835 22-09-2020 17:46:17 28.1 C 20 %
1836 22-09-2020 17:56:17 27.2 C 20 %
1837 22-09-2020 18:06:18 26.5 C 20 %
1838 22-09-2020 18:16:17 26.3 C 20 %
1839 22-09-2020 18:26:17 25.3 C 20 %
1840 22-09-2020 18:36:17 24.5 C 20 %
1841 22-09-2020 18:46:17 23.6 C 20 %
1842 22-09-2020 18:56:18 23.1 C 20 %
1843 22-09-2020 19:06:18 22.2 C 20 %
1844 22-09-2020 19:16:17 21.6 C 20 %
1845 22-09-2020 19:26:17 21.1 C 21 %
1846 22-09-2020 19:36:17 20.4 C 23 %
1847 22-09-2020 19:46:18 19.9 C 25 %
1848 22-09-2020 19:56:18 19.5 C 25 %
1849 22-09-2020 20:06:18 19.1 C 25 %
1850 22-09-2020 20:16:17 19.1 C 25 %
Sensor: Nr:Datum:Temp:Feuchte:
Aussen-T/F 1851 22-09-2020 20:26:17 18.6 C 25 %
1852 22-09-2020 20:36:17 18.3 C 25 %
1853 22-09-2020 20:46:17 18.1 C 26 %
1854 22-09-2020 20:56:17 18 C 26 %
1855 22-09-2020 21:06:17 17.6 C 27 %
1856 22-09-2020 21:16:17 17.2 C 27 %
1857 22-09-2020 21:26:17 16.9 C 27 %
1858 22-09-2020 21:36:18 16.8 C 27 %
1859 22-09-2020 21:46:18 16.5 C 28 %
1860 22-09-2020 21:56:18 16.2 C 28 %
1861 22-09-2020 22:06:17 16.2 C 28 %
1862 22-09-2020 22:16:17 15.9 C 29 %
1863 22-09-2020 22:26:17 15.6 C 30 %
1864 22-09-2020 22:36:17 15.6 C 30 %
1865 22-09-2020 22:46:18 15.4 C 30 %
1866 22-09-2020 22:56:18 15.3 C 30 %
1867 22-09-2020 23:06:18 15.1 C 30 %
1868 22-09-2020 23:16:17 14.7 C 31 %
1869 22-09-2020 23:26:17 14.4 C 31 %
1870 22-09-2020 23:36:18 14.7 C 31 %
1871 22-09-2020 23:46:17 14.7 C 31 %
1872 22-09-2020 23:56:17 14.2 C 31 %
1873 23-09-2020 00:06:18 14 C 31 %
1874 23-09-2020 00:16:17 13.8 C 32 %
1875 23-09-2020 00:26:17 14 C 31 %
Sensor: Nr:Datum:Temp:Feuchte:
Aussen-T/F 1876 23-09-2020 00:36:18 14 C 31 %
1877 23-09-2020 00:46:17 13.8 C 32 %
1878 23-09-2020 00:56:17 13.7 C 33 %
1879 23-09-2020 01:06:17 13.6 C 33 %
1880 23-09-2020 01:16:17 13.7 C 33 %
1881 23-09-2020 01:26:17 13.9 C 33 %
1882 23-09-2020 01:36:17 14.1 C 32 %
1883 23-09-2020 01:46:17 14.5 C 32 %
1884 23-09-2020 01:56:17 14.5 C 32 %
1885 23-09-2020 02:06:18 14.5 C 32 %
1886 23-09-2020 02:16:17 14.6 C 31 %
1887 23-09-2020 02:26:17 14.2 C 32 %
1888 23-09-2020 02:36:17 14.1 C 32 %
1889 23-09-2020 02:46:17 13.9 C 33 %
1890 23-09-2020 02:56:17 13.2 C 34 %
1891 23-09-2020 03:06:18 13.2 C 33 %
1892 23-09-2020 03:16:17 13.4 C 34 %
1893 23-09-2020 03:26:17 13.7 C 34 %
1894 23-09-2020 03:36:18 14.1 C 32 %
1895 23-09-2020 03:46:17 14.2 C 33 %
1896 23-09-2020 03:56:17 14.1 C 33 %
1897 23-09-2020 04:06:17 13.9 C 33 %
1898 23-09-2020 04:16:17 13.8 C 33 %
1899 23-09-2020 04:26:18 13.9 C 34 %
1900 23-09-2020 04:36:18 13.6 C 34 %
Sensor: Nr:Datum:Temp:Feuchte:
Aussen-T/F 1901 23-09-2020 04:46:18 13.4 C 34 %
1902 23-09-2020 04:56:18 12.9 C 35 %
1903 23-09-2020 05:06:17 12.4 C 35 %
1904 23-09-2020 05:16:18 12 C 36 %
1905 23-09-2020 05:26:18 12 C 36 %
1906 23-09-2020 05:36:17 11.6 C 37 %
1907 23-09-2020 05:46:17 11.6 C 37 %
1908 23-09-2020 05:56:17 11.8 C 37 %
1909 23-09-2020 06:06:18 11.9 C 37 %
1910 23-09-2020 06:16:18 11.7 C 37 %
1911 23-09-2020 06:26:18 11.6 C 37 %
1912 23-09-2020 06:36:18 11.5 C 37 %
1913 23-09-2020 06:46:17 11.9 C 37 %
1914 23-09-2020 06:56:17 12.8 C 35 %
1915 23-09-2020 07:06:17 14 C 32 %
1916 23-09-2020 07:16:17 14.1 C 32 %
1917 23-09-2020 07:26:17 14.3 C 32 %
1918 23-09-2020 07:36:18 13.8 C 33 %
1919 23-09-2020 07:46:18 13.8 C 33 %
1920 23-09-2020 07:56:18 13.8 C 33 %
1921 23-09-2020 08:06:18 14 C 32 %
1922 23-09-2020 08:16:18 13.9 C 33 %
1923 23-09-2020 08:26:18 14.1 C 32 %
1924 23-09-2020 08:36:18 13.8 C 33 %
1925 23-09-2020 08:46:17 13.6 C 33 %
Sensor: Nr:Datum:Temp:Feuchte:
Aussen-T/F 1926 23-09-2020 08:56:17 13.6 C 34 %
1927 23-09-2020 09:06:17 13.5 C 34 %
1928 23-09-2020 09:16:17 13.7 C 34 %
1929 23-09-2020 09:26:17 14.3 C 33 %
1930 23-09-2020 09:36:17 14.4 C 33 %
1931 23-09-2020 09:46:17 16.2 C 30 %
1932 23-09-2020 09:56:17 17 C 27 %
1933 23-09-2020 10:06:17 17.6 C 27 %
1934 23-09-2020 10:16:17 18 C 26 %
1935 23-09-2020 10:26:17 18.1 C 26 %
1936 23-09-2020 10:36:17 18.1 C 26 %
1937 23-09-2020 10:46:18 18.5 C 26 %
1938 23-09-2020 10:56:18 18.8 C 25 %
1939 23-09-2020 11:06:17 18.9 C 26 %
1940 23-09-2020 11:16:17 19.4 C 25 %
1941 23-09-2020 11:26:17 19.8 C 25 %
1942 23-09-2020 11:36:17 19.9 C 26 %
1943 23-09-2020 11:46:18 19.9 C 26 %
1944 23-09-2020 11:56:18 20.1 C 25 %
1945 23-09-2020 12:06:17 20.1 C 25 %
1946 23-09-2020 12:16:17 20.7 C 25 %
1947 23-09-2020 12:26:17 20.8 C 25 %
1948 23-09-2020 12:36:18 21 C 25 %
1949 23-09-2020 12:46:17 21.9 C 24 %
1950 23-09-2020 12:56:17 22.2 C 23 %
Sensor: Nr:Datum:Temp:Feuchte:
Aussen-T/F 1951 23-09-2020 13:06:18 22.6 C 23 %
1952 23-09-2020 13:16:17 22.5 C 23 %
1953 23-09-2020 13:26:17 22 C 23 %
1954 23-09-2020 13:36:17 23.6 C 22 %
1955 23-09-2020 13:46:18 23.3 C 22 %
1956 23-09-2020 13:56:18 23.6 C 21 %
1957 23-09-2020 14:06:17 24.4 C 21 %
1958 23-09-2020 14:16:17 24.7 C 20 %
1959 23-09-2020 14:26:17 24.5 C 20 %
1960 23-09-2020 14:36:17 24.2 C 21 %
1961 23-09-2020 14:46:17 24.5 C 21 %
1962 23-09-2020 14:56:17 24.5 C 21 %
1963 23-09-2020 15:06:17 23.9 C 21 %
1964 23-09-2020 15:16:17 24.2 C 21 %
1965 23-09-2020 15:26:17 24.4 C 20 %
1966 23-09-2020 15:36:18 26.1 C 20 %
1967 23-09-2020 15:46:17 27.7 C 20 %
1968 23-09-2020 15:56:17 27.7 C 20 %
1969 23-09-2020 16:06:18 29.9 C 20 %
1970 23-09-2020 16:16:17 27 C 20 %
1971 23-09-2020 16:26:17 27.3 C 20 %
1972 23-09-2020 16:36:17 28.6 C 20 %
1973 23-09-2020 16:46:17 29.1 C 20 %
1974 23-09-2020 16:56:18 28 C 20 %
1975 23-09-2020 17:06:18 24.6 C 20 %
Sensor: Nr:Datum:Temp:Feuchte:
Aussen-T/F 1976 23-09-2020 17:16:17 24.8 C 20 %
1977 23-09-2020 17:26:17 24.1 C 20 %
1978 23-09-2020 17:36:17 25.5 C 20 %
1979 23-09-2020 17:46:17 24.5 C 20 %
1980 23-09-2020 17:56:17 24 C 20 %
1981 23-09-2020 18:06:18 23 C 20 %
1982 23-09-2020 18:16:17 22.4 C 21 %
1983 23-09-2020 18:26:17 22 C 22 %
1984 23-09-2020 18:36:17 21.5 C 23 %
1985 23-09-2020 18:46:18 20.9 C 25 %
1986 23-09-2020 18:56:18 20.2 C 26 %
1987 23-09-2020 19:06:18 19.4 C 27 %
1988 23-09-2020 19:16:18 18.6 C 28 %
1989 23-09-2020 19:26:18 18.2 C 29 %
1990 23-09-2020 19:36:17 17.9 C 30 %
1991 23-09-2020 19:46:17 17.7 C 30 %
1992 23-09-2020 19:56:17 17.3 C 30 %
1993 23-09-2020 20:06:18 17 C 31 %
1994 23-09-2020 20:16:17 17 C 31 %
1995 23-09-2020 20:26:17 17.1 C 31 %
1996 23-09-2020 20:36:17 17.2 C 31 %
1997 23-09-2020 20:46:17 17.2 C 31 %
1998 23-09-2020 20:56:17 17.3 C 32 %
1999 23-09-2020 21:06:18 17.5 C 31 %
2000 23-09-2020 21:16:17 17.2 C 32 %
Sensor: Nr:Datum:Temp:Feuchte:
Aussen-T/F 2001 23-09-2020 21:26:17 17.5 C 31 %
2002 23-09-2020 21:36:18 18 C 31 %
2003 23-09-2020 21:46:17 17.7 C 31 %
2004 23-09-2020 21:56:17 17.9 C 31 %
2005 23-09-2020 22:06:17 17.7 C 32 %
2006 23-09-2020 22:16:17 17.7 C 32 %
2007 23-09-2020 22:26:17 17.3 C 32 %
2008 23-09-2020 22:36:18 16.8 C 33 %
2009 23-09-2020 22:46:18 16.7 C 34 %
2010 23-09-2020 22:56:18 17 C 33 %
2011 23-09-2020 23:06:17 17.2 C 33 %
2012 23-09-2020 23:16:17 17.1 C 33 %
2013 23-09-2020 23:26:17 17.5 C 32 %
2014 23-09-2020 23:36:17 17.6 C 32 %
2015 23-09-2020 23:46:18 17.9 C 32 %
2016 23-09-2020 23:56:18 17.8 C 32 %
2017 24-09-2020 00:06:17 17.5 C 32 %
2018 24-09-2020 00:16:17 17.1 C 32 %
2019 24-09-2020 00:26:17 16.8 C 34 %
2020 24-09-2020 00:36:18 17.3 C 33 %
2021 24-09-2020 00:46:17 17.7 C 32 %
2022 24-09-2020 00:56:17 17.8 C 32 %
2023 24-09-2020 01:06:17 17.4 C 32 %
2024 24-09-2020 01:16:17 17.9 C 32 %
2025 24-09-2020 01:26:17 18 C 32 %
Sensor: Nr:Datum:Temp:Feuchte:
Aussen-T/F 2026 24-09-2020 01:36:17 18.5 C 31 %
2027 24-09-2020 01:46:17 18.1 C 32 %
2028 24-09-2020 01:56:17 17.6 C 34 %
2029 24-09-2020 02:06:17 17.2 C 35 %
2030 24-09-2020 02:16:17 16.5 C 39 %
2031 24-09-2020 02:26:17 16.1 C 42 %
2032 24-09-2020 02:36:18 15.9 C 43 %
2033 24-09-2020 02:46:17 15.8 C 43 %
2034 24-09-2020 02:56:17 15.8 C 43 %
2035 24-09-2020 03:06:17 15.8 C 43 %
2036 24-09-2020 03:16:17 15.6 C 43 %
2037 24-09-2020 03:26:17 15.6 C 43 %
2038 24-09-2020 03:36:17 15.5 C 43 %
2039 24-09-2020 03:46:17 15.5 C 43 %
2040 24-09-2020 03:56:17 15.5 C 42 %
2041 24-09-2020 04:06:17 15.7 C 42 %
2042 24-09-2020 04:16:17 15.8 C 42 %
2043 24-09-2020 04:26:17 15.8 C 42 %
2044 24-09-2020 04:36:17 15.8 C 42 %
2045 24-09-2020 04:46:17 15.6 C 42 %
2046 24-09-2020 04:56:17 15.6 C 42 %
2047 24-09-2020 05:06:17 15.6 C 42 %
2048 24-09-2020 05:16:17 15.7 C 42 %
2049 24-09-2020 05:26:17 15.7 C 42 %
2050 24-09-2020 05:36:18 16 C 41 %
Sensor: Nr:Datum:Temp:Feuchte:
Aussen-T/F 2051 24-09-2020 05:46:17 16.1 C 40 %
2052 24-09-2020 05:56:17 15.8 C 40 %
2053 24-09-2020 06:06:18 15.4 C 40 %
2054 24-09-2020 06:16:18 15 C 35 %
2055 24-09-2020 06:26:18 14.2 C 35 %
2056 24-09-2020 06:36:18 13.6 C 35 %
2057 24-09-2020 06:46:17 12.7 C 39 %
2058 24-09-2020 06:56:17 12 C 40 %
2059 24-09-2020 07:06:17 11.8 C 41 %
2060 24-09-2020 07:16:18 11.4 C 42 %
2061 24-09-2020 07:26:18 11.3 C 43 %
2062 24-09-2020 07:36:17 11.2 C 43 %
2063 24-09-2020 07:46:17 11.6 C 43 %
2064 24-09-2020 07:56:17 12.8 C 37 %
2065 24-09-2020 08:06:17 12.6 C 37 %
2066 24-09-2020 08:16:17 12.5 C 37 %
2067 24-09-2020 08:26:17 12.7 C 37 %
2068 24-09-2020 08:36:18 12.3 C 37 %
2069 24-09-2020 08:46:18 12.1 C 38 %
2070 24-09-2020 08:56:18 12.5 C 37 %
2071 24-09-2020 09:06:17 12.4 C 37 %
2072 24-09-2020 09:16:17 12.2 C 38 %
2073 24-09-2020 09:26:17 13.1 C 36 %
2074 24-09-2020 09:36:18 13.2 C 35 %
2075 24-09-2020 09:46:17 13.3 C 35 %
Sensor: Nr:Datum:Temp:Feuchte:
Aussen-T/F 2076 24-09-2020 09:56:17 13.4 C 35 %
2077 24-09-2020 10:06:18 13.4 C 34 %
2078 24-09-2020 10:16:17 13.4 C 34 %
2079 24-09-2020 10:26:17 13.8 C 34 %
2080 24-09-2020 10:36:17 14.1 C 32 %
2081 24-09-2020 10:46:18 14.2 C 32 %
2082 24-09-2020 10:56:18 14.3 C 32 %
2083 24-09-2020 11:06:17 14.2 C 32 %
2084 24-09-2020 11:16:17 14.7 C 31 %
2085 24-09-2020 11:26:17 15.2 C 30 %
2086 24-09-2020 11:36:18 15.5 C 30 %
2087 24-09-2020 11:46:18 16 C 29 %
2088 24-09-2020 11:56:18 16.7 C 29 %
2089 24-09-2020 12:06:17 17 C 28 %
2090 24-09-2020 12:16:17 18.3 C 27 %
2091 24-09-2020 12:26:17 18.3 C 26 %
2092 24-09-2020 12:36:18 18.1 C 26 %
2093 24-09-2020 12:46:17 18.6 C 26 %
2094 24-09-2020 12:56:17 18 C 26 %
2095 24-09-2020 13:06:18 18.3 C 26 %
2096 24-09-2020 13:16:17 18.3 C 26 %
2097 24-09-2020 13:26:17 18.3 C 26 %
2098 24-09-2020 13:36:18 18.9 C 26 %
2099 24-09-2020 13:46:17 19.7 C 25 %
2100 24-09-2020 13:56:17 19.7 C 25 %
Sensor: Nr:Datum:Temp:Feuchte:
Aussen-T/F 2101 24-09-2020 14:06:18 19.8 C 25 %
2102 24-09-2020 14:16:18 20.5 C 23 %
2103 24-09-2020 14:26:18 20.5 C 22 %
2104 24-09-2020 14:36:17 20.6 C 23 %
2105 24-09-2020 14:46:18 20.6 C 23 %
2106 24-09-2020 14:56:18 20.3 C 23 %
2107 24-09-2020 15:06:18 20 C 23 %
2108 24-09-2020 15:16:17 20.7 C 23 %
2109 24-09-2020 15:26:18 20.5 C 23 %
2110 24-09-2020 15:36:17 20.7 C 23 %
2111 24-09-2020 15:46:17 22.1 C 21 %
2112 24-09-2020 15:56:18 21.2 C 21 %
2113 24-09-2020 16:06:18 20.1 C 23 %
2114 24-09-2020 16:16:17 20.1 C 23 %
2115 24-09-2020 16:26:17 20.1 C 23 %
2116 24-09-2020 16:36:17 22.1 C 21 %
2117 24-09-2020 16:46:17 24 C 20 %
2118 24-09-2020 16:56:17 22.8 C 21 %
2119 24-09-2020 17:06:17 20.6 C 23 %
2120 24-09-2020 17:16:17 20 C 23 %
2121 24-09-2020 17:26:17 20.1 C 24 %
2122 24-09-2020 17:36:17 19.9 C 25 %
2123 24-09-2020 17:46:17 19.6 C 25 %
2124 24-09-2020 17:56:17 19.4 C 25 %
2125 24-09-2020 18:06:17 19.1 C 25 %
Sensor: Nr:Datum:Temp:Feuchte:
Aussen-T/F 2126 24-09-2020 18:16:17 19.1 C 26 %
2127 24-09-2020 18:26:18 18.5 C 27 %
2128 24-09-2020 18:36:18 16.9 C 32 %
2129 24-09-2020 18:46:18 17 C 31 %
2130 24-09-2020 18:56:18 16.9 C 32 %
2131 24-09-2020 19:06:17 16.9 C 32 %
2132 24-09-2020 19:16:18 16.8 C 32 %
2133 24-09-2020 19:26:18 16.2 C 33 %
2134 24-09-2020 19:36:18 16.2 C 33 %
2135 24-09-2020 19:46:17 16.3 C 33 %
2136 24-09-2020 19:56:17 16 C 33 %
2137 24-09-2020 20:06:18 16 C 33 %
2138 24-09-2020 20:16:18 15.9 C 34 %
2139 24-09-2020 20:26:18 15.5 C 34 %
2140 24-09-2020 20:36:17 15.4 C 34 %
2141 24-09-2020 20:46:18 15.6 C 34 %
2142 24-09-2020 20:56:18 15.3 C 35 %
2143 24-09-2020 21:06:18 15 C 35 %
2144 24-09-2020 21:16:17 14.8 C 36 %
2145 24-09-2020 21:26:17 14.4 C 36 %
2146 24-09-2020 21:36:17 14.3 C 37 %
2147 24-09-2020 21:46:17 14.4 C 36 %
2148 24-09-2020 21:56:17 14.3 C 37 %
2149 24-09-2020 22:06:18 14.1 C 37 %
2150 24-09-2020 22:16:17 14 C 37 %
Sensor: Nr:Datum:Temp:Feuchte:
Aussen-T/F 2151 24-09-2020 22:26:17 14 C 38 %
2152 24-09-2020 22:36:18 13.9 C 39 %
2153 24-09-2020 22:46:17 13.9 C 39 %
2154 24-09-2020 22:56:17 13.5 C 39 %
2155 24-09-2020 23:06:18 13.6 C 39 %
2156 24-09-2020 23:16:17 13.2 C 40 %
2157 24-09-2020 23:26:17 13.4 C 40 %
2158 24-09-2020 23:36:17 13.3 C 40 %
2159 24-09-2020 23:46:17 13.4 C 40 %
2160 24-09-2020 23:56:17 13.2 C 40 %
2161 25-09-2020 00:06:17 13.3 C 40 %
2162 25-09-2020 00:16:17 13.4 C 40 %
2163 25-09-2020 00:26:17 13.7 C 40 %
2164 25-09-2020 00:36:17 13.8 C 39 %
2165 25-09-2020 00:46:17 13.8 C 39 %
2166 25-09-2020 00:56:17 13.8 C 40 %
2167 25-09-2020 01:06:18 13.9 C 40 %
2168 25-09-2020 01:16:17 13.9 C 39 %
2169 25-09-2020 01:26:17 13.8 C 40 %
2170 25-09-2020 01:36:17 13.7 C 40 %
2171 25-09-2020 01:46:18 13.6 C 40 %
2172 25-09-2020 01:56:18 13.5 C 40 %
2173 25-09-2020 02:06:18 13.7 C 40 %
2174 25-09-2020 02:16:18 14.2 C 37 %
2175 25-09-2020 02:26:18 14.4 C 37 %
Sensor: Nr:Datum:Temp:Feuchte:
Aussen-T/F 2176 25-09-2020 02:36:18 13.2 C 38 %
2177 25-09-2020 02:46:18 12.1 C 41 %
2178 25-09-2020 02:56:18 12.1 C 42 %
2179 25-09-2020 03:06:18 11.9 C 43 %
2180 25-09-2020 03:16:17 11.7 C 45 %
2181 25-09-2020 03:26:17 11.7 C 42 %
2182 25-09-2020 03:36:18 11.4 C 43 %
2183 25-09-2020 03:46:17 11.2 C 42 %
2184 25-09-2020 03:56:17 11.2 C 42 %
2185 25-09-2020 04:06:18 11.1 C 42 %
2186 25-09-2020 04:16:18 11 C 45 %
2187 25-09-2020 04:26:18 10.8 C 46 %
2188 25-09-2020 04:36:18 10.8 C 45 %
2189 25-09-2020 04:46:17 10.8 C 43 %
2190 25-09-2020 04:56:17 10.4 C 45 %
2191 25-09-2020 05:06:17 10.4 C 45 %
2192 25-09-2020 05:16:17 10.2 C 45 %
2193 25-09-2020 05:26:17 10.6 C 44 %
2194 25-09-2020 05:36:17 10.8 C 43 %
2195 25-09-2020 05:46:18 10.7 C 43 %
2196 25-09-2020 05:56:18 11 C 41 %
2197 25-09-2020 06:06:17 10.7 C 43 %
2198 25-09-2020 06:16:18 10.6 C 42 %
2199 25-09-2020 06:26:18 10.4 C 41 %
2200 25-09-2020 06:36:18 9.8 C 43 %
Sensor: Nr:Datum:Temp:Feuchte:
Aussen-T/F 2201 25-09-2020 06:46:18 9.9 C 43 %
2202 25-09-2020 06:56:18 9.8 C 42 %
2203 25-09-2020 07:06:18 10.1 C 40 %
2204 25-09-2020 07:16:17 9.7 C 41 %
2205 25-09-2020 07:26:17 9 C 43 %
2206 25-09-2020 07:36:17 9.2 C 44 %
2207 25-09-2020 07:46:18 9.3 C 44 %
2208 25-09-2020 07:56:18 9.3 C 42 %
2209 25-09-2020 08:06:17 9.3 C 42 %
2210 25-09-2020 08:16:17 9.1 C 42 %
2211 25-09-2020 08:26:17 9.3 C 40 %
2212 25-09-2020 08:36:18 9.7 C 40 %
2213 25-09-2020 08:46:18 9.9 C 39 %
2214 25-09-2020 08:56:18 10 C 39 %
2215 25-09-2020 09:06:17 10.2 C 38 %
2216 25-09-2020 09:16:17 10.5 C 38 %
2217 25-09-2020 09:26:18 10.6 C 37 %
2218 25-09-2020 09:36:18 11 C 36 %
2219 25-09-2020 09:46:17 11.1 C 36 %
2220 25-09-2020 09:56:17 11.3 C 36 %
2221 25-09-2020 10:06:17 11.6 C 35 %
2222 25-09-2020 10:16:17 11.7 C 35 %
2223 25-09-2020 10:26:17 11.8 C 36 %
2224 25-09-2020 10:36:18 12.1 C 35 %
2225 25-09-2020 10:46:17 12.4 C 34 %
Sensor: Nr:Datum:Temp:Feuchte:
Aussen-T/F 2226 25-09-2020 10:56:17 13.2 C 33 %
2227 25-09-2020 11:06:17 12.9 C 34 %
2228 25-09-2020 11:16:17 13.1 C 32 %
2229 25-09-2020 11:26:17 12.5 C 33 %
2230 25-09-2020 11:36:18 12.8 C 33 %
2231 25-09-2020 11:46:18 13.4 C 32 %
2232 25-09-2020 11:56:18 13.5 C 31 %
2233 25-09-2020 12:06:18 13.5 C 31 %
2234 25-09-2020 12:16:18 13.7 C 31 %
2235 25-09-2020 12:26:18 14.3 C 30 %
2236 25-09-2020 12:36:18 14.3 C 30 %
2237 25-09-2020 12:46:18 14.6 C 29 %
2238 25-09-2020 12:56:18 14.3 C 30 %
2239 25-09-2020 13:06:17 13.7 C 30 %
2240 25-09-2020 13:16:17 14 C 30 %
2241 25-09-2020 13:26:17 14.6 C 30 %
2242 25-09-2020 13:36:18 14.5 C 30 %
2243 25-09-2020 13:46:17 13.9 C 30 %
2244 25-09-2020 13:56:17 12 C 33 %
2245 25-09-2020 14:06:17 12.9 C 36 %
2246 25-09-2020 14:16:18 13.4 C 34 %
2247 25-09-2020 14:26:18 13.4 C 33 %
2248 25-09-2020 14:36:17 13.9 C 33 %
2249 25-09-2020 14:46:17 14.1 C 32 %
2250 25-09-2020 14:56:17 14.2 C 32 %
Sensor: Nr:Datum:Temp:Feuchte:
Aussen-T/F 2251 25-09-2020 15:06:17 13.1 C 33 %
2252 25-09-2020 15:16:18 14.2 C 33 %
2253 25-09-2020 15:26:18 14.7 C 32 %
2254 25-09-2020 15:36:18 13.5 C 33 %
2255 25-09-2020 15:46:17 13.7 C 35 %
2256 25-09-2020 15:56:17 16 C 31 %
2257 25-09-2020 16:06:17 16.8 C 30 %
2258 25-09-2020 16:16:18 16.1 C 30 %
2259 25-09-2020 16:26:18 15.1 C 30 %
2260 25-09-2020 16:36:18 17.7 C 29 %
2261 25-09-2020 16:46:18 18.8 C 26 %
2262 25-09-2020 16:56:18 16.2 C 27 %
2263 25-09-2020 17:06:18 15.6 C 28 %
2264 25-09-2020 17:16:17 15.2 C 29 %
2265 25-09-2020 17:26:17 14.8 C 30 %
2266 25-09-2020 17:36:17 14.3 C 30 %
2267 25-09-2020 17:46:17 14.1 C 30 %
2268 25-09-2020 17:56:17 14.2 C 30 %
2269 25-09-2020 18:06:18 13.5 C 31 %
2270 25-09-2020 18:16:17 12.8 C 32 %
2271 25-09-2020 18:26:17 12.5 C 33 %
2272 25-09-2020 18:36:18 11.5 C 36 %
2273 25-09-2020 18:46:18 11.7 C 36 %
2274 25-09-2020 18:56:18 11.8 C 36 %
2275 25-09-2020 19:06:18 12 C 35 %
Sensor: Nr:Datum:Temp:Feuchte:
Aussen-T/F 2276 25-09-2020 19:16:18 11.8 C 36 %
2277 25-09-2020 19:26:18 11.8 C 35 %
2278 25-09-2020 19:36:17 11.8 C 35 %
2279 25-09-2020 19:46:17 12 C 35 %
2280 25-09-2020 19:56:18 11.8 C 35 %
2281 25-09-2020 20:06:18 11.8 C 35 %
2282 25-09-2020 20:16:17 11.7 C 36 %
2283 25-09-2020 20:26:18 11.7 C 36 %
2284 25-09-2020 20:36:17 11.6 C 36 %
2285 25-09-2020 20:46:17 11.7 C 35 %
2286 25-09-2020 20:56:18 11.6 C 35 %
2287 25-09-2020 21:06:18 11.5 C 35 %
2288 25-09-2020 21:16:18 11.5 C 35 %
2289 25-09-2020 21:26:18 11.5 C 35 %
2290 25-09-2020 21:36:18 11.5 C 35 %
2291 25-09-2020 21:46:17 11.4 C 35 %
2292 25-09-2020 21:56:17 11.4 C 35 %
2293 25-09-2020 22:06:17 11.4 C 35 %
2294 25-09-2020 22:16:17 11.4 C 35 %
2295 25-09-2020 22:26:17 11.3 C 35 %
2296 25-09-2020 22:36:18 11.3 C 35 %
2297 25-09-2020 22:46:17 11.3 C 35 %
2298 25-09-2020 22:56:17 10.7 C 36 %
2299 25-09-2020 23:06:17 11.2 C 35 %
2300 25-09-2020 23:16:17 11 C 35 %
Sensor: Nr:Datum:Temp:Feuchte:
Aussen-T/F 2301 25-09-2020 23:26:17 11 C 35 %
2302 25-09-2020 23:36:18 11 C 35 %
2303 25-09-2020 23:46:18 11.2 C 35 %
2304 25-09-2020 23:56:18 10.3 C 37 %
2305 26-09-2020 00:06:18 10.2 C 37 %
2306 26-09-2020 00:16:17 10.1 C 37 %
2307 26-09-2020 00:26:17 10.2 C 37 %
2308 26-09-2020 00:36:18 10.5 C 36 %
2309 26-09-2020 00:46:17 10.4 C 36 %
2310 26-09-2020 00:56:17 10.5 C 36 %
2311 26-09-2020 01:06:17 10.5 C 36 %
2312 26-09-2020 01:16:17 10.4 C 36 %
2313 26-09-2020 01:26:17 10.4 C 36 %
2314 26-09-2020 01:36:17 10.4 C 36 %
2315 26-09-2020 01:46:18 10.5 C 36 %
2316 26-09-2020 01:56:18 10.5 C 36 %
2317 26-09-2020 02:06:18 10.4 C 36 %
2318 26-09-2020 02:16:17 10.2 C 36 %
2319 26-09-2020 02:26:17 10.1 C 37 %
2320 26-09-2020 02:36:17 10.4 C 36 %
2321 26-09-2020 02:46:18 10 C 37 %
2322 26-09-2020 02:56:18 9.8 C 38 %
2323 26-09-2020 03:06:18 10 C 37 %
2324 26-09-2020 03:16:18 9.8 C 37 %
2325 26-09-2020 03:26:18 9.8 C 37 %
Sensor: Nr:Datum:Temp:Feuchte:
Aussen-T/F 2326 26-09-2020 03:36:17 9.7 C 37 %
2327 26-09-2020 03:46:18 9.6 C 37 %
2328 26-09-2020 03:56:18 9.6 C 37 %
2329 26-09-2020 04:06:18 9.5 C 37 %
2330 26-09-2020 04:16:17 9.6 C 37 %
2331 26-09-2020 04:26:17 9.6 C 37 %
2332 26-09-2020 04:36:17 9.6 C 37 %
2333 26-09-2020 04:46:17 9.6 C 37 %
2334 26-09-2020 04:56:17 9.6 C 36 %
2335 26-09-2020 05:06:17 9.6 C 36 %
2336 26-09-2020 05:16:17 9.5 C 36 %
2337 26-09-2020 05:26:17 9.5 C 36 %
2338 26-09-2020 05:36:17 9.5 C 36 %
2339 26-09-2020 05:46:17 9.5 C 36 %
2340 26-09-2020 05:56:17 9.5 C 36 %
2341 26-09-2020 06:06:18 9.5 C 36 %
2342 26-09-2020 06:16:17 9.3 C 37 %
2343 26-09-2020 06:26:17 9.3 C 37 %
2344 26-09-2020 06:36:17 9.3 C 37 %
2345 26-09-2020 06:46:17 9.2 C 37 %
2346 26-09-2020 06:56:17 9.2 C 38 %
2347 26-09-2020 07:06:18 9.1 C 38 %
2348 26-09-2020 07:16:17 9.1 C 38 %
2349 26-09-2020 07:26:17 9 C 39 %
2350 26-09-2020 07:36:18 8.6 C 41 %
Sensor: Nr:Datum:Temp:Feuchte:
Aussen-T/F 2351 26-09-2020 07:46:18 8.7 C 41 %
2352 26-09-2020 07:56:18 8.8 C 41 %
2353 26-09-2020 08:06:18 8.8 C 42 %
2354 26-09-2020 08:16:17 8.6 C 44 %
2355 26-09-2020 08:26:17 8.6 C 45 %
2356 26-09-2020 08:36:18 8.6 C 45 %
2357 26-09-2020 08:46:17 8.8 C 45 %
2358 26-09-2020 08:56:17 8.9 C 44 %
2359 26-09-2020 09:06:18 9.1 C 43 %
2360 26-09-2020 09:16:17 9.4 C 43 %
2361 26-09-2020 09:26:17 9.8 C 42 %
2362 26-09-2020 09:36:17 10.1 C 41 %
2363 26-09-2020 09:46:17 10.1 C 40 %
2364 26-09-2020 09:56:17 10.5 C 39 %
2365 26-09-2020 10:06:18 10.7 C 39 %
2366 26-09-2020 10:16:18 10.7 C 40 %
2367 26-09-2020 10:26:18 10.5 C 41 %
2368 26-09-2020 10:36:18 10.6 C 40 %
2369 26-09-2020 10:46:17 11 C 39 %
2370 26-09-2020 10:56:17 11.1 C 38 %
2371 26-09-2020 11:06:17 10.7 C 41 %
2372 26-09-2020 11:16:17 11 C 41 %
2373 26-09-2020 11:26:17 11.1 C 39 %
2374 26-09-2020 11:36:18 11.5 C 38 %
2375 26-09-2020 11:46:17 11.8 C 37 %
Sensor: Nr:Datum:Temp:Feuchte:
Aussen-T/F 2376 26-09-2020 11:56:18 11.9 C 37 %
2377 26-09-2020 12:06:17 11.5 C 38 %
2378 26-09-2020 12:16:17 12.3 C 36 %
2379 26-09-2020 12:26:18 12.1 C 36 %
2380 26-09-2020 12:36:17 11.5 C 37 %
2381 26-09-2020 12:46:17 10.8 C 40 %
2382 26-09-2020 12:56:17 10.5 C 43 %
2383 26-09-2020 13:06:17 10.4 C 43 %
2384 26-09-2020 13:16:17 10.5 C 44 %
2385 26-09-2020 13:26:17 10.8 C 44 %
2386 26-09-2020 13:36:17 11.4 C 41 %
2387 26-09-2020 13:46:18 11.3 C 41 %
2388 26-09-2020 13:56:18 11.2 C 41 %
2389 26-09-2020 14:06:17 11.7 C 40 %
2390 26-09-2020 14:16:17 11.7 C 39 %
2391 26-09-2020 14:26:17 11.6 C 39 %
2392 26-09-2020 14:36:18 11 C 41 %
2393 26-09-2020 14:46:17 10.9 C 43 %
2394 26-09-2020 14:56:17 11.2 C 41 %
2395 26-09-2020 15:06:17 11 C 41 %
2396 26-09-2020 15:17:17 10.9 C 43 %
2397 26-09-2020 15:26:17 10.7 C 42 %
2398 26-09-2020 15:36:18 10.5 C 42 %
2399 26-09-2020 15:46:17 10.5 C 43 %
2400 26-09-2020 15:56:17 10.4 C 43 %
Sensor: Nr:Datum:Temp:Feuchte:
Aussen-T/F 2401 26-09-2020 16:06:18 10.4 C 42 %
2402 26-09-2020 16:16:17 10.4 C 41 %
2403 26-09-2020 16:26:17 10.7 C 41 %
2404 26-09-2020 16:36:18 10.8 C 40 %
2405 26-09-2020 16:46:17 10.5 C 41 %
2406 26-09-2020 16:56:17 10.5 C 41 %
2407 26-09-2020 17:06:18 10.7 C 41 %
2408 26-09-2020 17:16:17 10.8 C 41 %
2409 26-09-2020 17:26:17 10.7 C 41 %
2410 26-09-2020 17:36:18 10.7 C 41 %
2411 26-09-2020 17:47:17 10.3 C 42 %
2412 26-09-2020 17:56:17 10.2 C 44 %
2413 26-09-2020 18:06:17 10.2 C 44 %
2414 26-09-2020 18:16:18 10.2 C 44 %
2415 26-09-2020 18:26:18 10.1 C 44 %
2416 26-09-2020 18:36:18 10.2 C 44 %
2417 26-09-2020 18:46:17 10.3 C 42 %
2418 26-09-2020 18:56:17 10.3 C 43 %
2419 26-09-2020 19:06:18 10.4 C 43 %
2420 26-09-2020 19:16:18 10.4 C 42 %
2421 26-09-2020 19:26:18 10.3 C 43 %
2422 26-09-2020 19:36:18 10 C 43 %
2423 26-09-2020 19:46:17 9.9 C 45 %
2424 26-09-2020 19:56:17 9.8 C 46 %
2425 26-09-2020 20:07:17 9.7 C 46 %
Sensor: Nr:Datum:Temp:Feuchte:
Aussen-T/F 2426 26-09-2020 20:17:17 9.7 C 46 %
2427 26-09-2020 20:27:17 9.7 C 46 %
2428 26-09-2020 20:37:17 9.6 C 46 %
2429 26-09-2020 20:46:17 9.6 C 46 %
2430 26-09-2020 20:56:18 9.6 C 46 %
2431 26-09-2020 21:07:17 9.7 C 46 %
2432 26-09-2020 21:17:17 9.7 C 46 %
2433 26-09-2020 21:27:17 9.6 C 46 %
2434 26-09-2020 21:37:17 9.6 C 46 %
2435 26-09-2020 21:47:17 9.6 C 46 %
2436 26-09-2020 21:57:17 9.6 C 46 %
2437 26-09-2020 22:06:18 9.7 C 46 %
2438 26-09-2020 22:16:18 9.6 C 46 %
2439 26-09-2020 22:26:18 9.4 C 46 %
2440 26-09-2020 22:36:18 9.3 C 46 %
2441 26-09-2020 22:46:17 9.3 C 46 %
2442 26-09-2020 22:56:18 9.4 C 45 %
2443 26-09-2020 23:07:17 9.4 C 45 %
2444 26-09-2020 23:17:17 9.4 C 45 %
2445 26-09-2020 23:27:17 9.4 C 45 %
2446 26-09-2020 23:37:17 9.3 C 45 %
2447 26-09-2020 23:47:17 9.2 C 45 %
2448 26-09-2020 23:57:17 9 C 45 %
2449 27-09-2020 00:06:18 9 C 46 %
2450 27-09-2020 00:17:17 8.9 C 46 %
Sensor: Nr:Datum:Temp:Feuchte:
Aussen-T/F 2451 27-09-2020 00:27:17 8.7 C 46 %
2452 27-09-2020 00:37:17 8.8 C 46 %
2453 27-09-2020 00:47:17 8.6 C 46 %
2454 27-09-2020 00:57:17 8.5 C 46 %
2455 27-09-2020 01:07:18 8.5 C 46 %
2456 27-09-2020 01:17:16 8.4 C 45 %
2457 27-09-2020 01:27:16 8.4 C 46 %
2458 27-09-2020 01:37:17 8.4 C 45 %
2459 27-09-2020 01:47:17 8.4 C 46 %
2460 27-09-2020 01:57:17 8.4 C 46 %
2461 27-09-2020 02:07:18 8.5 C 45 %
2462 27-09-2020 02:17:17 8.6 C 45 %
2463 27-09-2020 02:27:17 8.9 C 45 %
2464 27-09-2020 02:37:17 8.6 C 46 %
2465 27-09-2020 02:47:18 8.7 C 46 %
2466 27-09-2020 02:57:18 8.8 C 46 %
2467 27-09-2020 03:07:17 8.8 C 46 %
2468 27-09-2020 03:17:17 8.9 C 46 %
2469 27-09-2020 03:27:17 8.9 C 46 %
2470 27-09-2020 03:37:18 9 C 46 %
2471 27-09-2020 03:47:17 9 C 46 %
2472 27-09-2020 03:57:17 9 C 46 %
2473 27-09-2020 04:07:17 9.1 C 46 %
2474 27-09-2020 04:17:17 9.1 C 46 %
2475 27-09-2020 04:27:17 9.1 C 46 %
Sensor: Nr:Datum:Temp:Feuchte:
Aussen-T/F 2476 27-09-2020 04:37:17 9.1 C 46 %
2477 27-09-2020 04:47:17 9.1 C 46 %
2478 27-09-2020 04:57:17 9.1 C 45 %
2479 27-09-2020 05:07:17 9.1 C 46 %
2480 27-09-2020 05:17:17 9.1 C 46 %
2481 27-09-2020 05:27:17 9.1 C 46 %
2482 27-09-2020 05:37:17 9 C 46 %
2483 27-09-2020 05:47:17 9 C 45 %
2484 27-09-2020 05:57:17 9.1 C 45 %
2485 27-09-2020 06:07:17 9.1 C 45 %
2486 27-09-2020 06:17:17 9 C 45 %
2487 27-09-2020 06:27:17 9.1 C 45 %
2488 27-09-2020 06:37:17 9.1 C 45 %
2489 27-09-2020 06:47:17 9.1 C 45 %
2490 27-09-2020 06:57:17 9.1 C 45 %
2491 27-09-2020 07:07:17 9.1 C 45 %
2492 27-09-2020 07:17:17 9.1 C 45 %
2493 27-09-2020 07:27:18 9.1 C 45 %
2494 27-09-2020 07:37:18 9 C 45 %
2495 27-09-2020 07:47:17 9 C 45 %
2496 27-09-2020 07:57:18 9.1 C 45 %
2497 27-09-2020 08:07:17 9.2 C 45 %
2498 27-09-2020 08:17:17 9.2 C 45 %
2499 27-09-2020 08:27:17 9.4 C 45 %
2500 27-09-2020 08:37:17 9.6 C 45 %
Sensor: Nr:Datum:Temp:Feuchte:
Aussen-T/F 2501 27-09-2020 08:47:17 10 C 44 %
2502 27-09-2020 08:57:17 10.3 C 44 %
2503 27-09-2020 09:07:18 10.4 C 42 %
2504 27-09-2020 09:17:17 10.5 C 43 %
2505 27-09-2020 09:27:17 10.9 C 42 %
2506 27-09-2020 09:37:18 11.1 C 41 %
2507 27-09-2020 09:47:17 11.2 C 40 %
2508 27-09-2020 09:57:17 11.5 C 40 %
2509 27-09-2020 10:07:17 11.6 C 40 %
2510 27-09-2020 10:17:17 12.1 C 39 %
2511 27-09-2020 10:27:17 12.2 C 38 %
2512 27-09-2020 10:37:18 12.8 C 37 %
2513 27-09-2020 10:47:17 13 C 37 %
2514 27-09-2020 10:57:17 12.6 C 37 %
2515 27-09-2020 11:07:18 13.2 C 37 %
2516 27-09-2020 11:17:17 13 C 36 %
2517 27-09-2020 11:27:17 13.4 C 35 %
2518 27-09-2020 11:37:17 13.2 C 36 %
2519 27-09-2020 11:47:17 13.2 C 36 %
2520 27-09-2020 11:57:17 13.1 C 35 %
2521 27-09-2020 12:07:17 13.9 C 35 %
2522 27-09-2020 12:17:17 13.7 C 35 %
2523 27-09-2020 12:27:17 13.5 C 35 %
2524 27-09-2020 12:37:17 12.1 C 38 %
2525 27-09-2020 12:47:17 12.8 C 38 %
Sensor: Nr:Datum:Temp:Feuchte:
Aussen-T/F 2526 27-09-2020 12:57:17 13 C 36 %
2527 27-09-2020 13:07:18 14.3 C 35 %
2528 27-09-2020 13:17:18 14.4 C 34 %
2529 27-09-2020 13:27:18 14.3 C 33 %
2530 27-09-2020 13:37:17 14.8 C 34 %
2531 27-09-2020 13:47:18 14 C 33 %
2532 27-09-2020 13:57:18 14.5 C 33 %
2533 27-09-2020 14:07:18 15.4 C 32 %
2534 27-09-2020 14:17:17 14.3 C 32 %
2535 27-09-2020 14:27:17 15.2 C 32 %
2536 27-09-2020 14:37:17 14.9 C 33 %
2537 27-09-2020 14:47:17 14.7 C 32 %
2538 27-09-2020 14:57:17 14.5 C 32 %
2539 27-09-2020 15:07:17 14.3 C 32 %
2540 27-09-2020 15:17:17 13.5 C 34 %
2541 27-09-2020 15:27:17 13.1 C 33 %
2542 27-09-2020 15:37:17 13.1 C 34 %
2543 27-09-2020 15:47:17 13.2 C 34 %
2544 27-09-2020 15:57:17 13.4 C 34 %
2545 27-09-2020 16:07:18 13.4 C 34 %
2546 27-09-2020 16:17:17 13.5 C 35 %
2547 27-09-2020 16:27:17 13.2 C 34 %
2548 27-09-2020 16:37:17 13.1 C 35 %
2549 27-09-2020 16:47:17 13 C 35 %
2550 27-09-2020 16:57:17 13 C 35 %
Sensor: Nr:Datum:Temp:Feuchte:
Aussen-T/F 2551 27-09-2020 17:07:17 13 C 35 %
2552 27-09-2020 17:17:17 12.9 C 38 %
2553 27-09-2020 17:27:17 12.6 C 39 %
2554 27-09-2020 17:37:18 12.4 C 40 %
2555 27-09-2020 17:47:17 12.2 C 40 %
2556 27-09-2020 17:57:17 11.9 C 40 %
2557 27-09-2020 18:07:17 12 C 40 %
2558 27-09-2020 18:17:17 11.9 C 41 %
2559 27-09-2020 18:27:17 11.7 C 41 %
2560 27-09-2020 18:37:17 11.5 C 40 %
2561 27-09-2020 18:47:17 11.3 C 40 %
2562 27-09-2020 18:57:17 11.2 C 40 %
2563 27-09-2020 19:07:17 11.1 C 40 %
2564 27-09-2020 19:17:17 11 C 41 %
2565 27-09-2020 19:27:17 10.9 C 41 %
2566 27-09-2020 19:37:18 10.8 C 42 %
2567 27-09-2020 19:47:17 10.8 C 42 %
2568 27-09-2020 19:57:17 10.7 C 42 %
2569 27-09-2020 20:07:17 10.6 C 42 %
2570 27-09-2020 20:17:17 10.6 C 43 %
2571 27-09-2020 20:27:17 10.6 C 42 %
2572 27-09-2020 20:37:17 10.5 C 42 %
2573 27-09-2020 20:47:17 10.5 C 42 %
2574 27-09-2020 20:57:17 10.5 C 43 %
2575 27-09-2020 21:07:18 10.4 C 44 %
Sensor: Nr:Datum:Temp:Feuchte:
Aussen-T/F 2576 27-09-2020 21:17:17 10.4 C 43 %
2577 27-09-2020 21:27:17 10.4 C 43 %
2578 27-09-2020 21:37:18 10.4 C 43 %
2579 27-09-2020 21:47:17 10.4 C 43 %
2580 27-09-2020 21:57:17 10.4 C 43 %
2581 27-09-2020 22:07:18 10.4 C 43 %
2582 27-09-2020 22:17:17 10.4 C 44 %
2583 27-09-2020 22:27:17 10.3 C 44 %
2584 27-09-2020 22:37:18 10.3 C 44 %
2585 27-09-2020 22:47:18 10.2 C 43 %
2586 27-09-2020 22:57:18 10.2 C 43 %
2587 27-09-2020 23:07:17 10.2 C 43 %
2588 27-09-2020 23:17:18 10.2 C 43 %
2589 27-09-2020 23:27:18 10.2 C 43 %
2590 27-09-2020 23:37:17 10.2 C 43 %
2591 27-09-2020 23:47:18 10.2 C 43 %
2592 27-09-2020 23:57:18 10.2 C 43 %
2593 28-09-2020 00:07:17 10.2 C 43 %
2594 28-09-2020 00:17:18 10.2 C 43 %
2595 28-09-2020 00:27:18 10.1 C 44 %
2596 28-09-2020 00:37:17 10.1 C 44 %
2597 28-09-2020 00:47:17 10.2 C 44 %
2598 28-09-2020 00:57:17 10.3 C 43 %
2599 28-09-2020 01:07:18 10.2 C 43 %
2600 28-09-2020 01:17:17 10.2 C 43 %
Sensor: Nr:Datum:Temp:Feuchte:
Aussen-T/F 2601 28-09-2020 01:27:17 10.2 C 43 %
2602 28-09-2020 01:37:18 10.2 C 44 %
2603 28-09-2020 01:47:17 10.2 C 43 %
2604 28-09-2020 01:57:17 10.2 C 43 %
2605 28-09-2020 02:07:18 10.2 C 44 %
2606 28-09-2020 02:17:18 10.2 C 43 %
2607 28-09-2020 02:27:18 10.1 C 43 %
2608 28-09-2020 02:37:17 10 C 43 %
2609 28-09-2020 02:47:17 9.9 C 45 %
2610 28-09-2020 02:57:17 9.9 C 45 %
2611 28-09-2020 03:07:17 9.8 C 45 %
2612 28-09-2020 03:17:18 9.7 C 45 %
2613 28-09-2020 03:27:18 9.7 C 45 %
2614 28-09-2020 03:37:18 9.7 C 46 %
2615 28-09-2020 03:47:17 9.8 C 46 %
2616 28-09-2020 03:57:17 9.9 C 45 %
2617 28-09-2020 04:07:17 9.9 C 45 %
2618 28-09-2020 04:17:17 9.9 C 44 %
2619 28-09-2020 04:27:17 9.8 C 45 %
2620 28-09-2020 04:37:17 9.8 C 45 %
2621 28-09-2020 04:47:17 9.8 C 45 %
2622 28-09-2020 04:57:17 9.8 C 45 %
2623 28-09-2020 05:07:17 9.8 C 45 %
2624 28-09-2020 05:17:17 9.8 C 45 %
2625 28-09-2020 05:27:17 9.8 C 43 %
Sensor: Nr:Datum:Temp:Feuchte:
Aussen-T/F 2626 28-09-2020 05:37:18 9.8 C 44 %
2627 28-09-2020 05:47:17 9.8 C 45 %
2628 28-09-2020 05:57:17 9.7 C 45 %
2629 28-09-2020 06:07:17 9.8 C 45 %
2630 28-09-2020 06:17:18 9.8 C 45 %
2631 28-09-2020 06:27:18 9.8 C 44 %
2632 28-09-2020 06:37:18 10.1 C 41 %
2633 28-09-2020 06:47:18 9.9 C 42 %
2634 28-09-2020 06:57:18 9.9 C 43 %
2635 28-09-2020 07:07:17 10 C 41 %
2636 28-09-2020 07:17:17 10 C 41 %
2637 28-09-2020 07:27:17 10 C 41 %
2638 28-09-2020 07:37:18 9.9 C 42 %
2639 28-09-2020 07:47:17 9.9 C 43 %
2640 28-09-2020 07:57:17 9.8 C 43 %
2641 28-09-2020 08:07:18 10 C 41 %
2642 28-09-2020 08:17:17 10 C 42 %
2643 28-09-2020 08:27:17 10.1 C 42 %
2644 28-09-2020 08:37:17 10.3 C 42 %
2645 28-09-2020 08:47:17 10.3 C 42 %
2646 28-09-2020 08:57:17 10.4 C 41 %
2647 28-09-2020 09:07:17 10.6 C 39 %
2648 28-09-2020 09:17:17 11 C 38 %
2649 28-09-2020 09:27:18 10.9 C 39 %
2650 28-09-2020 09:37:17 10.8 C 39 %
Sensor: Nr:Datum:Temp:Feuchte:
Aussen-T/F 2651 28-09-2020 09:47:17 11.1 C 38 %
2652 28-09-2020 09:57:17 11.5 C 37 %
2653 28-09-2020 10:07:18 12.2 C 36 %
2654 28-09-2020 10:17:17 12.4 C 36 %
2655 28-09-2020 10:27:17 12.3 C 35 %
2656 28-09-2020 10:37:17 12.6 C 35 %
2657 28-09-2020 10:47:18 12.9 C 35 %
2658 28-09-2020 10:57:18 13.2 C 34 %
2659 28-09-2020 11:07:18 13.7 C 34 %
2660 28-09-2020 11:17:17 14 C 33 %
2661 28-09-2020 11:27:17 13.7 C 34 %
2662 28-09-2020 11:37:17 14.2 C 33 %
2663 28-09-2020 11:47:17 14.4 C 32 %
2664 28-09-2020 11:57:17 14.5 C 32 %
2665 28-09-2020 12:07:17 14.9 C 32 %
2666 28-09-2020 12:17:17 14.3 C 32 %
2667 28-09-2020 12:27:17 14.2 C 32 %
2668 28-09-2020 12:37:17 14.5 C 32 %
2669 28-09-2020 12:47:17 14.7 C 31 %
2670 28-09-2020 12:57:17 14.7 C 31 %
2671 28-09-2020 13:07:18 14.3 C 32 %
2672 28-09-2020 13:17:17 14.3 C 31 %
2673 28-09-2020 13:27:17 13.3 C 33 %
2674 28-09-2020 13:37:18 13 C 34 %
2675 28-09-2020 13:47:17 13 C 35 %
Sensor: Nr:Datum:Temp:Feuchte:
Aussen-T/F 2676 28-09-2020 13:57:17 13.4 C 35 %
2677 28-09-2020 14:07:17 14.2 C 33 %
2678 28-09-2020 14:17:17 14.6 C 33 %
2679 28-09-2020 14:27:17 15.3 C 32 %
2680 28-09-2020 14:37:17 15.7 C 31 %
2681 28-09-2020 14:47:17 14.9 C 32 %
2682 28-09-2020 14:57:17 14.3 C 32 %
2683 28-09-2020 15:07:18 14.2 C 32 %
2684 28-09-2020 15:17:17 14.6 C 32 %
2685 28-09-2020 15:27:17 14.8 C 31 %
2686 28-09-2020 15:37:18 14.8 C 31 %
2687 28-09-2020 15:47:18 14.7 C 31 %
2688 28-09-2020 15:57:18 14.6 C 31 %
2689 28-09-2020 16:07:18 14.2 C 31 %
2690 28-09-2020 16:17:17 14.2 C 31 %
2691 28-09-2020 16:27:17 14.2 C 32 %
2692 28-09-2020 16:37:17 13.9 C 32 %
2693 28-09-2020 16:47:17 13.7 C 33 %
2694 28-09-2020 16:57:17 14 C 32 %
2695 28-09-2020 17:07:18 13.8 C 32 %
2696 28-09-2020 17:17:17 13.8 C 33 %
2697 28-09-2020 17:27:17 13.5 C 32 %
2698 28-09-2020 17:37:18 13.5 C 33 %
2699 28-09-2020 17:47:17 13.5 C 33 %
2700 28-09-2020 17:57:17 13.4 C 33 %
Sensor: Nr:Datum:Temp:Feuchte:
Aussen-T/F 2701 28-09-2020 18:07:18 13.4 C 34 %
2702 28-09-2020 18:17:17 13.2 C 34 %
2703 28-09-2020 18:27:17 13 C 34 %
2704 28-09-2020 18:37:18 12.7 C 35 %
2705 28-09-2020 18:47:18 12.5 C 37 %
2706 28-09-2020 18:57:18 12.3 C 37 %
2707 28-09-2020 19:07:17 11.8 C 38 %
2708 28-09-2020 19:17:17 11.9 C 38 %
2709 28-09-2020 19:27:17 12 C 37 %
2710 28-09-2020 19:37:17 11.9 C 38 %
2711 28-09-2020 19:47:17 12.1 C 36 %
2712 28-09-2020 19:57:17 12 C 37 %
2713 28-09-2020 20:07:17 11.3 C 39 %
2714 28-09-2020 20:17:17 11.7 C 38 %
2715 28-09-2020 20:27:17 11.6 C 38 %
2716 28-09-2020 20:37:17 11.4 C 39 %
2717 28-09-2020 20:47:17 10.9 C 40 %
2718 28-09-2020 20:57:18 10.3 C 41 %
2719 28-09-2020 21:07:18 10.2 C 41 %
2720 28-09-2020 21:17:17 10 C 42 %
2721 28-09-2020 21:27:17 10.2 C 42 %
2722 28-09-2020 21:37:18 10.2 C 42 %
2723 28-09-2020 21:47:17 10.4 C 42 %
2724 28-09-2020 21:57:17 10.4 C 42 %
2725 28-09-2020 22:07:17 10.6 C 42 %
Sensor: Nr:Datum:Temp:Feuchte:
Aussen-T/F 2726 28-09-2020 22:17:17 10.7 C 42 %
2727 28-09-2020 22:27:17 10.7 C 42 %
2728 28-09-2020 22:37:18 10.8 C 42 %
2729 28-09-2020 22:47:18 10.8 C 42 %
2730 28-09-2020 22:57:18 10.8 C 42 %
2731 28-09-2020 23:07:17 10.9 C 42 %
2732 28-09-2020 23:17:17 11 C 41 %
2733 28-09-2020 23:27:17 11 C 41 %
2734 28-09-2020 23:37:18 11 C 41 %
2735 28-09-2020 23:47:17 11 C 41 %
2736 28-09-2020 23:57:17 11 C 41 %
2737 29-09-2020 00:07:17 11 C 41 %
2738 29-09-2020 00:17:17 10.8 C 42 %
2739 29-09-2020 00:27:17 10.8 C 42 %
2740 29-09-2020 00:37:18 10.8 C 42 %
2741 29-09-2020 00:47:17 11 C 41 %
2742 29-09-2020 00:57:17 11 C 41 %
2743 29-09-2020 01:07:18 11 C 41 %
2744 29-09-2020 01:17:17 11 C 41 %
2745 29-09-2020 01:27:17 11 C 41 %
2746 29-09-2020 01:37:18 11 C 41 %
2747 29-09-2020 01:47:17 11 C 41 %
2748 29-09-2020 01:57:18 11 C 40 %
2749 29-09-2020 02:07:18 10.9 C 42 %
2750 29-09-2020 02:17:18 11 C 41 %
Sensor: Nr:Datum:Temp:Feuchte:
Aussen-T/F 2751 29-09-2020 02:27:18 10.9 C 42 %
2752 29-09-2020 02:37:17 11 C 41 %
2753 29-09-2020 02:47:17 11 C 41 %
2754 29-09-2020 02:57:17 11 C 41 %
2755 29-09-2020 03:07:17 10.9 C 42 %
2756 29-09-2020 03:17:18 10.9 C 42 %
2757 29-09-2020 03:27:18 11 C 41 %
2758 29-09-2020 03:37:17 10.9 C 42 %
2759 29-09-2020 03:47:17 11 C 42 %
2760 29-09-2020 03:57:18 10.9 C 42 %
2761 29-09-2020 04:07:18 11 C 41 %
2762 29-09-2020 04:17:17 11 C 42 %
2763 29-09-2020 04:27:17 11 C 42 %
2764 29-09-2020 04:37:18 11.1 C 42 %
2765 29-09-2020 04:47:18 11.1 C 42 %
2766 29-09-2020 04:57:18 11.1 C 42 %
2767 29-09-2020 05:07:18 11.1 C 42 %
2768 29-09-2020 05:17:17 11.1 C 42 %
2769 29-09-2020 05:27:17 11.1 C 42 %
2770 29-09-2020 05:37:18 11.1 C 42 %
2771 29-09-2020 05:47:18 11.1 C 42 %
2772 29-09-2020 05:57:18 11.2 C 42 %
2773 29-09-2020 06:07:18 11.2 C 42 %
2774 29-09-2020 06:17:17 11.2 C 42 %
2775 29-09-2020 06:27:17 11.2 C 42 %
Sensor: Nr:Datum:Temp:Feuchte:
Aussen-T/F 2776 29-09-2020 06:37:18 11.2 C 43 %
2777 29-09-2020 06:47:17 11.2 C 43 %
2778 29-09-2020 06:57:17 11.2 C 43 %
2779 29-09-2020 07:07:18 11.1 C 44 %
2780 29-09-2020 07:17:17 11 C 45 %
2781 29-09-2020 07:27:17 11 C 45 %
2782 29-09-2020 07:37:17 11 C 45 %
2783 29-09-2020 07:47:17 11 C 45 %
2784 29-09-2020 07:57:17 11.1 C 45 %
2785 29-09-2020 08:07:17 11.2 C 45 %
2786 29-09-2020 08:17:17 11.3 C 45 %
2787 29-09-2020 08:27:17 11.5 C 45 %
2788 29-09-2020 08:37:17 11.7 C 45 %
2789 29-09-2020 08:47:18 11.7 C 45 %
2790 29-09-2020 08:57:18 11.6 C 45 %
2791 29-09-2020 09:07:17 11.6 C 45 %
2792 29-09-2020 09:17:18 11.8 C 45 %
2793 29-09-2020 09:27:18 11.8 C 45 %
2794 29-09-2020 09:37:17 12 C 44 %
2795 29-09-2020 09:47:18 12.3 C 44 %
2796 29-09-2020 09:57:18 12.4 C 44 %
2797 29-09-2020 10:07:17 12.5 C 43 %
2798 29-09-2020 10:17:17 12.5 C 42 %
2799 29-09-2020 10:27:17 12.5 C 42 %
2800 29-09-2020 10:37:17 12.6 C 42 %
Sensor: Nr:Datum:Temp:Feuchte:
Aussen-T/F 2801 29-09-2020 10:47:17 12.6 C 42 %
2802 29-09-2020 10:57:17 12.8 C 42 %
2803 29-09-2020 11:07:17 13.1 C 41 %
2804 29-09-2020 11:17:17 13 C 42 %
2805 29-09-2020 11:27:17 12.9 C 43 %
2806 29-09-2020 11:37:17 13.2 C 42 %
2807 29-09-2020 11:47:18 13.4 C 41 %
2808 29-09-2020 11:57:18 13.3 C 41 %
2809 29-09-2020 12:07:18 13.4 C 41 %
2810 29-09-2020 12:17:17 13.5 C 41 %
2811 29-09-2020 12:27:17 13.6 C 40 %
2812 29-09-2020 12:37:17 13.9 C 40 %
2813 29-09-2020 12:47:17 13.9 C 40 %
2814 29-09-2020 12:57:17 13.8 C 40 %
2815 29-09-2020 13:07:17 13.5 C 41 %
2816 29-09-2020 13:17:17 13.6 C 42 %
2817 29-09-2020 13:27:17 13.8 C 42 %
2818 29-09-2020 13:37:18 13.7 C 41 %
2819 29-09-2020 13:47:17 13.8 C 42 %
2820 29-09-2020 13:57:17 13.8 C 42 %
2821 29-09-2020 14:07:17 13.8 C 42 %
2822 29-09-2020 14:17:17 13.7 C 42 %
2823 29-09-2020 14:27:17 13.9 C 42 %
2824 29-09-2020 14:37:17 14.1 C 41 %
2825 29-09-2020 14:47:17 14 C 41 %
Sensor: Nr:Datum:Temp:Feuchte:
Aussen-T/F 2826 29-09-2020 14:57:17 14.1 C 41 %
2827 29-09-2020 15:07:17 14.1 C 41 %
2828 29-09-2020 15:17:18 14.1 C 40 %
2829 29-09-2020 15:27:18 13.9 C 41 %
2830 29-09-2020 15:37:17 13.7 C 41 %
2831 29-09-2020 15:47:17 13.5 C 42 %
2832 29-09-2020 15:57:17 13.3 C 42 %
2833 29-09-2020 16:07:17 13.2 C 43 %
2834 29-09-2020 16:17:17 13 C 42 %
2835 29-09-2020 16:27:17 12.6 C 42 %
2836 29-09-2020 16:37:17 12.6 C 44 %
2837 29-09-2020 16:47:17 12.6 C 43 %
2838 29-09-2020 16:57:17 12.6 C 43 %
2839 29-09-2020 17:07:17 12.5 C 44 %
2840 29-09-2020 17:17:17 12.5 C 45 %
2841 29-09-2020 17:27:17 12.5 C 45 %
2842 29-09-2020 17:37:18 12.6 C 45 %
2843 29-09-2020 17:47:17 12.7 C 45 %
2844 29-09-2020 17:57:17 12.7 C 45 %
2845 29-09-2020 18:07:17 12.7 C 45 %
2846 29-09-2020 18:17:18 12.7 C 45 %
2847 29-09-2020 18:27:18 12.7 C 44 %
2848 29-09-2020 18:37:17 12.6 C 44 %
2849 29-09-2020 18:47:18 12.5 C 43 %
2850 29-09-2020 18:57:18 12.5 C 42 %
Sensor: Nr:Datum:Temp:Feuchte:
Aussen-T/F 2851 29-09-2020 19:07:18 12.2 C 43 %
2852 29-09-2020 19:17:17 12.1 C 43 %
2853 29-09-2020 19:27:17 11.7 C 45 %
2854 29-09-2020 19:37:17 11.7 C 45 %
2855 29-09-2020 19:47:18 11.6 C 45 %
2856 29-09-2020 19:57:18 11.3 C 45 %
2857 29-09-2020 20:07:17 11 C 45 %
2858 29-09-2020 20:17:17 11.1 C 45 %
2859 29-09-2020 20:27:17 11.1 C 44 %
2860 29-09-2020 20:37:17 10.9 C 45 %
2861 29-09-2020 20:47:17 10.6 C 45 %
2862 29-09-2020 20:57:17 10.5 C 45 %
2863 29-09-2020 21:07:17 10.3 C 45 %
2864 29-09-2020 21:17:17 10 C 44 %
2865 29-09-2020 21:27:17 9.7 C 45 %
2866 29-09-2020 21:37:17 9.5 C 45 %
2867 29-09-2020 21:47:18 9.6 C 45 %
2868 29-09-2020 21:57:18 9.6 C 45 %
2869 29-09-2020 22:07:17 9.3 C 45 %
2870 29-09-2020 22:17:17 9.3 C 44 %
2871 29-09-2020 22:27:17 9.4 C 44 %
2872 29-09-2020 22:37:17 9.7 C 44 %
2873 29-09-2020 22:47:17 9.7 C 44 %
2874 29-09-2020 22:57:17 9.6 C 44 %
2875 29-09-2020 23:07:17 9.7 C 44 %
Sensor: Nr:Datum:Temp:Feuchte:
Aussen-T/F 2876 29-09-2020 23:17:17 10 C 43 %
2877 29-09-2020 23:27:17 10.2 C 43 %
2878 29-09-2020 23:37:17 10.4 C 43 %
2879 29-09-2020 23:47:18 10.4 C 43 %
2880 29-09-2020 23:57:18 10.5 C 43 %
2881 30-09-2020 00:07:17 10.4 C 43 %
2882 30-09-2020 00:17:17 10.4 C 43 %
2883 30-09-2020 00:27:17 10.4 C 43 %
2884 30-09-2020 00:37:18 10.5 C 42 %
2885 30-09-2020 00:47:17 10.6 C 42 %
2886 30-09-2020 00:57:17 10.6 C 42 %
2887 30-09-2020 01:07:18 10.7 C 42 %
2888 30-09-2020 01:17:17 10.7 C 42 %
2889 30-09-2020 01:27:17 10.8 C 42 %
2890 30-09-2020 01:37:17 10.7 C 42 %
2891 30-09-2020 01:47:17 10.7 C 42 %
2892 30-09-2020 01:57:17 10.8 C 42 %
2893 30-09-2020 02:07:18 10.8 C 42 %
2894 30-09-2020 02:17:17 10.9 C 42 %
2895 30-09-2020 02:27:17 11.1 C 41 %
2896 30-09-2020 02:37:18 11 C 41 %
2897 30-09-2020 02:47:17 11 C 41 %
2898 30-09-2020 02:57:17 11.1 C 41 %
2899 30-09-2020 03:07:17 11.1 C 41 %
2900 30-09-2020 03:17:17 11.2 C 41 %
Sensor: Nr:Datum:Temp:Feuchte:
Aussen-T/F 2901 30-09-2020 03:27:18 11.2 C 41 %
2902 30-09-2020 03:37:17 11.3 C 41 %
2903 30-09-2020 03:47:17 11.3 C 41 %
2904 30-09-2020 03:57:17 11.4 C 41 %
2905 30-09-2020 04:07:18 11.4 C 41 %
2906 30-09-2020 04:17:17 11.4 C 41 %
2907 30-09-2020 04:27:17 11.4 C 41 %
2908 30-09-2020 04:37:17 11.5 C 41 %
2909 30-09-2020 04:47:17 11.5 C 41 %
2910 30-09-2020 04:57:17 11.6 C 41 %
2911 30-09-2020 05:07:18 11.6 C 41 %
2912 30-09-2020 05:17:17 11.6 C 41 %
2913 30-09-2020 05:27:17 11.6 C 41 %
2914 30-09-2020 05:37:18 11.6 C 41 %
2915 30-09-2020 05:47:18 11.7 C 41 %
2916 30-09-2020 05:57:18 11.7 C 41 %
2917 30-09-2020 06:07:18 11.8 C 41 %
2918 30-09-2020 06:17:17 11.7 C 41 %
2919 30-09-2020 06:27:18 11.7 C 41 %
2920 30-09-2020 06:37:17 11.8 C 41 %
2921 30-09-2020 06:47:18 11.8 C 41 %
2922 30-09-2020 06:57:18 11.8 C 41 %
2923 30-09-2020 07:07:17 11.8 C 41 %
2924 30-09-2020 07:17:17 11.9 C 41 %
2925 30-09-2020 07:27:17 11.9 C 41 %
Sensor: Nr:Datum:Temp:Feuchte:
Aussen-T/F 2926 30-09-2020 07:37:18 12 C 40 %
2927 30-09-2020 07:47:17 12 C 40 %
2928 30-09-2020 07:57:17 11.7 C 41 %
2929 30-09-2020 08:07:17 12.1 C 40 %
2930 30-09-2020 08:17:17 12.3 C 40 %
2931 30-09-2020 08:27:17 12.4 C 41 %
2932 30-09-2020 08:37:18 12.6 C 41 %
2933 30-09-2020 08:47:17 13.1 C 43 %
2934 30-09-2020 08:57:17 13.1 C 42 %
2935 30-09-2020 09:07:17 13.4 C 42 %
2936 30-09-2020 09:17:18 13.5 C 39 %
2937 30-09-2020 09:27:18 13.5 C 39 %
2938 30-09-2020 09:37:17 14.2 C 39 %
2939 30-09-2020 09:47:17 14.4 C 40 %
2940 30-09-2020 09:57:17 14.6 C 38 %
2941 30-09-2020 10:07:18 15.1 C 38 %
2942 30-09-2020 10:17:17 15.4 C 39 %
2943 30-09-2020 10:27:17 15.3 C 38 %
2944 30-09-2020 10:37:17 15.6 C 37 %
2945 30-09-2020 10:47:17 16.3 C 35 %
2946 30-09-2020 10:57:17 17 C 35 %
2947 30-09-2020 11:07:17 17.3 C 35 %
2948 30-09-2020 11:17:18 16.6 C 35 %
2949 30-09-2020 11:27:18 17.1 C 35 %
2950 30-09-2020 11:37:17 17.6 C 34 %
Sensor: Nr:Datum:Temp:Feuchte:
Aussen-T/F 2951 30-09-2020 11:47:17 17 C 34 %
2952 30-09-2020 11:57:17 17.6 C 34 %
2953 30-09-2020 12:07:17 18.2 C 33 %
2954 30-09-2020 12:17:17 17.5 C 34 %
2955 30-09-2020 12:27:17 17 C 34 %
2956 30-09-2020 12:37:17 17.2 C 35 %
2957 30-09-2020 12:47:17 17.3 C 35 %
2958 30-09-2020 12:57:17 17.3 C 34 %
2959 30-09-2020 13:07:18 17.1 C 35 %
2960 30-09-2020 13:17:18 17.2 C 35 %
2961 30-09-2020 13:27:18 17.4 C 34 %
2962 30-09-2020 13:37:18 17.8 C 35 %
2963 30-09-2020 13:47:17 17.9 C 34 %
2964 30-09-2020 13:57:17 18 C 33 %
2965 30-09-2020 14:07:17 18.5 C 33 %
2966 30-09-2020 14:17:17 18.6 C 33 %
2967 30-09-2020 14:27:17 18.7 C 32 %
2968 30-09-2020 14:37:17 18.1 C 32 %
2969 30-09-2020 14:47:17 19.5 C 32 %
2970 30-09-2020 14:57:17 19.9 C 31 %
2971 30-09-2020 15:07:17 19.9 C 31 %
2972 30-09-2020 15:17:17 19.6 C 31 %
2973 30-09-2020 15:27:17 18.9 C 32 %
2974 30-09-2020 15:37:18 18.7 C 32 %
2975 30-09-2020 15:47:17 18.6 C 32 %
Sensor: Nr:Datum:Temp:Feuchte:
Aussen-T/F 2976 30-09-2020 15:57:17 18.7 C 32 %
2977 30-09-2020 16:07:18 18.5 C 32 %
2978 30-09-2020 16:17:17 18.4 C 32 %
2979 30-09-2020 16:27:17 18.1 C 32 %
2980 30-09-2020 16:37:17 17.9 C 33 %
2981 30-09-2020 16:47:17 18.2 C 32 %
2982 30-09-2020 16:57:17 18.3 C 32 %
2983 30-09-2020 17:07:17 18.3 C 32 %
2984 30-09-2020 17:17:17 18.8 C 32 %
2985 30-09-2020 17:27:17 19.8 C 31 %
2986 30-09-2020 17:37:18 18.9 C 32 %
2987 30-09-2020 17:47:17 18.2 C 32 %
2988 30-09-2020 17:57:17 17.6 C 35 %
2989 30-09-2020 18:07:18 17.1 C 34 %
2990 30-09-2020 18:17:17 15.9 C 37 %
2991 30-09-2020 18:27:17 15.4 C 38 %
2992 30-09-2020 18:37:17 15.1 C 38 %
2993 30-09-2020 18:47:18 15.1 C 39 %
2994 30-09-2020 18:57:18 15.2 C 39 %
2995 30-09-2020 19:07:18 15.1 C 39 %
2996 30-09-2020 19:17:17 15 C 39 %
2997 30-09-2020 19:27:17 14.7 C 40 %
2998 30-09-2020 19:37:17 14.6 C 40 %
2999 30-09-2020 19:47:17 14.5 C 40 %
3000 30-09-2020 19:57:17 14.7 C 40 %
Sensor: Nr:Datum:Temp:Feuchte:
Aussen-T/F 3001 30-09-2020 20:07:17 14.7 C 39 %
3002 30-09-2020 20:17:17 13.8 C 40 %
3003 30-09-2020 20:27:17 13.5 C 42 %
3004 30-09-2020 20:37:17 13.5 C 42 %
3005 30-09-2020 20:47:17 13.1 C 42 %
3006 30-09-2020 20:57:17 13 C 42 %
3007 30-09-2020 21:07:18 12.9 C 43 %
3008 30-09-2020 21:17:18 13 C 42 %
3009 30-09-2020 21:27:18 12.8 C 43 %
3010 30-09-2020 21:37:17 12.5 C 43 %
3011 30-09-2020 21:47:17 12.2 C 43 %
3012 30-09-2020 21:57:17 12.1 C 43 %
3013 30-09-2020 22:07:17 11.8 C 44 %
3014 30-09-2020 22:17:17 11.7 C 45 %
3015 30-09-2020 22:27:17 11.4 C 45 %
3016 30-09-2020 22:37:18 11.4 C 44 %
3017 30-09-2020 22:47:18 11.5 C 44 %
3018 30-09-2020 22:57:18 11.2 C 44 %
3019 30-09-2020 23:07:17 11.3 C 44 %
3020 30-09-2020 23:17:18 11.1 C 44 %
3021 30-09-2020 23:27:18 11.2 C 44 %
3022 30-09-2020 23:37:17 11.1 C 44 %
3023 30-09-2020 23:47:18 11 C 44 %
3024 30-09-2020 23:57:18 10.9 C 45 %
3025 01-10-2020 00:07:18 10.7 C 45 %
Sensor: Nr:Datum:Temp:Feuchte:
Aussen-T/F 3026 01-10-2020 00:17:18 10.8 C 45 %
3027 01-10-2020 00:27:18 10.9 C 45 %
3028 01-10-2020 00:37:17 10.8 C 45 %
3029 01-10-2020 00:47:17 10.7 C 45 %
3030 01-10-2020 00:57:17 10.8 C 45 %
3031 01-10-2020 01:07:17 10.6 C 45 %
3032 01-10-2020 01:17:17 10.4 C 45 %
3033 01-10-2020 01:27:17 10.2 C 45 %
3034 01-10-2020 01:37:17 10.2 C 45 %
3035 01-10-2020 01:47:17 10 C 45 %
3036 01-10-2020 01:57:17 9.9 C 45 %
3037 01-10-2020 02:07:18 9.9 C 45 %
3038 01-10-2020 02:17:17 9.7 C 45 %
3039 01-10-2020 02:27:17 9.4 C 45 %
3040 01-10-2020 02:37:17 9.3 C 45 %
3041 01-10-2020 02:47:17 9.5 C 45 %
3042 01-10-2020 02:57:17 9.6 C 44 %
3043 01-10-2020 03:07:17 9.7 C 44 %
3044 01-10-2020 03:17:17 9.7 C 44 %
3045 01-10-2020 03:27:17 9.7 C 44 %
3046 01-10-2020 03:37:17 9.3 C 44 %
3047 01-10-2020 03:47:17 9.3 C 44 %
3048 01-10-2020 03:57:17 9.3 C 44 %
3049 01-10-2020 04:07:17 9.3 C 44 %
3050 01-10-2020 04:17:17 9.7 C 44 %
Sensor: Nr:Datum:Temp:Feuchte:
Aussen-T/F 3051 01-10-2020 04:27:17 9.5 C 44 %
3052 01-10-2020 04:37:17 9.7 C 44 %
3053 01-10-2020 04:47:17 10 C 43 %
3054 01-10-2020 04:57:17 10.1 C 43 %
3055 01-10-2020 05:07:18 10.2 C 42 %
3056 01-10-2020 05:17:17 10 C 42 %
3057 01-10-2020 05:27:17 10.1 C 42 %
3058 01-10-2020 05:37:17 10 C 42 %
3059 01-10-2020 05:47:17 9.6 C 43 %
3060 01-10-2020 05:57:18 9.1 C 43 %
3061 01-10-2020 06:07:17 9.1 C 43 %
3062 01-10-2020 06:17:17 9.1 C 43 %
3063 01-10-2020 06:27:17 9.3 C 43 %
3064 01-10-2020 06:37:17 9.3 C 43 %
3065 01-10-2020 06:47:18 9 C 43 %
3066 01-10-2020 06:57:18 9.1 C 43 %
3067 01-10-2020 07:07:18 8.7 C 43 %
3068 01-10-2020 07:17:17 8.9 C 43 %
3069 01-10-2020 07:27:17 8.9 C 43 %
3070 01-10-2020 07:37:17 9.1 C 43 %
3071 01-10-2020 07:47:17 9.3 C 43 %
3072 01-10-2020 07:57:17 9.5 C 43 %
3073 01-10-2020 08:07:17 9.7 C 43 %
3074 01-10-2020 08:17:17 9.8 C 43 %
3075 01-10-2020 08:27:17 9.9 C 43 %
Sensor: Nr:Datum:Temp:Feuchte:
Aussen-T/F 3076 01-10-2020 08:37:17 10 C 42 %
3077 01-10-2020 08:47:17 10.1 C 42 %
3078 01-10-2020 08:57:17 10.1 C 42 %
3079 01-10-2020 09:07:17 10.3 C 42 %
3080 01-10-2020 09:17:17 10.6 C 42 %
3081 01-10-2020 09:27:17 10.9 C 42 %
3082 01-10-2020 09:37:17 11.2 C 42 %
3083 01-10-2020 09:47:17 11.2 C 42 %
3084 01-10-2020 09:57:17 11.6 C 42 %
3085 01-10-2020 10:07:17 11.6 C 42 %
3086 01-10-2020 10:17:18 11.8 C 43 %
3087 01-10-2020 10:27:18 12.6 C 42 %
3088 01-10-2020 10:37:17 13.3 C 40 %
3089 01-10-2020 10:47:18 13.5 C 39 %
3090 01-10-2020 10:57:18 14.1 C 37 %
3091 01-10-2020 11:07:17 14.3 C 37 %
3092 01-10-2020 11:17:17 14.7 C 36 %
3093 01-10-2020 11:27:17 15.1 C 35 %
3094 01-10-2020 11:37:17 15.6 C 35 %
3095 01-10-2020 11:47:17 16.4 C 35 %
3096 01-10-2020 11:57:17 16.3 C 34 %
3097 01-10-2020 12:07:17 16.3 C 34 %
3098 01-10-2020 12:17:17 16.6 C 34 %
3099 01-10-2020 12:27:17 16.9 C 33 %
3100 01-10-2020 12:37:17 17.6 C 33 %
Sensor: Nr:Datum:Temp:Feuchte:
Aussen-T/F 3101 01-10-2020 12:47:17 17.5 C 32 %
3102 01-10-2020 12:57:17 17.7 C 32 %
3103 01-10-2020 13:07:17 17.6 C 32 %
3104 01-10-2020 13:17:18 17.7 C 32 %
3105 01-10-2020 13:27:18 17.7 C 32 %
3106 01-10-2020 13:37:17 17.6 C 32 %
3107 01-10-2020 13:47:17 18.5 C 31 %
3108 01-10-2020 13:57:18 17.9 C 31 %
3109 01-10-2020 14:07:18 17.5 C 32 %
3110 01-10-2020 14:17:17 16.9 C 32 %
3111 01-10-2020 14:27:17 16.5 C 32 %
3112 01-10-2020 14:37:18 16.6 C 32 %
3113 01-10-2020 14:47:17 16.4 C 32 %
3114 01-10-2020 14:57:17 15.6 C 35 %
3115 01-10-2020 15:07:17 15.2 C 36 %
3116 01-10-2020 15:17:18 15 C 38 %
3117 01-10-2020 15:27:18 14.7 C 38 %
3118 01-10-2020 15:37:17 14.5 C 38 %
3119 01-10-2020 15:47:18 14.6 C 39 %
3120 01-10-2020 15:57:18 14.6 C 39 %
3121 01-10-2020 16:07:18 14.5 C 38 %
3122 01-10-2020 16:17:18 14.5 C 39 %
3123 01-10-2020 16:27:18 14.5 C 39 %
3124 01-10-2020 16:37:17 14.5 C 40 %
3125 01-10-2020 16:47:17 14.6 C 40 %
Sensor: Nr:Datum:Temp:Feuchte:
Aussen-T/F 3126 01-10-2020 16:57:17 14.3 C 40 %
3127 01-10-2020 17:07:17 14.4 C 41 %
3128 01-10-2020 17:17:18 14.7 C 39 %
3129 01-10-2020 17:27:18 15.3 C 37 %
3130 01-10-2020 17:37:18 15.6 C 37 %
3131 01-10-2020 17:47:18 15 C 39 %
3132 01-10-2020 17:57:18 14.9 C 41 %
3133 01-10-2020 18:07:18 15.4 C 38 %
3134 01-10-2020 18:17:17 15.1 C 36 %
3135 01-10-2020 18:27:17 15.3 C 38 %
3136 01-10-2020 18:37:17 14.6 C 40 %
3137 01-10-2020 18:47:18 14.1 C 40 %
3138 01-10-2020 18:57:18 13.5 C 41 %
3139 01-10-2020 19:07:18 13.1 C 42 %
3140 01-10-2020 19:17:18 12.8 C 43 %
3141 01-10-2020 19:27:18 12.3 C 44 %
3142 01-10-2020 19:37:18 12.3 C 44 %
3143 01-10-2020 19:47:17 12.2 C 43 %
3144 01-10-2020 19:57:17 11.9 C 44 %
3145 01-10-2020 20:07:18 11.8 C 44 %
3146 01-10-2020 20:17:17 11.9 C 44 %
3147 01-10-2020 20:27:17 11.7 C 44 %
3148 01-10-2020 20:37:17 11.8 C 44 %
3149 01-10-2020 20:47:17 11.9 C 44 %
3150 01-10-2020 20:57:17 12 C 43 %
Sensor: Nr:Datum:Temp:Feuchte:
Aussen-T/F 3151 01-10-2020 21:07:17 12.3 C 43 %
3152 01-10-2020 21:17:18 12.4 C 42 %
3153 01-10-2020 21:27:18 12 C 42 %
3154 01-10-2020 21:37:18 11.6 C 43 %
3155 01-10-2020 21:47:18 11.5 C 44 %
3156 01-10-2020 21:57:18 11.4 C 44 %
3157 01-10-2020 22:07:18 11.4 C 44 %
3158 01-10-2020 22:17:17 11.1 C 44 %
3159 01-10-2020 22:27:17 10.7 C 45 %
3160 01-10-2020 22:37:18 10.6 C 45 %
3161 01-10-2020 22:47:17 10.5 C 44 %
3162 01-10-2020 22:57:17 10.5 C 44 %
3163 01-10-2020 23:07:18 10.5 C 44 %
3164 01-10-2020 23:17:17 10.7 C 44 %
3165 01-10-2020 23:27:17 10.6 C 45 %
3166 01-10-2020 23:37:17 10.6 C 45 %
3167 01-10-2020 23:47:17 10.8 C 45 %
3168 01-10-2020 23:57:17 10.7 C 45 %
3169 02-10-2020 00:07:17 10.4 C 44 %
3170 02-10-2020 00:17:18 10 C 44 %
3171 02-10-2020 00:27:18 9.9 C 45 %
3172 02-10-2020 00:37:17 9.8 C 45 %
3173 02-10-2020 00:47:18 9.7 C 45 %
3174 02-10-2020 00:57:18 9.7 C 45 %
3175 02-10-2020 01:07:18 9.8 C 44 %
Sensor: Nr:Datum:Temp:Feuchte:
Aussen-T/F 3176 02-10-2020 01:17:17 9.7 C 44 %
3177 02-10-2020 01:27:17 9.7 C 44 %
3178 02-10-2020 01:37:18 9.3 C 44 %
3179 02-10-2020 01:47:18 9 C 44 %
3180 02-10-2020 01:57:18 8.9 C 44 %
3181 02-10-2020 02:07:17 8.9 C 44 %
3182 02-10-2020 02:17:17 8.6 C 44 %
3183 02-10-2020 02:27:17 8.6 C 44 %
3184 02-10-2020 02:37:18 8.5 C 44 %
3185 02-10-2020 02:47:17 8.6 C 44 %
3186 02-10-2020 02:57:17 8.3 C 44 %
3187 02-10-2020 03:07:18 8.2 C 44 %
3188 02-10-2020 03:17:17 7.9 C 44 %
3189 02-10-2020 03:27:17 7.9 C 44 %
3190 02-10-2020 03:37:18 7.7 C 44 %
3191 02-10-2020 03:47:17 7.6 C 44 %
3192 02-10-2020 03:57:17 7.5 C 44 %
3193 02-10-2020 04:07:18 7.4 C 44 %
3194 02-10-2020 04:17:17 7.4 C 44 %
3195 02-10-2020 04:27:17 7.3 C 44 %
3196 02-10-2020 04:37:18 7 C 44 %
3197 02-10-2020 04:47:18 7.2 C 44 %
3198 02-10-2020 04:57:18 7.3 C 43 %
3199 02-10-2020 05:07:17 7.3 C 44 %
3200 02-10-2020 05:17:17 7.5 C 43 %
Sensor: Nr:Datum:Temp:Feuchte:
Aussen-T/F 3201 02-10-2020 05:27:17 7.4 C 43 %
3202 02-10-2020 05:37:18 7.4 C 43 %
3203 02-10-2020 05:47:17 7.3 C 43 %
3204 02-10-2020 05:57:17 7.7 C 43 %
3205 02-10-2020 06:07:18 7.6 C 43 %
3206 02-10-2020 06:17:18 7.6 C 43 %
3207 02-10-2020 06:27:18 7.6 C 43 %
3208 02-10-2020 06:37:17 8.5 C 42 %
3209 02-10-2020 06:47:18 8.7 C 42 %
3210 02-10-2020 06:57:18 8.4 C 42 %
3211 02-10-2020 07:07:18 8.1 C 42 %
3212 02-10-2020 07:17:17 7.9 C 42 %
3213 02-10-2020 07:27:17 8 C 42 %
3214 02-10-2020 07:37:17 8 C 42 %
3215 02-10-2020 07:47:18 8.4 C 42 %
3216 02-10-2020 07:57:18 8.7 C 42 %
3217 02-10-2020 08:07:18 8.8 C 42 %
3218 02-10-2020 08:17:17 9 C 42 %
3219 02-10-2020 08:27:17 9.1 C 42 %
3220 02-10-2020 08:37:17 9.3 C 42 %
3221 02-10-2020 08:47:18 9.5 C 42 %
3222 02-10-2020 08:57:18 9.6 C 42 %
3223 02-10-2020 09:07:18 9.9 C 42 %
3224 02-10-2020 09:17:18 10.2 C 42 %
3225 02-10-2020 09:27:18 10.5 C 41 %
Sensor: Nr:Datum:Temp:Feuchte:
Aussen-T/F 3226 02-10-2020 09:37:17 11 C 40 %
3227 02-10-2020 09:47:18 11.3 C 41 %
3228 02-10-2020 09:57:18 11.6 C 41 %
3229 02-10-2020 10:07:17 11.8 C 42 %
3230 02-10-2020 10:17:17 12.2 C 42 %
3231 02-10-2020 10:27:17 12.3 C 41 %
3232 02-10-2020 10:37:18 12.1 C 41 %
3233 02-10-2020 10:47:18 12 C 42 %
3234 02-10-2020 10:57:18 12.1 C 43 %
3235 02-10-2020 11:07:17 12 C 42 %
3236 02-10-2020 11:17:18 12.2 C 43 %
3237 02-10-2020 11:27:18 12.6 C 42 %
3238 02-10-2020 11:37:17 13.1 C 39 %
3239 02-10-2020 11:47:17 13.9 C 38 %
3240 02-10-2020 11:57:17 14.3 C 37 %
3241 02-10-2020 12:07:17 14.6 C 36 %
3242 02-10-2020 12:17:17 15 C 36 %
3243 02-10-2020 12:27:17 15 C 36 %
3244 02-10-2020 12:37:18 16 C 34 %
3245 02-10-2020 12:47:17 16.3 C 34 %
3246 02-10-2020 12:57:17 15.9 C 34 %
3247 02-10-2020 13:07:17 16.3 C 33 %
3248 02-10-2020 13:17:17 16.7 C 33 %
3249 02-10-2020 13:27:17 17.1 C 32 %
3250 02-10-2020 13:37:18 17.2 C 32 %
Sensor: Nr:Datum:Temp:Feuchte:
Aussen-T/F 3251 02-10-2020 13:47:17 17.7 C 32 %
3252 02-10-2020 13:57:17 18 C 31 %
3253 02-10-2020 14:07:18 18.3 C 32 %
3254 02-10-2020 14:17:17 18.7 C 31 %
3255 02-10-2020 14:27:17 19.1 C 30 %
3256 02-10-2020 14:37:18 19 C 30 %
3257 02-10-2020 14:47:17 18.7 C 30 %
3258 02-10-2020 14:57:17 18.8 C 30 %
3259 02-10-2020 15:07:18 19.1 C 30 %
3260 02-10-2020 15:17:17 19.1 C 30 %
3261 02-10-2020 15:27:17 18.9 C 30 %
3262 02-10-2020 15:37:17 19 C 30 %
3263 02-10-2020 15:47:17 19.2 C 31 %
3264 02-10-2020 15:57:18 19.2 C 30 %
3265 02-10-2020 16:07:17 19.1 C 31 %
3266 02-10-2020 16:17:18 19.1 C 30 %
3267 02-10-2020 16:27:18 19.1 C 30 %
3268 02-10-2020 16:37:18 19.2 C 30 %
3269 02-10-2020 16:47:17 19.2 C 30 %
3270 02-10-2020 16:57:17 18.6 C 30 %
3271 02-10-2020 17:07:18 18.2 C 31 %
3272 02-10-2020 17:17:17 18.7 C 30 %
3273 02-10-2020 17:27:17 18.7 C 31 %
3274 02-10-2020 17:37:18 18.2 C 31 %
3275 02-10-2020 17:47:17 17.4 C 33 %
Sensor: Nr:Datum:Temp:Feuchte:
Aussen-T/F 3276 02-10-2020 17:57:18 16.8 C 35 %
3277 02-10-2020 18:07:17 16.6 C 34 %
3278 02-10-2020 18:17:17 17.2 C 32 %
3279 02-10-2020 18:27:18 17 C 33 %
3280 02-10-2020 18:37:18 17.8 C 31 %
3281 02-10-2020 18:47:17 17.5 C 32 %
3282 02-10-2020 18:57:17 17.8 C 31 %
3283 02-10-2020 19:07:18 17.7 C 32 %
3284 02-10-2020 19:17:17 17 C 32 %
3285 02-10-2020 19:27:17 16.4 C 35 %
3286 02-10-2020 19:37:17 16.4 C 35 %
3287 02-10-2020 19:47:17 16.7 C 34 %
3288 02-10-2020 19:57:17 17.4 C 32 %
3289 02-10-2020 20:07:18 17.1 C 32 %
3290 02-10-2020 20:17:18 16.9 C 33 %
3291 02-10-2020 20:27:18 17.2 C 32 %
3292 02-10-2020 20:37:17 17.1 C 33 %
3293 02-10-2020 20:47:17 17.5 C 31 %
3294 02-10-2020 20:57:17 17.8 C 31 %
3295 02-10-2020 21:07:17 17.6 C 31 %
3296 02-10-2020 21:17:17 17.3 C 32 %
3297 02-10-2020 21:27:17 16.7 C 32 %
3298 02-10-2020 21:37:18 16.4 C 34 %
3299 02-10-2020 21:47:17 16.4 C 33 %
3300 02-10-2020 21:57:17 16.3 C 33 %
Sensor: Nr:Datum:Temp:Feuchte:
Aussen-T/F 3301 02-10-2020 22:07:18 16.7 C 33 %
3302 02-10-2020 22:17:17 15.8 C 35 %
3303 02-10-2020 22:27:17 16.2 C 34 %
3304 02-10-2020 22:37:17 16.4 C 33 %
3305 02-10-2020 22:47:18 16.3 C 33 %
3306 02-10-2020 22:57:18 16.1 C 33 %
3307 02-10-2020 23:07:17 16.4 C 32 %
3308 02-10-2020 23:17:17 16.9 C 32 %
3309 02-10-2020 23:27:17 17.2 C 31 %
3310 02-10-2020 23:37:18 17.5 C 31 %
3311 02-10-2020 23:47:17 17.3 C 31 %
3312 02-10-2020 23:57:17 17.3 C 31 %
3313 03-10-2020 00:07:17 16.9 C 32 %
3314 03-10-2020 00:17:17 16.6 C 32 %
3315 03-10-2020 00:27:17 16.5 C 32 %
3316 03-10-2020 00:37:17 16.9 C 32 %
3317 03-10-2020 00:47:17 17.2 C 31 %
3318 03-10-2020 00:57:17 17 C 31 %
3319 03-10-2020 01:07:17 17 C 31 %
3320 03-10-2020 01:17:18 16.9 C 31 %
3321 03-10-2020 01:27:18 16.5 C 32 %
3322 03-10-2020 01:37:17 16.5 C 32 %
3323 03-10-2020 01:47:17 16.2 C 32 %
3324 03-10-2020 01:57:17 16.4 C 32 %
3325 03-10-2020 02:07:18 15.7 C 33 %
Sensor: Nr:Datum:Temp:Feuchte:
Aussen-T/F 3326 03-10-2020 02:17:17 14.7 C 35 %
3327 03-10-2020 02:27:17 14.1 C 36 %
3328 03-10-2020 02:37:18 14.2 C 36 %
3329 03-10-2020 02:47:17 13.6 C 38 %
3330 03-10-2020 02:57:17 13.6 C 38 %
3331 03-10-2020 03:07:18 13.6 C 38 %
3332 03-10-2020 03:17:17 14.1 C 37 %
3333 03-10-2020 03:27:17 14.4 C 37 %
3334 03-10-2020 03:37:18 14.3 C 37 %
3335 03-10-2020 03:47:17 14.1 C 37 %
3336 03-10-2020 03:57:17 14 C 37 %
3337 03-10-2020 04:07:18 14 C 37 %
3338 03-10-2020 04:17:17 14.1 C 37 %
3339 03-10-2020 04:27:17 14 C 38 %
3340 03-10-2020 04:37:18 14 C 38 %
3341 03-10-2020 04:47:17 13.8 C 39 %
3342 03-10-2020 04:57:18 13.8 C 39 %
3343 03-10-2020 05:07:18 13.7 C 39 %
3344 03-10-2020 05:17:18 13.1 C 40 %
3345 03-10-2020 05:27:18 12.9 C 41 %
3346 03-10-2020 05:37:18 13 C 40 %
3347 03-10-2020 05:47:17 13 C 40 %
3348 03-10-2020 05:57:17 12.9 C 41 %
3349 03-10-2020 06:07:18 13.2 C 39 %
3350 03-10-2020 06:17:17 13.1 C 40 %
Sensor: Nr:Datum:Temp:Feuchte:
Aussen-T/F 3351 03-10-2020 06:27:17 12.9 C 41 %
3352 03-10-2020 06:37:18 12.9 C 42 %
3353 03-10-2020 06:47:17 12.9 C 42 %
3354 03-10-2020 06:57:17 12.7 C 42 %
3355 03-10-2020 07:07:18 12.8 C 43 %
3356 03-10-2020 07:17:17 13.1 C 42 %
3357 03-10-2020 07:27:17 13.2 C 41 %
3358 03-10-2020 07:37:17 13.4 C 40 %
3359 03-10-2020 07:47:17 13.5 C 40 %
3360 03-10-2020 07:57:17 13.6 C 40 %
3361 03-10-2020 08:07:18 13.7 C 40 %
3362 03-10-2020 08:17:17 13.7 C 40 %
3363 03-10-2020 08:27:17 13.8 C 40 %
3364 03-10-2020 08:37:17 13.8 C 40 %
3365 03-10-2020 08:47:18 13.8 C 40 %
3366 03-10-2020 08:57:18 13.8 C 40 %
3367 03-10-2020 09:07:17 13.8 C 39 %
3368 03-10-2020 09:17:17 13.7 C 39 %
3369 03-10-2020 09:27:17 13.7 C 39 %
3370 03-10-2020 09:37:18 13.7 C 39 %
3371 03-10-2020 09:47:17 13.7 C 38 %
3372 03-10-2020 09:57:17 13.7 C 38 %
3373 03-10-2020 10:07:17 13.7 C 38 %
3374 03-10-2020 10:17:17 13.5 C 37 %
3375 03-10-2020 10:27:17 13.5 C 37 %
Sensor: Nr:Datum:Temp:Feuchte:
Aussen-T/F 3376 03-10-2020 10:37:17 13.4 C 37 %
3377 03-10-2020 10:47:17 13.5 C 37 %
3378 03-10-2020 10:57:18 13.5 C 36 %
3379 03-10-2020 11:07:18 13.5 C 36 %
3380 03-10-2020 11:17:17 13.1 C 37 %
3381 03-10-2020 11:27:17 13.3 C 37 %
3382 03-10-2020 11:37:17 13.4 C 37 %
3383 03-10-2020 11:47:17 13.3 C 37 %
3384 03-10-2020 11:57:17 13 C 37 %
3385 03-10-2020 12:07:18 12.6 C 38 %
3386 03-10-2020 12:17:17 12.6 C 37 %
3387 03-10-2020 12:27:17 12.8 C 37 %
3388 03-10-2020 12:37:18 13.2 C 36 %
3389 03-10-2020 12:47:18 13.1 C 35 %
3390 03-10-2020 12:57:18 13 C 35 %
3391 03-10-2020 13:07:18 13 C 35 %
3392 03-10-2020 13:17:18 13.2 C 35 %
3393 03-10-2020 13:27:18 12.6 C 36 %
3394 03-10-2020 13:37:17 12 C 37 %
3395 03-10-2020 13:47:17 11.7 C 39 %
3396 03-10-2020 13:57:17 11.3 C 40 %
3397 03-10-2020 14:07:18 11.3 C 41 %
3398 03-10-2020 14:17:17 11.1 C 41 %
3399 03-10-2020 14:27:17 11.1 C 42 %
3400 03-10-2020 14:37:18 11.3 C 43 %
Sensor: Nr:Datum:Temp:Feuchte:
Aussen-T/F 3401 03-10-2020 14:47:18 11.4 C 43 %
3402 03-10-2020 14:57:18 11.5 C 43 %
3403 03-10-2020 15:07:18 11.6 C 40 %
3404 03-10-2020 15:17:17 11.7 C 40 %
3405 03-10-2020 15:27:17 11.8 C 40 %
3406 03-10-2020 15:37:18 11.9 C 39 %
3407 03-10-2020 15:47:17 12.3 C 37 %
3408 03-10-2020 15:57:17 12.2 C 37 %
3409 03-10-2020 16:07:17 12.5 C 37 %
3410 03-10-2020 16:17:18 13.3 C 35 %
3411 03-10-2020 16:27:18 14.3 C 33 %
3412 03-10-2020 16:37:18 17.6 C 30 %
3413 03-10-2020 16:47:18 20 C 27 %
3414 03-10-2020 16:57:18 19.7 C 26 %
3415 03-10-2020 17:07:18 18.7 C 27 %
3416 03-10-2020 17:17:18 20 C 26 %
3417 03-10-2020 17:27:18 19 C 26 %
3418 03-10-2020 17:37:18 19.9 C 26 %
3419 03-10-2020 17:47:17 16.6 C 30 %
3420 03-10-2020 17:57:18 15.3 C 32 %
3421 03-10-2020 18:07:17 13.8 C 35 %
3422 03-10-2020 18:17:17 13.1 C 36 %
3423 03-10-2020 18:27:17 12.2 C 38 %
3424 03-10-2020 18:37:18 12.4 C 38 %
3425 03-10-2020 18:47:17 12.2 C 39 %
Sensor: Nr:Datum:Temp:Feuchte:
Aussen-T/F 3426 03-10-2020 18:57:17 11.9 C 39 %
3427 03-10-2020 19:07:18 11.7 C 40 %
3428 03-10-2020 19:17:17 11.7 C 40 %
3429 03-10-2020 19:27:17 11.6 C 40 %
3430 03-10-2020 19:37:19 11.2 C 40 %
3431 03-10-2020 19:47:18 11.6 C 40 %
3432 03-10-2020 19:57:18 11.5 C 40 %
3433 03-10-2020 20:07:18 11.5 C 40 %
3434 03-10-2020 20:17:18 11.8 C 37 %
3435 03-10-2020 20:27:18 11.4 C 38 %
3436 03-10-2020 20:37:17 10.5 C 41 %
3437 03-10-2020 20:47:17 10.5 C 41 %
3438 03-10-2020 20:57:18 10.1 C 42 %
3439 03-10-2020 21:07:18 10.1 C 44 %
3440 03-10-2020 21:17:17 10.3 C 44 %
3441 03-10-2020 21:27:17 10.5 C 44 %
3442 03-10-2020 21:37:18 10.6 C 43 %
3443 03-10-2020 21:47:17 10.5 C 43 %
3444 03-10-2020 21:57:18 10 C 43 %
3445 03-10-2020 22:07:17 9.8 C 45 %
3446 03-10-2020 22:17:17 9.7 C 45 %
3447 03-10-2020 22:27:17 9.5 C 45 %
3448 03-10-2020 22:37:17 9.8 C 45 %
3449 03-10-2020 22:47:18 10.2 C 44 %
3450 03-10-2020 22:57:18 10.6 C 42 %
Sensor: Nr:Datum:Temp:Feuchte:
Aussen-T/F 3451 03-10-2020 23:07:17 11.2 C 39 %
3452 03-10-2020 23:17:17 11.3 C 39 %
3453 03-10-2020 23:27:17 11.2 C 39 %
3454 03-10-2020 23:37:17 10.5 C 41 %
3455 03-10-2020 23:47:17 10 C 41 %
3456 03-10-2020 23:57:17 10 C 42 %
3457 04-10-2020 00:07:18 10.1 C 42 %
3458 04-10-2020 00:17:17 9.8 C 42 %
3459 04-10-2020 00:27:17 9.3 C 43 %
3460 04-10-2020 00:37:17 9.7 C 45 %
3461 04-10-2020 00:47:17 10.1 C 44 %
3462 04-10-2020 00:57:17 9.9 C 45 %
3463 04-10-2020 01:07:17 10 C 44 %
3464 04-10-2020 01:17:17 10 C 45 %
3465 04-10-2020 01:27:17 9.9 C 45 %
3466 04-10-2020 01:37:17 9.9 C 45 %
3467 04-10-2020 01:47:17 10 C 45 %
3468 04-10-2020 01:57:18 10 C 45 %
3469 04-10-2020 02:07:17 9.7 C 45 %
3470 04-10-2020 02:17:17 9.8 C 45 %
3471 04-10-2020 02:27:17 9.6 C 45 %
3472 04-10-2020 02:37:17 9.6 C 45 %
3473 04-10-2020 02:47:18 9.6 C 45 %
3474 04-10-2020 02:57:18 9.5 C 45 %
3475 04-10-2020 03:07:17 9.4 C 45 %
Sensor: Nr:Datum:Temp:Feuchte:
Aussen-T/F 3476 04-10-2020 03:17:17 9.4 C 45 %
3477 04-10-2020 03:27:18 9.2 C 45 %
3478 04-10-2020 03:37:17 9 C 45 %
3479 04-10-2020 03:47:17 8.9 C 46 %
3480 04-10-2020 03:57:17 9.2 C 45 %
3481 04-10-2020 04:07:18 9.4 C 45 %
3482 04-10-2020 04:17:17 9.5 C 45 %
3483 04-10-2020 04:27:17 9.6 C 45 %
3484 04-10-2020 04:37:18 9.7 C 45 %
3485 04-10-2020 04:47:18 9.8 C 45 %
3486 04-10-2020 04:57:18 9.9 C 45 %
3487 04-10-2020 05:07:18 10 C 44 %
3488 04-10-2020 05:17:17 9.8 C 45 %
3489 04-10-2020 05:27:17 9.8 C 45 %
3490 04-10-2020 05:37:17 10 C 44 %
3491 04-10-2020 05:47:17 10 C 44 %
3492 04-10-2020 05:57:18 10.1 C 45 %
3493 04-10-2020 06:07:17 10.1 C 45 %
3494 04-10-2020 06:17:17 10.2 C 45 %
3495 04-10-2020 06:27:17 10.2 C 44 %
3496 04-10-2020 06:37:17 10.2 C 44 %
3497 04-10-2020 06:47:17 10.2 C 44 %
3498 04-10-2020 06:57:17 10.1 C 44 %
3499 04-10-2020 07:07:17 10.1 C 45 %
3500 04-10-2020 07:17:18 10 C 44 %
Sensor: Nr:Datum:Temp:Feuchte:
Aussen-T/F 3501 04-10-2020 07:27:18 10 C 44 %
3502 04-10-2020 07:37:18 9.6 C 44 %
3503 04-10-2020 07:47:17 9.7 C 45 %
3504 04-10-2020 07:57:17 9.8 C 45 %
3505 04-10-2020 08:07:18 9.9 C 45 %
3506 04-10-2020 08:17:17 10 C 45 %
3507 04-10-2020 08:27:17 10.1 C 45 %
3508 04-10-2020 08:37:18 10.4 C 43 %
3509 04-10-2020 08:47:17 10.5 C 42 %
3510 04-10-2020 08:57:17 10.9 C 41 %
3511 04-10-2020 09:07:17 10.9 C 40 %
3512 04-10-2020 09:17:17 10.7 C 41 %
3513 04-10-2020 09:27:17 10.7 C 41 %
3514 04-10-2020 09:37:17 10.7 C 40 %
3515 04-10-2020 09:47:17 10.8 C 40 %
3516 04-10-2020 09:57:17 10.9 C 40 %
3517 04-10-2020 10:07:17 11.1 C 40 %
3518 04-10-2020 10:17:18 11.6 C 38 %
3519 04-10-2020 10:27:18 11.9 C 37 %
3520 04-10-2020 10:37:17 12.2 C 36 %
3521 04-10-2020 10:47:17 12.4 C 36 %
3522 04-10-2020 10:57:17 12.3 C 35 %
3523 04-10-2020 11:07:18 12.3 C 35 %
3524 04-10-2020 11:17:17 13 C 34 %
3525 04-10-2020 11:27:17 12.8 C 34 %
Sensor: Nr:Datum:Temp:Feuchte:
Aussen-T/F 3526 04-10-2020 11:37:17 13.1 C 32 %
3527 04-10-2020 11:47:17 13.4 C 32 %
3528 04-10-2020 11:57:17 13.3 C 31 %
3529 04-10-2020 12:07:17 13.6 C 31 %
3530 04-10-2020 12:17:17 13.2 C 31 %
3531 04-10-2020 12:27:17 13.8 C 31 %
3532 04-10-2020 12:37:18 13.6 C 31 %
3533 04-10-2020 12:47:17 14 C 31 %
3534 04-10-2020 12:57:17 13.6 C 31 %
3535 04-10-2020 13:07:17 13.7 C 30 %
3536 04-10-2020 13:17:17 13.4 C 30 %
3537 04-10-2020 13:27:17 13.8 C 30 %
3538 04-10-2020 13:37:17 14.1 C 28 %
3539 04-10-2020 13:47:17 14.3 C 29 %
3540 04-10-2020 13:57:17 15.2 C 28 %
3541 04-10-2020 14:07:17 15.9 C 28 %
3542 04-10-2020 14:17:17 15.3 C 27 %
3543 04-10-2020 14:27:18 15.7 C 28 %
3544 04-10-2020 14:37:18 15.2 C 27 %
3545 04-10-2020 14:47:18 15.6 C 27 %
3546 04-10-2020 14:57:18 15.2 C 28 %
3547 04-10-2020 15:07:17 15.7 C 27 %
3548 04-10-2020 15:17:17 15.3 C 28 %
3549 04-10-2020 15:27:17 15 C 28 %
3550 04-10-2020 15:37:17 15.2 C 28 %
Sensor: Nr:Datum:Temp:Feuchte:
Aussen-T/F 3551 04-10-2020 15:47:17 17 C 27 %
3552 04-10-2020 15:57:17 17.3 C 26 %
3553 04-10-2020 16:07:17 16.7 C 26 %
3554 04-10-2020 16:17:17 16.3 C 27 %
3555 04-10-2020 16:27:17 17.4 C 26 %
3556 04-10-2020 16:37:17 18.1 C 25 %
3557 04-10-2020 16:47:17 16.7 C 26 %
3558 04-10-2020 16:57:17 16.7 C 27 %
3559 04-10-2020 17:07:17 15.8 C 28 %
3560 04-10-2020 17:17:18 16.2 C 28 %
3561 04-10-2020 17:27:18 15.5 C 29 %
3562 04-10-2020 17:37:17 14.5 C 30 %
3563 04-10-2020 17:47:17 14 C 31 %
3564 04-10-2020 17:57:17 14.9 C 30 %
3565 04-10-2020 18:07:17 14.6 C 31 %
3566 04-10-2020 18:17:18 14 C 33 %
3567 04-10-2020 18:27:18 13.6 C 33 %
3568 04-10-2020 18:37:18 13.6 C 32 %
3569 04-10-2020 18:47:17 12.5 C 36 %
3570 04-10-2020 18:57:17 11.8 C 38 %
3571 04-10-2020 19:07:17 12.3 C 36 %
3572 04-10-2020 19:17:17 11.5 C 39 %
3573 04-10-2020 19:27:17 11.4 C 40 %
3574 04-10-2020 19:37:17 11.2 C 41 %
3575 04-10-2020 19:47:17 11.1 C 43 %
Sensor: Nr:Datum:Temp:Feuchte:
Aussen-T/F 3576 04-10-2020 19:57:17 11 C 43 %
3577 04-10-2020 20:07:17 11 C 44 %
3578 04-10-2020 20:17:17 10.9 C 44 %
3579 04-10-2020 20:27:17 11 C 44 %
3580 04-10-2020 20:37:17 10.9 C 45 %
3581 04-10-2020 20:47:18 10.8 C 45 %
3582 04-10-2020 20:57:18 10.8 C 45 %
3583 04-10-2020 21:07:17 10.8 C 45 %
3584 04-10-2020 21:17:17 10.6 C 45 %
3585 04-10-2020 21:27:17 10.4 C 45 %
3586 04-10-2020 21:37:17 10 C 45 %
3587 04-10-2020 21:47:17 10.3 C 45 %
3588 04-10-2020 21:57:17 10 C 44 %
3589 04-10-2020 22:07:17 9.7 C 45 %
3590 04-10-2020 22:17:17 9.4 C 45 %
3591 04-10-2020 22:27:17 9.2 C 45 %
3592 04-10-2020 22:37:17 9 C 45 %
3593 04-10-2020 22:47:18 9 C 45 %
3594 04-10-2020 22:57:18 8.9 C 45 %
3595 04-10-2020 23:07:18 8.6 C 45 %
3596 04-10-2020 23:17:17 8.6 C 45 %
3597 04-10-2020 23:27:17 8.5 C 45 %
3598 04-10-2020 23:37:18 8.3 C 44 %
3599 04-10-2020 23:47:17 8.3 C 44 %
3600 04-10-2020 23:57:17 8.2 C 44 %
Sensor: Nr:Datum:Temp:Feuchte:
Aussen-T/F 3601 05-10-2020 00:07:18 8.3 C 44 %
3602 05-10-2020 00:17:17 8.2 C 44 %
3603 05-10-2020 00:27:17 8.1 C 44 %
3604 05-10-2020 00:37:18 8.1 C 44 %
3605 05-10-2020 00:47:17 7.9 C 44 %
3606 05-10-2020 00:57:17 8 C 44 %
3607 05-10-2020 01:07:18 7.9 C 44 %
3608 05-10-2020 01:17:17 7.9 C 44 %
3609 05-10-2020 01:27:17 8.3 C 43 %
3610 05-10-2020 01:37:18 8.9 C 43 %
3611 05-10-2020 01:47:17 8.9 C 43 %
3612 05-10-2020 01:57:17 8.6 C 43 %
3613 05-10-2020 02:07:18 8.9 C 43 %
3614 05-10-2020 02:17:17 8.9 C 43 %
3615 05-10-2020 02:27:17 8.9 C 43 %
3616 05-10-2020 02:37:17 9.1 C 42 %
3617 05-10-2020 02:47:17 9.2 C 42 %
3618 05-10-2020 02:57:18 9.1 C 42 %
3619 05-10-2020 03:07:18 8.8 C 43 %
3620 05-10-2020 03:17:18 8.8 C 43 %
3621 05-10-2020 03:27:18 8.4 C 43 %
3622 05-10-2020 03:37:18 8.4 C 43 %
3623 05-10-2020 03:47:17 8.3 C 43 %
3624 05-10-2020 03:57:17 8.4 C 43 %
3625 05-10-2020 04:07:17 8.4 C 43 %
Sensor: Nr:Datum:Temp:Feuchte:
Aussen-T/F 3626 05-10-2020 04:17:18 8.4 C 43 %
3627 05-10-2020 04:27:18 8.7 C 43 %
3628 05-10-2020 04:37:18 8.6 C 43 %
3629 05-10-2020 04:47:18 8.5 C 43 %
3630 05-10-2020 04:57:18 8.3 C 43 %
3631 05-10-2020 05:07:18 8.2 C 43 %
3632 05-10-2020 05:17:17 8.2 C 43 %
3633 05-10-2020 05:27:17 8 C 43 %
3634 05-10-2020 05:37:17 8.1 C 43 %
3635 05-10-2020 05:47:18 8.1 C 43 %
3636 05-10-2020 05:57:18 8.1 C 43 %
3637 05-10-2020 06:07:17 8.2 C 43 %
3638 05-10-2020 06:17:17 8.3 C 43 %
3639 05-10-2020 06:27:17 8.2 C 43 %
3640 05-10-2020 06:37:17 8.2 C 43 %
3641 05-10-2020 06:47:17 8.2 C 43 %
3642 05-10-2020 06:57:17 8.4 C 43 %
3643 05-10-2020 07:07:17 8.4 C 43 %
3644 05-10-2020 07:17:18 8.6 C 43 %
3645 05-10-2020 07:27:18 8.6 C 43 %
3646 05-10-2020 07:37:18 8.6 C 43 %
3647 05-10-2020 07:47:17 8.6 C 43 %
3648 05-10-2020 07:57:17 8.6 C 43 %
3649 05-10-2020 08:07:17 8.8 C 43 %
3650 05-10-2020 08:17:17 8.9 C 43 %
Sensor: Nr:Datum:Temp:Feuchte:
Aussen-T/F 3651 05-10-2020 08:27:17 9 C 43 %
3652 05-10-2020 08:37:18 9.2 C 43 %
3653 05-10-2020 08:47:18 9.3 C 43 %
3654 05-10-2020 08:57:18 9.6 C 43 %
3655 05-10-2020 09:07:17 9.9 C 44 %
3656 05-10-2020 09:17:17 10.3 C 43 %
3657 05-10-2020 09:27:17 10.6 C 42 %
3658 05-10-2020 09:37:17 10.7 C 41 %
3659 05-10-2020 09:47:17 10.5 C 42 %
3660 05-10-2020 09:57:17 10.5 C 41 %
3661 05-10-2020 10:07:17 10.8 C 39 %
3662 05-10-2020 10:17:17 10.7 C 40 %
3663 05-10-2020 10:27:17 10.9 C 41 %
3664 05-10-2020 10:37:17 11.1 C 38 %
3665 05-10-2020 10:47:17 11.3 C 38 %
3666 05-10-2020 10:57:17 11.5 C 37 %
3667 05-10-2020 11:07:17 11.9 C 37 %
3668 05-10-2020 11:17:17 12.2 C 36 %
3669 05-10-2020 11:27:17 12.7 C 35 %
3670 05-10-2020 11:37:18 12.8 C 35 %
3671 05-10-2020 11:47:18 12.8 C 35 %
3672 05-10-2020 11:57:18 13.5 C 34 %
3673 05-10-2020 12:07:17 13.5 C 33 %
3674 05-10-2020 12:17:17 13.5 C 33 %
3675 05-10-2020 12:27:18 13.4 C 33 %
Sensor: Nr:Datum:Temp:Feuchte:
Aussen-T/F 3676 05-10-2020 12:37:17 13.3 C 33 %
3677 05-10-2020 12:47:17 13.4 C 33 %
3678 05-10-2020 12:57:17 12.6 C 35 %
3679 05-10-2020 13:07:17 12.2 C 35 %
3680 05-10-2020 13:17:17 13 C 35 %
3681 05-10-2020 13:27:17 13.1 C 34 %
3682 05-10-2020 13:37:17 12 C 36 %
3683 05-10-2020 13:47:18 11.8 C 38 %
3684 05-10-2020 13:57:18 11.7 C 38 %
3685 05-10-2020 14:07:17 11.8 C 39 %
3686 05-10-2020 14:17:17 13.1 C 37 %
3687 05-10-2020 14:27:17 14 C 34 %
3688 05-10-2020 14:37:17 14.2 C 34 %
3689 05-10-2020 14:47:17 15.1 C 33 %
3690 05-10-2020 14:57:17 14.7 C 34 %
3691 05-10-2020 15:07:18 15 C 33 %
3692 05-10-2020 15:17:18 14.6 C 33 %
3693 05-10-2020 15:27:18 14.7 C 34 %
3694 05-10-2020 15:37:17 14.6 C 33 %
3695 05-10-2020 15:47:17 15.1 C 32 %
3696 05-10-2020 15:57:17 14.7 C 33 %
3697 05-10-2020 16:07:18 14.6 C 33 %
3698 05-10-2020 16:17:17 15 C 32 %
3699 05-10-2020 16:27:17 16.1 C 31 %
3700 05-10-2020 16:37:17 14.9 C 32 %
Sensor: Nr:Datum:Temp:Feuchte:
Aussen-T/F 3701 05-10-2020 16:47:17 14.3 C 32 %
3702 05-10-2020 16:57:17 14 C 32 %
3703 05-10-2020 17:07:17 13.7 C 34 %
3704 05-10-2020 17:17:17 13.6 C 34 %
3705 05-10-2020 17:27:17 13.7 C 34 %
3706 05-10-2020 17:37:17 13.7 C 34 %
3707 05-10-2020 17:47:17 13.5 C 34 %
3708 05-10-2020 17:57:17 13.4 C 34 %
3709 05-10-2020 18:07:17 13.4 C 34 %
3710 05-10-2020 18:17:17 13.3 C 34 %
3711 05-10-2020 18:27:17 13.1 C 35 %
3712 05-10-2020 18:37:18 13.1 C 35 %
3713 05-10-2020 18:47:17 13 C 35 %
3714 05-10-2020 18:57:17 12.7 C 36 %
3715 05-10-2020 19:07:17 12.6 C 36 %
3716 05-10-2020 19:17:18 12.1 C 37 %
3717 05-10-2020 19:27:18 12 C 38 %
3718 05-10-2020 19:37:18 11.7 C 40 %
3719 05-10-2020 19:47:17 11.9 C 40 %
3720 05-10-2020 19:57:17 11.7 C 39 %
3721 05-10-2020 20:07:18 11.7 C 40 %
3722 05-10-2020 20:17:17 11.6 C 40 %
3723 05-10-2020 20:27:17 11.3 C 40 %
3724 05-10-2020 20:37:18 11.3 C 40 %
3725 05-10-2020 20:47:17 11.4 C 40 %
Sensor: Nr:Datum:Temp:Feuchte:
Aussen-T/F 3726 05-10-2020 20:57:17 11.9 C 40 %
3727 05-10-2020 21:07:17 11.7 C 40 %
3728 05-10-2020 21:17:17 11.3 C 42 %
3729 05-10-2020 21:27:17 11.2 C 43 %
3730 05-10-2020 21:37:17 11.2 C 43 %
3731 05-10-2020 21:47:17 11.3 C 43 %
3732 05-10-2020 21:57:17 11.2 C 43 %
3733 05-10-2020 22:07:17 11.2 C 44 %
3734 05-10-2020 22:17:17 11 C 44 %
3735 05-10-2020 22:27:18 10.9 C 45 %
3736 05-10-2020 22:37:17 10.5 C 45 %
3737 05-10-2020 22:47:17 10.7 C 45 %
3738 05-10-2020 22:57:17 10.9 C 45 %
3739 05-10-2020 23:07:18 11.1 C 43 %
3740 05-10-2020 23:17:17 11.1 C 43 %
3741 05-10-2020 23:27:17 11.1 C 43 %
3742 05-10-2020 23:37:17 11.2 C 43 %
3743 05-10-2020 23:47:17 11.2 C 43 %
3744 05-10-2020 23:57:17 11.4 C 43 %
3745 06-10-2020 00:07:17 11.4 C 43 %
3746 06-10-2020 00:17:18 11.3 C 43 %
3747 06-10-2020 00:27:18 11.2 C 43 %
3748 06-10-2020 00:37:18 11.3 C 43 %
3749 06-10-2020 00:47:18 11.4 C 43 %
3750 06-10-2020 00:57:18 11.4 C 43 %
Sensor: Nr:Datum:Temp:Feuchte:
Aussen-T/F 3751 06-10-2020 01:07:18 11.4 C 43 %
3752 06-10-2020 01:17:17 11.4 C 43 %
3753 06-10-2020 01:27:17 11.4 C 43 %
3754 06-10-2020 01:37:17 11.4 C 43 %
3755 06-10-2020 01:47:17 11.4 C 43 %
3756 06-10-2020 01:57:17 11.4 C 43 %
3757 06-10-2020 02:07:17 11.5 C 43 %
3758 06-10-2020 02:17:18 11.4 C 43 %
3759 06-10-2020 02:27:18 11.4 C 43 %
3760 06-10-2020 02:37:18 11.4 C 43 %
3761 06-10-2020 02:47:17 11.5 C 43 %
3762 06-10-2020 02:57:17 11.4 C 43 %
3763 06-10-2020 03:07:17 11.5 C 43 %
3764 06-10-2020 03:17:17 11.5 C 43 %
3765 06-10-2020 03:27:17 11.6 C 43 %
3766 06-10-2020 03:37:17 11.8 C 43 %
3767 06-10-2020 03:47:17 12.1 C 42 %
3768 06-10-2020 03:57:17 12.2 C 42 %
3769 06-10-2020 04:07:17 12.3 C 40 %
3770 06-10-2020 04:17:17 12.2 C 40 %
3771 06-10-2020 04:27:18 12.2 C 41 %
3772 06-10-2020 04:37:17 12.3 C 40 %
3773 06-10-2020 04:47:17 12.3 C 39 %
3774 06-10-2020 04:57:17 12.1 C 39 %
3775 06-10-2020 05:07:17 12.3 C 39 %
Sensor: Nr:Datum:Temp:Feuchte:
Aussen-T/F 3776 06-10-2020 05:17:17 12.2 C 38 %
3777 06-10-2020 05:27:17 12 C 38 %
3778 06-10-2020 05:37:17 11.9 C 39 %
3779 06-10-2020 05:47:17 11.8 C 38 %
3780 06-10-2020 05:57:17 11.7 C 38 %
3781 06-10-2020 06:07:18 11.7 C 38 %
3782 06-10-2020 06:17:17 11.6 C 38 %
3783 06-10-2020 06:27:17 11.5 C 38 %
3784 06-10-2020 06:37:18 11.6 C 38 %
3785 06-10-2020 06:47:17 11.4 C 38 %
3786 06-10-2020 06:57:17 11.4 C 38 %
3787 06-10-2020 07:07:18 11.2 C 38 %
3788 06-10-2020 07:17:18 11.4 C 38 %
3789 06-10-2020 07:27:18 11.2 C 38 %
3790 06-10-2020 07:37:17 11 C 38 %
3791 06-10-2020 07:47:17 11.3 C 38 %
3792 06-10-2020 07:57:17 11.5 C 37 %
3793 06-10-2020 08:07:17 11.3 C 38 %
3794 06-10-2020 08:17:18 11.5 C 37 %
3795 06-10-2020 08:27:18 11.6 C 37 %
3796 06-10-2020 08:37:18 11.8 C 37 %
3797 06-10-2020 08:47:17 11.8 C 37 %
3798 06-10-2020 08:57:17 12.1 C 36 %
3799 06-10-2020 09:07:18 12.4 C 36 %
3800 06-10-2020 09:17:18 12.6 C 36 %
Sensor: Nr:Datum:Temp:Feuchte:
Aussen-T/F 3801 06-10-2020 09:27:18 12.7 C 36 %
3802 06-10-2020 09:37:17 12.9 C 36 %
3803 06-10-2020 09:47:17 12.8 C 36 %
3804 06-10-2020 09:57:17 12.9 C 36 %
3805 06-10-2020 10:07:17 13 C 35 %
3806 06-10-2020 10:17:17 13.1 C 35 %
3807 06-10-2020 10:27:17 13.2 C 35 %
3808 06-10-2020 10:37:17 14 C 35 %
3809 06-10-2020 10:47:17 14.2 C 34 %
3810 06-10-2020 10:57:17 14.2 C 34 %
3811 06-10-2020 11:07:17 13.6 C 35 %
3812 06-10-2020 11:17:18 13.6 C 35 %
3813 06-10-2020 11:27:18 14.1 C 34 %
3814 06-10-2020 11:37:18 13.6 C 35 %
3815 06-10-2020 11:47:18 13.2 C 36 %
3816 06-10-2020 11:57:18 14.4 C 35 %
3817 06-10-2020 12:07:18 15.2 C 34 %
3818 06-10-2020 12:17:17 16.1 C 32 %
3819 06-10-2020 12:27:17 15.3 C 33 %
3820 06-10-2020 12:37:18 15.4 C 33 %
3821 06-10-2020 12:47:18 16 C 32 %
3822 06-10-2020 12:57:18 15.6 C 32 %
3823 06-10-2020 13:07:17 15.7 C 33 %
3824 06-10-2020 13:17:17 15.6 C 33 %
3825 06-10-2020 13:27:18 15.6 C 33 %
Sensor: Nr:Datum:Temp:Feuchte:
Aussen-T/F 3826 06-10-2020 13:37:18 15.8 C 33 %
3827 06-10-2020 13:47:17 15.4 C 33 %
3828 06-10-2020 13:57:17 15.5 C 34 %
3829 06-10-2020 14:07:17 15.6 C 34 %
3830 06-10-2020 14:17:17 14.2 C 36 %
3831 06-10-2020 14:27:17 14.4 C 36 %
3832 06-10-2020 14:37:17 15.7 C 35 %
3833 06-10-2020 14:47:17 15.9 C 35 %
3834 06-10-2020 14:57:17 15.8 C 33 %
3835 06-10-2020 15:07:18 15.6 C 33 %
3836 06-10-2020 15:17:17 14.8 C 34 %
3837 06-10-2020 15:27:17 14.9 C 35 %
3838 06-10-2020 15:37:18 15.4 C 34 %
3839 06-10-2020 15:47:18 16.3 C 32 %
3840 06-10-2020 15:57:18 16.2 C 32 %
3841 06-10-2020 16:07:18 15.9 C 33 %
3842 06-10-2020 16:17:17 15.8 C 32 %
3843 06-10-2020 16:27:17 15.5 C 33 %
3844 06-10-2020 16:37:17 14.8 C 34 %
3845 06-10-2020 16:47:18 15.2 C 33 %
3846 06-10-2020 16:57:18 15.4 C 33 %
3847 06-10-2020 17:07:18 15.2 C 33 %
3848 06-10-2020 17:17:17 15 C 33 %
3849 06-10-2020 17:27:17 14.3 C 35 %
3850 06-10-2020 17:37:17 13.7 C 37 %
Sensor: Nr:Datum:Temp:Feuchte:
Aussen-T/F 3851 06-10-2020 17:47:17 13.1 C 38 %
3852 06-10-2020 17:57:18 13.1 C 39 %
3853 06-10-2020 18:07:17 13.1 C 38 %
3854 06-10-2020 18:17:17 12.9 C 40 %
3855 06-10-2020 18:27:17 12.8 C 39 %
3856 06-10-2020 18:37:18 13.1 C 37 %
3857 06-10-2020 18:47:17 13 C 37 %
3858 06-10-2020 18:57:17 12.8 C 38 %
3859 06-10-2020 19:07:17 13 C 37 %
3860 06-10-2020 19:17:17 12.9 C 37 %
3861 06-10-2020 19:27:17 12.9 C 37 %
3862 06-10-2020 19:37:18 13.1 C 36 %
3863 06-10-2020 19:47:17 12.9 C 37 %
3864 06-10-2020 19:57:17 12.5 C 38 %
3865 06-10-2020 20:07:17 12.5 C 38 %
3866 06-10-2020 20:17:17 12.7 C 37 %
3867 06-10-2020 20:27:17 12.2 C 39 %
3868 06-10-2020 20:37:18 12.3 C 38 %
3869 06-10-2020 20:47:17 12.5 C 38 %
3870 06-10-2020 20:57:18 12.5 C 38 %
3871 06-10-2020 21:07:18 12.4 C 38 %
3872 06-10-2020 21:17:17 12.1 C 38 %
3873 06-10-2020 21:27:17 12.4 C 38 %
3874 06-10-2020 21:37:17 12.6 C 37 %
3875 06-10-2020 21:47:17 12.7 C 37 %
Sensor: Nr:Datum:Temp:Feuchte:
Aussen-T/F 3876 06-10-2020 21:57:18 12.6 C 37 %
3877 06-10-2020 22:07:17 12.5 C 37 %
3878 06-10-2020 22:17:18 12.4 C 37 %
3879 06-10-2020 22:27:18 12.6 C 37 %
3880 06-10-2020 22:37:18 12.7 C 37 %
3881 06-10-2020 22:47:18 12.7 C 37 %
3882 06-10-2020 22:57:18 12.6 C 37 %
3883 06-10-2020 23:07:18 12.6 C 37 %
3884 06-10-2020 23:17:18 12.6 C 37 %
3885 06-10-2020 23:27:18 12.4 C 37 %
3886 06-10-2020 23:37:17 12.4 C 37 %
3887 06-10-2020 23:47:17 12.2 C 37 %
3888 06-10-2020 23:57:17 12 C 37 %
3889 07-10-2020 00:07:17 12 C 37 %
3890 07-10-2020 00:17:17 11.8 C 38 %
3891 07-10-2020 00:27:17 11.9 C 38 %
3892 07-10-2020 00:37:17 11.8 C 38 %
3893 07-10-2020 00:47:17 11.8 C 38 %
3894 07-10-2020 00:57:17 11.9 C 38 %
3895 07-10-2020 01:07:17 12 C 37 %
3896 07-10-2020 01:17:18 12 C 37 %
3897 07-10-2020 01:27:18 12.2 C 37 %
3898 07-10-2020 01:37:18 12.1 C 37 %
3899 07-10-2020 01:47:17 11.7 C 39 %
3900 07-10-2020 01:57:17 11.4 C 40 %
Sensor: Nr:Datum:Temp:Feuchte:
Aussen-T/F 3901 07-10-2020 02:07:17 11.2 C 40 %
3902 07-10-2020 02:17:17 11.5 C 40 %
3903 07-10-2020 02:27:17 11.3 C 40 %
3904 07-10-2020 02:37:18 11.3 C 40 %
3905 07-10-2020 02:47:17 11.3 C 40 %
3906 07-10-2020 02:57:17 11.5 C 40 %
3907 07-10-2020 03:07:17 11.4 C 40 %
3908 07-10-2020 03:17:17 11.7 C 39 %
3909 07-10-2020 03:27:17 11.8 C 39 %
3910 07-10-2020 03:37:17 11.8 C 39 %
3911 07-10-2020 03:47:17 12 C 37 %
3912 07-10-2020 03:57:17 11.9 C 38 %
3913 07-10-2020 04:07:17 12 C 37 %
3914 07-10-2020 04:17:18 11.9 C 38 %
3915 07-10-2020 04:27:18 12 C 37 %
3916 07-10-2020 04:37:17 12.1 C 37 %
3917 07-10-2020 04:47:17 12 C 37 %
3918 07-10-2020 04:57:17 12.1 C 37 %
3919 07-10-2020 05:07:17 11.7 C 38 %
3920 07-10-2020 05:17:17 11.9 C 38 %
3921 07-10-2020 05:27:18 12 C 37 %
3922 07-10-2020 05:37:18 11.6 C 38 %
3923 07-10-2020 05:47:18 12 C 37 %
3924 07-10-2020 05:57:18 11.8 C 38 %
3925 07-10-2020 06:07:17 12 C 37 %
Sensor: Nr:Datum:Temp:Feuchte:
Aussen-T/F 3926 07-10-2020 06:17:17 11.8 C 38 %
3927 07-10-2020 06:27:17 11.8 C 38 %
3928 07-10-2020 06:37:17 11.5 C 39 %
3929 07-10-2020 06:47:17 11.6 C 39 %
3930 07-10-2020 06:57:17 11.7 C 39 %
3931 07-10-2020 07:07:17 11.8 C 38 %
3932 07-10-2020 07:17:18 11.9 C 38 %
3933 07-10-2020 07:27:18 12.1 C 37 %
3934 07-10-2020 07:37:18 12.1 C 37 %
3935 07-10-2020 07:47:18 12.2 C 37 %
3936 07-10-2020 07:57:18 12.3 C 37 %
3937 07-10-2020 08:07:17 12.4 C 36 %
3938 07-10-2020 08:17:17 12.4 C 36 %
3939 07-10-2020 08:27:17 12.5 C 36 %
3940 07-10-2020 08:37:18 12.5 C 36 %
3941 07-10-2020 08:47:17 12.5 C 36 %
3942 07-10-2020 08:57:17 12.5 C 36 %
3943 07-10-2020 09:07:17 12.5 C 36 %
3944 07-10-2020 09:17:17 12.6 C 36 %
3945 07-10-2020 09:27:17 12.7 C 36 %
3946 07-10-2020 09:37:17 12.8 C 36 %
3947 07-10-2020 09:47:17 12.8 C 36 %
3948 07-10-2020 09:57:17 12.9 C 36 %
3949 07-10-2020 10:07:18 13 C 35 %
3950 07-10-2020 10:17:18 13.2 C 35 %
Sensor: Nr:Datum:Temp:Feuchte:
Aussen-T/F 3951 07-10-2020 10:27:18 13.4 C 35 %
3952 07-10-2020 10:37:18 13.5 C 35 %
3953 07-10-2020 10:47:17 13.5 C 34 %
3954 07-10-2020 10:57:17 13.5 C 34 %
3955 07-10-2020 11:07:18 13.3 C 34 %
3956 07-10-2020 11:17:17 13.7 C 34 %
3957 07-10-2020 11:27:17 14 C 31 %
3958 07-10-2020 11:37:17 14 C 32 %
3959 07-10-2020 11:47:17 14.3 C 32 %
3960 07-10-2020 11:57:17 15.3 C 30 %
3961 07-10-2020 12:07:18 15.3 C 30 %
3962 07-10-2020 12:17:17 14.7 C 31 %
3963 07-10-2020 12:27:17 15.1 C 30 %
3964 07-10-2020 12:37:17 14.7 C 31 %
3965 07-10-2020 12:47:17 15 C 30 %
3966 07-10-2020 12:57:18 15.7 C 30 %
3967 07-10-2020 13:07:17 15.5 C 30 %
3968 07-10-2020 13:17:18 15.1 C 30 %
3969 07-10-2020 13:27:18 15.1 C 30 %
3970 07-10-2020 13:37:17 15.2 C 30 %
3971 07-10-2020 13:47:17 15.5 C 30 %
3972 07-10-2020 13:57:17 15.7 C 30 %
3973 07-10-2020 14:07:17 15.4 C 30 %
3974 07-10-2020 14:17:18 15.4 C 30 %
3975 07-10-2020 14:27:18 15.4 C 30 %
Sensor: Nr:Datum:Temp:Feuchte:
Aussen-T/F 3976 07-10-2020 14:37:17 15.1 C 30 %
3977 07-10-2020 14:47:17 13.6 C 33 %
3978 07-10-2020 14:57:17 13.4 C 35 %
3979 07-10-2020 15:07:17 14 C 34 %
3980 07-10-2020 15:17:18 14.3 C 33 %
3981 07-10-2020 15:27:18 14.2 C 33 %
3982 07-10-2020 15:37:18 14.3 C 33 %
3983 07-10-2020 15:47:17 14.7 C 33 %
3984 07-10-2020 15:57:18 15 C 32 %
3985 07-10-2020 16:07:17 15 C 32 %
3986 07-10-2020 16:17:17 14.9 C 33 %
3987 07-10-2020 16:27:17 14.7 C 33 %
3988 07-10-2020 16:37:17 14.9 C 32 %
3989 07-10-2020 16:47:17 15 C 31 %
3990 07-10-2020 16:57:17 14.7 C 32 %
3991 07-10-2020 17:07:18 15 C 31 %
3992 07-10-2020 17:17:17 15.2 C 31 %
3993 07-10-2020 17:27:17 15 C 31 %
3994 07-10-2020 17:37:17 14.9 C 31 %
3995 07-10-2020 17:47:17 14.7 C 32 %
3996 07-10-2020 17:57:17 14.7 C 31 %
3997 07-10-2020 18:07:18 14.7 C 31 %
3998 07-10-2020 18:17:17 14.7 C 31 %
3999 07-10-2020 18:27:17 14.2 C 32 %
4000 07-10-2020 18:37:18 14.2 C 32 %
Sensor: Nr:Datum:Temp:Feuchte:
Aussen-T/F 4001 07-10-2020 18:47:17 13.8 C 33 %
4002 07-10-2020 18:57:17 14 C 31 %
4003 07-10-2020 19:07:17 14 C 31 %
4004 07-10-2020 19:17:17 14.1 C 30 %
4005 07-10-2020 19:27:17 14.2 C 30 %
4006 07-10-2020 19:37:17 14.1 C 30 %
4007 07-10-2020 19:47:17 14.1 C 30 %
4008 07-10-2020 19:57:17 13.9 C 31 %
4009 07-10-2020 20:07:18 13.8 C 31 %
4010 07-10-2020 20:17:17 13.5 C 31 %
4011 07-10-2020 20:27:17 13.5 C 31 %
4012 07-10-2020 20:37:18 13.2 C 31 %
4013 07-10-2020 20:47:17 13 C 31 %
4014 07-10-2020 20:57:17 12.8 C 33 %
4015 07-10-2020 21:07:17 12.7 C 33 %
4016 07-10-2020 21:17:17 12.9 C 33 %
4017 07-10-2020 21:27:17 12.8 C 33 %
4018 07-10-2020 21:37:17 12.6 C 33 %
4019 07-10-2020 21:47:17 12.2 C 34 %
4020 07-10-2020 21:57:17 12.1 C 35 %
4021 07-10-2020 22:07:17 12.2 C 35 %
4022 07-10-2020 22:17:17 12.2 C 35 %
4023 07-10-2020 22:27:17 12.2 C 35 %
4024 07-10-2020 22:37:17 11.9 C 36 %
4025 07-10-2020 22:47:17 12 C 35 %
Sensor: Nr:Datum:Temp:Feuchte:
Aussen-T/F 4026 07-10-2020 22:57:18 11.7 C 36 %
4027 07-10-2020 23:07:18 11.8 C 36 %
4028 07-10-2020 23:17:17 11.7 C 36 %
4029 07-10-2020 23:27:18 11.2 C 37 %
4030 07-10-2020 23:37:17 10.7 C 38 %
4031 07-10-2020 23:47:17 10 C 40 %
4032 07-10-2020 23:57:17 9.8 C 41 %
4033 08-10-2020 00:07:18 9.6 C 41 %
4034 08-10-2020 00:17:17 9.8 C 41 %
4035 08-10-2020 00:27:17 10.1 C 40 %
4036 08-10-2020 00:37:17 9.7 C 40 %
4037 08-10-2020 00:47:17 9.3 C 41 %
4038 08-10-2020 00:57:17 9 C 42 %
4039 08-10-2020 01:07:18 8.7 C 43 %
4040 08-10-2020 01:17:18 9 C 42 %
4041 08-10-2020 01:27:18 8.7 C 43 %
4042 08-10-2020 01:37:17 8.6 C 43 %
4043 08-10-2020 01:47:18 8.4 C 44 %
4044 08-10-2020 01:57:18 8.7 C 44 %
4045 08-10-2020 02:07:18 8.5 C 44 %
4046 08-10-2020 02:17:18 8.2 C 44 %
4047 08-10-2020 02:27:18 8.2 C 44 %
4048 08-10-2020 02:37:18 7.9 C 45 %
4049 08-10-2020 02:47:18 7.8 C 45 %
4050 08-10-2020 02:57:18 7.9 C 45 %
Sensor: Nr:Datum:Temp:Feuchte:
Aussen-T/F 4051 08-10-2020 03:07:17 7.8 C 46 %
4052 08-10-2020 03:17:17 7.7 C 45 %
4053 08-10-2020 03:27:18 7.5 C 45 %
4054 08-10-2020 03:37:18 7.6 C 46 %
4055 08-10-2020 03:47:17 7.8 C 46 %
4056 08-10-2020 03:57:17 8 C 45 %
4057 08-10-2020 04:07:18 7.9 C 46 %
4058 08-10-2020 04:18:17 7.9 C 46 %
4059 08-10-2020 04:27:17 8 C 45 %
4060 08-10-2020 04:37:17 8.1 C 45 %
4061 08-10-2020 04:47:18 8.2 C 45 %
4062 08-10-2020 04:57:18 8.5 C 45 %
4063 08-10-2020 05:07:17 8.6 C 45 %
4064 08-10-2020 05:17:17 8.8 C 45 %
4065 08-10-2020 05:27:17 8.9 C 45 %
4066 08-10-2020 05:37:18 8.9 C 45 %
4067 08-10-2020 05:47:17 9 C 45 %
4068 08-10-2020 05:57:17 9.1 C 45 %
4069 08-10-2020 06:07:17 9.3 C 45 %
4070 08-10-2020 06:17:18 9.3 C 45 %
4071 08-10-2020 06:27:18 9.4 C 45 %
4072 08-10-2020 06:37:17 9.3 C 44 %
4073 08-10-2020 06:47:18 9.5 C 44 %
4074 08-10-2020 06:57:18 9.5 C 44 %
4075 08-10-2020 07:07:18 9.5 C 44 %
Sensor: Nr:Datum:Temp:Feuchte:
Aussen-T/F 4076 08-10-2020 07:17:17 9.6 C 44 %
4077 08-10-2020 07:27:17 9.6 C 44 %
4078 08-10-2020 07:37:18 9.7 C 44 %
4079 08-10-2020 07:47:18 9.8 C 44 %
4080 08-10-2020 07:57:18 10 C 43 %
4081 08-10-2020 08:07:18 10.1 C 43 %
4082 08-10-2020 08:17:18 10.2 C 43 %
4083 08-10-2020 08:27:18 10.6 C 43 %
4084 08-10-2020 08:37:18 10.8 C 43 %
4085 08-10-2020 08:47:17 11 C 42 %
4086 08-10-2020 08:57:17 11.2 C 42 %
4087 08-10-2020 09:07:17 11.3 C 42 %
4088 08-10-2020 09:17:17 11.6 C 42 %
4089 08-10-2020 09:27:17 11.7 C 42 %
4090 08-10-2020 09:37:17 12 C 41 %
4091 08-10-2020 09:47:17 12.1 C 41 %
4092 08-10-2020 09:57:17 12.4 C 42 %
4093 08-10-2020 10:07:18 12.4 C 42 %
4094 08-10-2020 10:18:17 12.6 C 42 %
4095 08-10-2020 10:28:17 12.7 C 41 %
4096 08-10-2020 10:37:18 13.1 C 38 %
4097 08-10-2020 10:47:18 13.4 C 38 %
4098 08-10-2020 10:57:18 14.2 C 37 %
4099 08-10-2020 11:07:17 14.8 C 36 %
4100 08-10-2020 11:17:17 14.5 C 36 %
Sensor: Nr:Datum:Temp:Feuchte:
Aussen-T/F 4101 08-10-2020 11:27:17 14.9 C 35 %
4102 08-10-2020 11:37:18 15.2 C 35 %
4103 08-10-2020 11:47:17 15.5 C 34 %
4104 08-10-2020 11:57:18 15.7 C 34 %
4105 08-10-2020 12:07:18 15.4 C 33 %
4106 08-10-2020 12:17:18 16.8 C 32 %
4107 08-10-2020 12:27:18 16.2 C 32 %
4108 08-10-2020 12:37:18 16 C 32 %
4109 08-10-2020 12:48:17 16.1 C 32 %
4110 08-10-2020 12:58:17 16.4 C 32 %
4111 08-10-2020 13:07:18 15.8 C 33 %
4112 08-10-2020 13:17:17 16.3 C 33 %
4113 08-10-2020 13:27:18 16.4 C 32 %
4114 08-10-2020 13:37:18 16.1 C 32 %
4115 08-10-2020 13:47:17 15.9 C 33 %
4116 08-10-2020 13:57:17 16.3 C 33 %
4117 08-10-2020 14:07:18 16.6 C 32 %
4118 08-10-2020 14:18:17 16.8 C 32 %
4119 08-10-2020 14:28:17 17.5 C 31 %
4120 08-10-2020 14:37:17 16.7 C 32 %
4121 08-10-2020 14:47:18 16.1 C 32 %
4122 08-10-2020 14:57:18 16.6 C 32 %
4123 08-10-2020 15:08:17 17.1 C 31 %
4124 08-10-2020 15:18:17 16.7 C 32 %
4125 08-10-2020 15:27:17 16.3 C 32 %
Sensor: Nr:Datum:Temp:Feuchte:
Aussen-T/F 4126 08-10-2020 15:37:18 16.7 C 32 %
4127 08-10-2020 15:48:17 17.1 C 31 %
4128 08-10-2020 15:58:17 17.2 C 31 %
4129 08-10-2020 16:07:18 16.8 C 32 %
4130 08-10-2020 16:18:17 16.3 C 32 %
4131 08-10-2020 16:28:17 16.2 C 33 %
4132 08-10-2020 16:38:17 16.4 C 32 %
4133 08-10-2020 16:48:17 16.4 C 32 %
4134 08-10-2020 16:58:17 16.9 C 32 %
4135 08-10-2020 17:08:18 16.7 C 32 %
4136 08-10-2020 17:18:18 16.7 C 32 %
4137 08-10-2020 17:27:18 16.7 C 32 %
4138 08-10-2020 17:38:18 16.7 C 32 %
4139 08-10-2020 17:48:17 16.8 C 32 %
4140 08-10-2020 17:58:18 16.8 C 32 %
4141 08-10-2020 18:07:18 16.7 C 32 %
4142 08-10-2020 18:18:17 16.6 C 32 %
4143 08-10-2020 18:28:17 16.4 C 33 %
4144 08-10-2020 18:38:17 16.5 C 32 %
4145 08-10-2020 18:48:17 16.3 C 33 %
4146 08-10-2020 18:58:17 16.4 C 33 %
4147 08-10-2020 19:08:17 16.3 C 33 %
4148 08-10-2020 19:18:17 16.1 C 33 %
4149 08-10-2020 19:28:18 16.4 C 33 %
4150 08-10-2020 19:38:18 16.2 C 33 %
Sensor: Nr:Datum:Temp:Feuchte:
Aussen-T/F 4151 08-10-2020 19:48:17 16 C 33 %
4152 08-10-2020 19:58:17 16.2 C 33 %
4153 08-10-2020 20:08:18 16.2 C 33 %
4154 08-10-2020 20:18:18 16.2 C 33 %
4155 08-10-2020 20:28:18 16.4 C 33 %
4156 08-10-2020 20:38:18 16.2 C 33 %
4157 08-10-2020 20:48:17 16.1 C 34 %
4158 08-10-2020 20:58:17 15.8 C 35 %
4159 08-10-2020 21:08:18 16 C 34 %
4160 08-10-2020 21:18:18 16.1 C 34 %
4161 08-10-2020 21:28:18 16.3 C 34 %
4162 08-10-2020 21:38:18 16.3 C 34 %
4163 08-10-2020 21:48:18 16.4 C 34 %
4164 08-10-2020 21:58:18 16.4 C 34 %
4165 08-10-2020 22:07:18 16.4 C 34 %
4166 08-10-2020 22:18:17 16.4 C 34 %
4167 08-10-2020 22:28:17 16.4 C 34 %
4168 08-10-2020 22:38:18 16.4 C 34 %
4169 08-10-2020 22:47:18 16.3 C 34 %
4170 08-10-2020 22:57:18 16 C 34 %
4171 08-10-2020 23:08:18 16.1 C 35 %
4172 08-10-2020 23:18:17 16.1 C 34 %
4173 08-10-2020 23:28:17 16.2 C 34 %
4174 08-10-2020 23:38:17 16.2 C 34 %
4175 08-10-2020 23:48:18 16.3 C 34 %
Sensor: Nr:Datum:Temp:Feuchte:
Aussen-T/F 4176 08-10-2020 23:58:18 16.2 C 34 %
Sensor: Nr:Datum:Temp:Feuchte:
G-T/H 1 10-09-2020 00:05:18 18.7 C 63 %
2 10-09-2020 00:15:17 18.7 C 63 %
3 10-09-2020 00:25:17 18.7 C 63 %
4 10-09-2020 00:35:18 18.7 C 63 %
5 10-09-2020 00:45:17 18.7 C 63 %
6 10-09-2020 00:55:17 18.7 C 63 %
7 10-09-2020 01:05:17 18.7 C 63 %
8 10-09-2020 01:15:17 18.7 C 63 %
9 10-09-2020 01:25:17 18.7 C 63 %
10 10-09-2020 01:35:17 18.7 C 63 %
11 10-09-2020 01:45:17 18.7 C 63 %
12 10-09-2020 01:55:17 18.7 C 63 %
13 10-09-2020 02:05:17 18.7 C 63 %
14 10-09-2020 02:15:18 18.7 C 63 %
15 10-09-2020 02:25:18 18.7 C 63 %
16 10-09-2020 02:35:18 18.7 C 63 %
17 10-09-2020 02:45:17 18.7 C 63 %
18 10-09-2020 02:55:17 18.7 C 63 %
19 10-09-2020 03:05:17 18.7 C 63 %
20 10-09-2020 03:15:17 18.7 C 63 %
21 10-09-2020 03:25:17 18.7 C 63 %
22 10-09-2020 03:35:18 18.7 C 63 %
23 10-09-2020 03:45:17 18.7 C 64 %
24 10-09-2020 03:55:17 18.7 C 64 %
25 10-09-2020 04:05:17 18.6 C 64 %
Sensor: Nr:Datum:Temp:Feuchte:
G-T/H 26 10-09-2020 04:15:17 18.6 C 64 %
27 10-09-2020 04:25:17 18.7 C 64 %
28 10-09-2020 04:35:17 18.6 C 64 %
29 10-09-2020 04:45:17 18.7 C 64 %
30 10-09-2020 04:55:17 18.6 C 64 %
31 10-09-2020 05:05:17 18.6 C 64 %
32 10-09-2020 05:15:17 18.7 C 64 %
33 10-09-2020 05:25:17 18.6 C 64 %
34 10-09-2020 05:35:17 18.6 C 64 %
35 10-09-2020 05:45:17 18.6 C 64 %
36 10-09-2020 05:55:17 18.6 C 64 %
37 10-09-2020 06:05:17 18.6 C 64 %
38 10-09-2020 06:15:17 18.6 C 64 %
39 10-09-2020 06:25:17 18.6 C 64 %
40 10-09-2020 06:35:17 18.5 C 64 %
41 10-09-2020 06:45:18 18.5 C 64 %
42 10-09-2020 06:55:18 18.4 C 63 %
43 10-09-2020 07:05:17 18.2 C 63 %
44 10-09-2020 07:15:18 18.1 C 63 %
45 10-09-2020 07:25:18 18 C 63 %
46 10-09-2020 07:35:18 17.9 C 64 %
47 10-09-2020 07:45:17 17.8 C 64 %
48 10-09-2020 07:55:17 17.8 C 64 %
49 10-09-2020 08:05:17 17.7 C 64 %
50 10-09-2020 08:15:17 17.8 C 63 %
Sensor: Nr:Datum:Temp:Feuchte:
G-T/H 51 10-09-2020 08:25:17 17.7 C 63 %
52 10-09-2020 08:35:17 17.7 C 63 %
53 10-09-2020 08:45:17 17.7 C 64 %
54 10-09-2020 08:55:17 17.7 C 64 %
55 10-09-2020 09:05:17 17.7 C 64 %
56 10-09-2020 09:15:17 17.7 C 64 %
57 10-09-2020 09:25:17 17.7 C 64 %
58 10-09-2020 09:35:17 17.7 C 64 %
59 10-09-2020 09:45:17 17.7 C 64 %
60 10-09-2020 09:55:17 17.7 C 63 %
61 10-09-2020 10:05:17 17.7 C 63 %
62 10-09-2020 10:15:17 17.7 C 62 %
63 10-09-2020 10:25:17 17.7 C 62 %
64 10-09-2020 10:35:17 17.7 C 61 %
65 10-09-2020 10:45:17 17.7 C 61 %
66 10-09-2020 10:55:17 17.7 C 61 %
67 10-09-2020 11:05:18 17.7 C 60 %
68 10-09-2020 11:15:17 17.8 C 60 %
69 10-09-2020 11:25:17 17.9 C 60 %
70 10-09-2020 11:35:17 17.9 C 60 %
71 10-09-2020 11:45:17 18 C 58 %
72 10-09-2020 11:55:17 18 C 57 %
73 10-09-2020 12:05:17 18.1 C 57 %
74 10-09-2020 12:15:17 18.2 C 57 %
75 10-09-2020 12:25:17 18.3 C 57 %
Sensor: Nr:Datum:Temp:Feuchte:
G-T/H 76 10-09-2020 12:35:17 18.3 C 56 %
77 10-09-2020 12:45:17 18.3 C 55 %
78 10-09-2020 12:55:18 18.3 C 55 %
79 10-09-2020 13:05:18 18.4 C 54 %
80 10-09-2020 13:15:17 18.4 C 53 %
81 10-09-2020 13:25:17 18.5 C 52 %
82 10-09-2020 13:35:18 18.5 C 52 %
83 10-09-2020 13:45:17 18.6 C 51 %
84 10-09-2020 13:55:17 18.7 C 51 %
85 10-09-2020 14:05:18 18.7 C 51 %
86 10-09-2020 14:15:17 18.8 C 51 %
87 10-09-2020 14:25:17 18.9 C 51 %
88 10-09-2020 14:35:17 18.9 C 51 %
89 10-09-2020 14:45:17 18.9 C 51 %
90 10-09-2020 14:55:17 19 C 50 %
91 10-09-2020 15:05:17 19.1 C 50 %
92 10-09-2020 15:15:18 19.1 C 50 %
93 10-09-2020 15:25:18 19.2 C 49 %
94 10-09-2020 15:35:18 19.5 C 49 %
95 10-09-2020 15:45:17 19.7 C 50 %
96 10-09-2020 15:55:17 19.7 C 50 %
97 10-09-2020 16:05:17 19.7 C 51 %
98 10-09-2020 16:15:17 19.7 C 51 %
99 10-09-2020 16:25:17 19.6 C 52 %
100 10-09-2020 16:35:17 19.5 C 52 %
Sensor: Nr:Datum:Temp:Feuchte:
G-T/H 101 10-09-2020 16:45:17 19.5 C 53 %
102 10-09-2020 16:55:17 19.5 C 53 %
103 10-09-2020 17:05:17 19.4 C 53 %
104 10-09-2020 17:15:17 19.4 C 54 %
105 10-09-2020 17:25:17 19.4 C 54 %
106 10-09-2020 17:35:18 19.4 C 54 %
107 10-09-2020 17:45:17 19.3 C 54 %
108 10-09-2020 17:55:17 19.3 C 54 %
109 10-09-2020 18:05:17 19.3 C 55 %
110 10-09-2020 18:15:17 19.3 C 55 %
111 10-09-2020 18:25:17 19.3 C 55 %
112 10-09-2020 18:35:18 19.3 C 55 %
113 10-09-2020 18:45:18 19.3 C 55 %
114 10-09-2020 18:55:18 19.3 C 55 %
115 10-09-2020 19:05:18 19.2 C 55 %
116 10-09-2020 19:15:17 19.2 C 56 %
117 10-09-2020 19:25:17 19.2 C 56 %
118 10-09-2020 19:35:17 19.2 C 56 %
119 10-09-2020 19:45:17 19.2 C 56 %
120 10-09-2020 19:55:17 19.2 C 56 %
121 10-09-2020 20:05:17 19.1 C 56 %
122 10-09-2020 20:15:17 19.1 C 56 %
123 10-09-2020 20:25:17 19.1 C 57 %
124 10-09-2020 20:35:18 19.1 C 57 %
125 10-09-2020 20:45:17 19 C 57 %
Sensor: Nr:Datum:Temp:Feuchte:
G-T/H 126 10-09-2020 20:55:17 19.1 C 57 %
127 10-09-2020 21:05:17 19 C 57 %
128 10-09-2020 21:15:17 18.9 C 58 %
129 10-09-2020 21:25:17 19 C 57 %
130 10-09-2020 21:35:17 18.9 C 58 %
131 10-09-2020 21:45:17 18.9 C 58 %
132 10-09-2020 21:55:17 18.9 C 58 %
133 10-09-2020 22:05:17 18.9 C 58 %
134 10-09-2020 22:15:17 18.9 C 58 %
135 10-09-2020 22:25:17 18.9 C 58 %
136 10-09-2020 22:35:17 18.9 C 58 %
137 10-09-2020 22:45:18 18.9 C 58 %
138 10-09-2020 22:55:18 18.8 C 58 %
139 10-09-2020 23:05:17 18.8 C 58 %
140 10-09-2020 23:15:18 18.8 C 58 %
141 10-09-2020 23:25:18 18.7 C 58 %
142 10-09-2020 23:35:17 18.7 C 58 %
143 10-09-2020 23:45:17 18.7 C 58 %
144 10-09-2020 23:55:17 18.7 C 58 %
145 11-09-2020 00:05:18 18.7 C 58 %
146 11-09-2020 00:15:17 18.7 C 58 %
147 11-09-2020 00:25:17 18.7 C 58 %
148 11-09-2020 00:35:18 18.6 C 58 %
149 11-09-2020 00:45:17 18.6 C 58 %
150 11-09-2020 00:55:17 18.6 C 58 %
Sensor: Nr:Datum:Temp:Feuchte:
G-T/H 151 11-09-2020 01:05:18 18.6 C 58 %
152 11-09-2020 01:15:17 18.6 C 58 %
153 11-09-2020 01:25:17 18.6 C 58 %
154 11-09-2020 01:35:18 18.5 C 58 %
155 11-09-2020 01:45:17 18.5 C 58 %
156 11-09-2020 01:55:17 18.5 C 58 %
157 11-09-2020 02:05:18 18.5 C 58 %
158 11-09-2020 02:15:18 18.5 C 58 %
159 11-09-2020 02:25:18 18.4 C 58 %
160 11-09-2020 02:35:18 18.4 C 58 %
161 11-09-2020 02:45:17 18.4 C 58 %
162 11-09-2020 02:55:17 18.4 C 58 %
163 11-09-2020 03:05:17 18.3 C 58 %
164 11-09-2020 03:15:17 18.3 C 58 %
165 11-09-2020 03:25:17 18.3 C 58 %
166 11-09-2020 03:35:18 18.3 C 58 %
167 11-09-2020 03:45:17 18.2 C 58 %
168 11-09-2020 03:55:17 18.2 C 58 %
169 11-09-2020 04:05:18 18.2 C 58 %
170 11-09-2020 04:15:17 18.2 C 58 %
171 11-09-2020 04:25:17 18.2 C 58 %
172 11-09-2020 04:35:17 18.1 C 58 %
173 11-09-2020 04:45:17 18.1 C 58 %
174 11-09-2020 04:55:17 18.1 C 58 %
175 11-09-2020 05:05:18 18.1 C 58 %
Sensor: Nr:Datum:Temp:Feuchte:
G-T/H 176 11-09-2020 05:15:17 18 C 58 %
177 11-09-2020 05:25:17 18 C 58 %
178 11-09-2020 05:35:18 18 C 58 %
179 11-09-2020 05:45:18 17.9 C 59 %
180 11-09-2020 05:55:18 17.9 C 59 %
181 11-09-2020 06:05:17 17.9 C 59 %
182 11-09-2020 06:15:18 17.9 C 59 %
183 11-09-2020 06:25:18 17.9 C 59 %
184 11-09-2020 06:35:17 17.8 C 59 %
185 11-09-2020 06:45:17 17.8 C 59 %
186 11-09-2020 06:55:17 17.7 C 59 %
187 11-09-2020 07:05:17 17.7 C 59 %
188 11-09-2020 07:15:18 17.7 C 59 %
189 11-09-2020 07:25:18 17.7 C 59 %
190 11-09-2020 07:35:18 17.7 C 59 %
191 11-09-2020 07:45:17 17.6 C 59 %
192 11-09-2020 07:55:17 17.1 C 56 %
193 11-09-2020 08:05:17 16.3 C 54 %
194 11-09-2020 08:15:18 16 C 55 %
195 11-09-2020 08:25:18 15.8 C 55 %
196 11-09-2020 08:35:17 15.6 C 56 %
197 11-09-2020 08:45:18 15.5 C 56 %
198 11-09-2020 08:55:18 15.4 C 57 %
199 11-09-2020 09:05:17 15.3 C 57 %
200 11-09-2020 09:15:17 15.2 C 57 %
Sensor: Nr:Datum:Temp:Feuchte:
G-T/H 201 11-09-2020 09:25:17 15.2 C 58 %
202 11-09-2020 09:35:18 15.2 C 58 %
203 11-09-2020 09:45:17 15.2 C 59 %
204 11-09-2020 09:55:18 15.2 C 59 %
205 11-09-2020 10:05:18 15.2 C 60 %
206 11-09-2020 10:15:17 15.2 C 60 %
207 11-09-2020 10:25:17 15.3 C 60 %
208 11-09-2020 10:35:17 15.4 C 60 %
209 11-09-2020 10:45:17 15.6 C 61 %
210 11-09-2020 10:55:17 15.7 C 61 %
211 11-09-2020 11:05:18 15.9 C 60 %
212 11-09-2020 11:15:17 16 C 59 %
213 11-09-2020 11:25:17 16.1 C 59 %
214 11-09-2020 11:35:17 16.3 C 59 %
215 11-09-2020 11:45:17 16.4 C 59 %
216 11-09-2020 11:55:17 16.5 C 58 %
217 11-09-2020 12:05:17 16.7 C 58 %
218 11-09-2020 12:15:17 16.9 C 57 %
219 11-09-2020 12:25:17 17 C 56 %
220 11-09-2020 12:35:17 17.1 C 55 %
221 11-09-2020 12:45:17 17.2 C 54 %
222 11-09-2020 12:55:18 17.4 C 53 %
223 11-09-2020 13:05:17 17.7 C 52 %
224 11-09-2020 13:15:17 17.7 C 52 %
225 11-09-2020 13:25:17 17.9 C 51 %
Sensor: Nr:Datum:Temp:Feuchte:
G-T/H 226 11-09-2020 13:35:18 18 C 50 %
227 11-09-2020 13:45:17 18.1 C 50 %
228 11-09-2020 13:55:17 18.1 C 50 %
229 11-09-2020 14:05:18 18.3 C 50 %
230 11-09-2020 14:15:18 18.6 C 50 %
231 11-09-2020 14:25:18 18.8 C 49 %
232 11-09-2020 14:35:17 19 C 48 %
233 11-09-2020 14:45:17 19.1 C 48 %
234 11-09-2020 14:55:17 19.2 C 48 %
235 11-09-2020 15:05:18 19.3 C 48 %
236 11-09-2020 15:15:17 19.5 C 48 %
237 11-09-2020 15:25:17 19.5 C 49 %
238 11-09-2020 15:35:18 19.7 C 48 %
239 11-09-2020 15:45:17 19.7 C 48 %
240 11-09-2020 15:55:18 19.9 C 48 %
241 11-09-2020 16:05:17 19.9 C 48 %
242 11-09-2020 16:15:18 20 C 47 %
243 11-09-2020 16:25:18 20 C 48 %
244 11-09-2020 16:35:17 20.2 C 47 %
245 11-09-2020 16:45:17 20.2 C 48 %
246 11-09-2020 16:55:17 20.2 C 47 %
247 11-09-2020 17:05:17 20.3 C 47 %
248 11-09-2020 17:15:17 20.3 C 47 %
249 11-09-2020 17:25:17 20.4 C 47 %
250 11-09-2020 17:35:17 20.5 C 47 %
Sensor: Nr:Datum:Temp:Feuchte:
G-T/H 251 11-09-2020 17:45:18 20.6 C 47 %
252 11-09-2020 17:55:18 20.6 C 47 %
253 11-09-2020 18:05:18 20.6 C 47 %
254 11-09-2020 18:15:17 20.6 C 47 %
255 11-09-2020 18:25:17 20.6 C 47 %
256 11-09-2020 18:35:17 20.8 C 48 %
257 11-09-2020 18:45:17 20.5 C 50 %
258 11-09-2020 18:55:17 20.3 C 51 %
259 11-09-2020 19:05:18 20.2 C 51 %
260 11-09-2020 19:15:17 20.1 C 51 %
261 11-09-2020 19:25:17 19.9 C 52 %
262 11-09-2020 19:35:17 19.7 C 52 %
263 11-09-2020 19:45:17 19.5 C 53 %
264 11-09-2020 19:55:17 19.4 C 53 %
265 11-09-2020 20:05:17 19.2 C 53 %
266 11-09-2020 20:15:17 19.2 C 53 %
267 11-09-2020 20:25:17 19.1 C 53 %
268 11-09-2020 20:35:17 18.9 C 54 %
269 11-09-2020 20:45:17 18.9 C 54 %
270 11-09-2020 20:55:17 18.8 C 54 %
271 11-09-2020 21:05:18 18.8 C 54 %
272 11-09-2020 21:15:17 18.8 C 54 %
273 11-09-2020 21:25:17 18.8 C 55 %
274 11-09-2020 21:35:17 18.8 C 55 %
275 11-09-2020 21:45:17 18.7 C 55 %
Sensor: Nr:Datum:Temp:Feuchte:
G-T/H 276 11-09-2020 21:55:17 18.7 C 55 %
277 11-09-2020 22:05:17 18.7 C 55 %
278 11-09-2020 22:15:18 18.7 C 55 %
279 11-09-2020 22:25:18 18.6 C 55 %
280 11-09-2020 22:35:17 18.6 C 55 %
281 11-09-2020 22:45:18 18.6 C 55 %
282 11-09-2020 22:55:18 18.6 C 56 %
283 11-09-2020 23:05:17 18.5 C 56 %
284 11-09-2020 23:15:17 18.5 C 56 %
285 11-09-2020 23:25:17 18.5 C 56 %
286 11-09-2020 23:35:18 18.5 C 56 %
287 11-09-2020 23:45:18 18.5 C 56 %
288 11-09-2020 23:55:18 18.5 C 56 %
289 12-09-2020 00:05:18 18.5 C 56 %
290 12-09-2020 00:15:17 18.4 C 56 %
291 12-09-2020 00:25:17 18.4 C 56 %
292 12-09-2020 00:35:18 18.4 C 56 %
293 12-09-2020 00:45:17 18.3 C 56 %
294 12-09-2020 00:55:17 18.3 C 56 %
295 12-09-2020 01:05:17 18.4 C 56 %
296 12-09-2020 01:15:17 18.3 C 56 %
297 12-09-2020 01:25:17 18.3 C 57 %
298 12-09-2020 01:35:17 18.3 C 57 %
299 12-09-2020 01:45:17 18.3 C 57 %
300 12-09-2020 01:55:17 18.2 C 57 %
Sensor: Nr:Datum:Temp:Feuchte:
G-T/H 301 12-09-2020 02:05:18 18.2 C 57 %
302 12-09-2020 02:15:17 18.2 C 57 %
303 12-09-2020 02:25:17 18.2 C 57 %
304 12-09-2020 02:35:18 18.2 C 57 %
305 12-09-2020 02:45:18 18.1 C 57 %
306 12-09-2020 02:55:18 18.1 C 57 %
307 12-09-2020 03:05:17 18.1 C 57 %
308 12-09-2020 03:15:17 18.1 C 57 %
309 12-09-2020 03:25:18 18 C 57 %
310 12-09-2020 03:35:17 18.1 C 57 %
311 12-09-2020 03:45:17 18 C 57 %
312 12-09-2020 03:55:18 18 C 57 %
313 12-09-2020 04:05:18 18 C 57 %
314 12-09-2020 04:15:17 17.9 C 58 %
315 12-09-2020 04:25:17 17.9 C 58 %
316 12-09-2020 04:35:18 17.9 C 58 %
317 12-09-2020 04:45:17 17.9 C 58 %
318 12-09-2020 04:55:17 17.9 C 58 %
319 12-09-2020 05:05:17 17.8 C 58 %
320 12-09-2020 05:15:18 17.8 C 59 %
321 12-09-2020 05:25:18 17.8 C 59 %
322 12-09-2020 05:35:17 17.8 C 59 %
323 12-09-2020 05:45:17 17.7 C 59 %
324 12-09-2020 05:55:17 17.7 C 59 %
325 12-09-2020 06:05:17 17.7 C 59 %
Sensor: Nr:Datum:Temp:Feuchte:
G-T/H 326 12-09-2020 06:15:17 17.7 C 59 %
327 12-09-2020 06:25:17 17.7 C 59 %
328 12-09-2020 06:35:17 17.7 C 59 %
329 12-09-2020 06:45:18 17.6 C 59 %
330 12-09-2020 06:55:18 17.5 C 59 %
331 12-09-2020 07:05:17 17.6 C 59 %
332 12-09-2020 07:15:18 17.6 C 59 %
333 12-09-2020 07:25:18 17.5 C 59 %
334 12-09-2020 07:35:17 17.5 C 59 %
335 12-09-2020 07:45:17 17.5 C 59 %
336 12-09-2020 07:55:17 17.5 C 59 %
337 12-09-2020 08:05:17 17.4 C 59 %
338 12-09-2020 08:15:17 17.4 C 59 %
339 12-09-2020 08:25:17 17.4 C 59 %
340 12-09-2020 08:35:17 17.4 C 59 %
341 12-09-2020 08:45:17 17.4 C 59 %
342 12-09-2020 08:55:17 17.3 C 59 %
343 12-09-2020 09:05:18 17.4 C 59 %
344 12-09-2020 09:15:17 17.3 C 59 %
345 12-09-2020 09:25:17 17.3 C 59 %
346 12-09-2020 09:35:18 17.3 C 60 %
347 12-09-2020 09:45:17 17.3 C 60 %
348 12-09-2020 09:55:17 17.3 C 60 %
349 12-09-2020 10:05:18 17.3 C 60 %
350 12-09-2020 10:15:17 17.3 C 60 %
Sensor: Nr:Datum:Temp:Feuchte:
G-T/H 351 12-09-2020 10:25:18 17.3 C 60 %
352 12-09-2020 10:35:18 17.2 C 60 %
353 12-09-2020 10:45:17 17.3 C 60 %
354 12-09-2020 10:55:17 17.3 C 60 %
355 12-09-2020 11:05:18 17.2 C 60 %
356 12-09-2020 11:15:17 17.3 C 60 %
357 12-09-2020 11:25:17 17.3 C 60 %
358 12-09-2020 11:35:17 17.2 C 60 %
359 12-09-2020 11:45:17 17.2 C 60 %
360 12-09-2020 11:55:17 17.3 C 60 %
361 12-09-2020 12:05:18 17.3 C 60 %
362 12-09-2020 12:15:17 17.2 C 60 %
363 12-09-2020 12:25:17 17.2 C 60 %
364 12-09-2020 12:35:18 17.3 C 60 %
365 12-09-2020 12:45:17 17.3 C 60 %
366 12-09-2020 12:55:18 17.3 C 60 %
367 12-09-2020 13:05:17 17.3 C 60 %
368 12-09-2020 13:15:18 17.3 C 60 %
369 12-09-2020 13:25:18 17.3 C 61 %
370 12-09-2020 13:35:18 17.4 C 61 %
371 12-09-2020 13:45:17 17.4 C 61 %
372 12-09-2020 13:55:18 17.4 C 61 %
373 12-09-2020 14:05:18 17.5 C 61 %
374 12-09-2020 14:15:17 17.5 C 61 %
375 12-09-2020 14:25:17 17.5 C 61 %
Sensor: Nr:Datum:Temp:Feuchte:
G-T/H 376 12-09-2020 14:35:18 17.5 C 61 %
377 12-09-2020 14:45:17 17.5 C 61 %
378 12-09-2020 14:55:17 17.5 C 61 %
379 12-09-2020 15:05:18 17.5 C 61 %
380 12-09-2020 15:15:18 17.5 C 61 %
381 12-09-2020 15:25:18 17.6 C 61 %
382 12-09-2020 15:35:17 17.6 C 61 %
383 12-09-2020 15:45:17 17.6 C 61 %
384 12-09-2020 15:55:17 17.7 C 61 %
385 12-09-2020 16:05:18 17.7 C 61 %
386 12-09-2020 16:15:17 17.7 C 61 %
387 12-09-2020 16:25:18 17.7 C 61 %
388 12-09-2020 16:35:17 17.7 C 61 %
389 12-09-2020 16:45:17 17.7 C 61 %
390 12-09-2020 16:55:17 17.8 C 61 %
391 12-09-2020 17:05:18 17.7 C 61 %
392 12-09-2020 17:15:18 17.8 C 61 %
393 12-09-2020 17:25:18 17.8 C 61 %
394 12-09-2020 17:35:18 17.8 C 61 %
395 12-09-2020 17:45:17 17.9 C 61 %
396 12-09-2020 17:55:17 17.9 C 61 %
397 12-09-2020 18:05:18 17.9 C 61 %
398 12-09-2020 18:15:17 17.9 C 61 %
399 12-09-2020 18:25:17 17.9 C 61 %
400 12-09-2020 18:35:18 17.9 C 61 %
Sensor: Nr:Datum:Temp:Feuchte:
G-T/H 401 12-09-2020 18:45:17 18 C 60 %
402 12-09-2020 18:55:17 18 C 60 %
403 12-09-2020 19:05:18 18 C 60 %
404 12-09-2020 19:15:17 18 C 61 %
405 12-09-2020 19:25:17 18 C 61 %
406 12-09-2020 19:35:17 18.1 C 60 %
407 12-09-2020 19:45:17 18 C 61 %
408 12-09-2020 19:55:17 18 C 61 %
409 12-09-2020 20:05:18 18 C 61 %
410 12-09-2020 20:15:18 18.1 C 61 %
411 12-09-2020 20:25:18 18.1 C 61 %
412 12-09-2020 20:35:17 18.1 C 61 %
413 12-09-2020 20:45:18 18.1 C 61 %
414 12-09-2020 20:55:18 18.1 C 61 %
415 12-09-2020 21:05:18 18.1 C 61 %
416 12-09-2020 21:15:17 18.1 C 61 %
417 12-09-2020 21:25:17 18.1 C 61 %
418 12-09-2020 21:35:17 18.1 C 61 %
419 12-09-2020 21:45:18 18.1 C 61 %
420 12-09-2020 21:55:18 18.1 C 61 %
421 12-09-2020 22:05:17 18.1 C 61 %
422 12-09-2020 22:15:17 18.1 C 61 %
423 12-09-2020 22:25:17 18.1 C 61 %
424 12-09-2020 22:35:17 18.1 C 61 %
425 12-09-2020 22:45:18 18.1 C 61 %
Sensor: Nr:Datum:Temp:Feuchte:
G-T/H 426 12-09-2020 22:55:18 18.1 C 61 %
427 12-09-2020 23:05:18 18.1 C 61 %
428 12-09-2020 23:15:18 18.1 C 61 %
429 12-09-2020 23:25:18 18.1 C 61 %
430 12-09-2020 23:35:17 18.1 C 61 %
431 12-09-2020 23:45:17 18.1 C 61 %
432 12-09-2020 23:55:17 18.1 C 61 %
433 13-09-2020 00:05:18 18.1 C 61 %
434 13-09-2020 00:15:17 18.1 C 61 %
435 13-09-2020 00:25:17 18.1 C 61 %
436 13-09-2020 00:35:18 18.1 C 61 %
437 13-09-2020 00:45:17 18.1 C 61 %
438 13-09-2020 00:55:17 18 C 61 %
439 13-09-2020 01:05:18 18 C 61 %
440 13-09-2020 01:15:17 18 C 61 %
441 13-09-2020 01:25:17 18 C 61 %
442 13-09-2020 01:35:18 18 C 61 %
443 13-09-2020 01:45:17 18 C 61 %
444 13-09-2020 01:55:17 18 C 61 %
445 13-09-2020 02:05:17 18 C 61 %
446 13-09-2020 02:15:18 18 C 61 %
447 13-09-2020 02:25:18 17.9 C 62 %
448 13-09-2020 02:35:17 18 C 61 %
449 13-09-2020 02:45:17 17.9 C 62 %
450 13-09-2020 02:55:17 17.9 C 62 %
Sensor: Nr:Datum:Temp:Feuchte:
G-T/H 451 13-09-2020 03:05:17 17.9 C 62 %
452 13-09-2020 03:15:17 17.9 C 62 %
453 13-09-2020 03:25:17 17.9 C 62 %
454 13-09-2020 03:35:17 17.9 C 62 %
455 13-09-2020 03:45:17 17.9 C 62 %
456 13-09-2020 03:55:17 17.9 C 62 %
457 13-09-2020 04:05:17 17.8 C 62 %
458 13-09-2020 04:15:17 17.9 C 62 %
459 13-09-2020 04:25:17 17.8 C 62 %
460 13-09-2020 04:35:18 17.8 C 62 %
461 13-09-2020 04:45:17 17.8 C 62 %
462 13-09-2020 04:55:17 17.8 C 62 %
463 13-09-2020 05:05:18 17.7 C 62 %
464 13-09-2020 05:15:17 17.7 C 62 %
465 13-09-2020 05:25:17 17.7 C 62 %
466 13-09-2020 05:35:17 17.7 C 62 %
467 13-09-2020 05:45:17 17.7 C 62 %
468 13-09-2020 05:55:17 17.7 C 62 %
469 13-09-2020 06:05:17 17.7 C 62 %
470 13-09-2020 06:15:17 17.7 C 62 %
471 13-09-2020 06:25:17 17.6 C 62 %
472 13-09-2020 06:35:18 17.6 C 62 %
473 13-09-2020 06:45:18 17.6 C 62 %
474 13-09-2020 06:55:18 17.6 C 62 %
475 13-09-2020 07:05:17 17.6 C 62 %
Sensor: Nr:Datum:Temp:Feuchte:
G-T/H 476 13-09-2020 07:15:18 17.5 C 62 %
477 13-09-2020 07:25:18 17.5 C 62 %
478 13-09-2020 07:35:17 17.5 C 62 %
479 13-09-2020 07:45:17 17.5 C 62 %
480 13-09-2020 07:55:17 17.5 C 62 %
481 13-09-2020 08:05:18 17.4 C 62 %
482 13-09-2020 08:15:17 17.4 C 62 %
483 13-09-2020 08:25:17 17.4 C 62 %
484 13-09-2020 08:35:18 17.4 C 62 %
485 13-09-2020 08:45:17 17.4 C 62 %
486 13-09-2020 08:55:17 17.4 C 62 %
487 13-09-2020 09:05:18 17.3 C 62 %
488 13-09-2020 09:15:17 17.3 C 62 %
489 13-09-2020 09:25:17 17.3 C 62 %
490 13-09-2020 09:35:17 17.3 C 62 %